Time,TemperatureF,DewpointF,PressureIn,WindDirection,WindDirectionDegrees,WindSpeedMPH,WindSpeedGustMPH,Humidity,HourlyPrecipIn,Conditions,Clouds,dailyrainin,SolarRadiationWatts/m^2,SoftwareType,DateUTC
2013-03-31 00:00:00,67.9,33.4,29.44,WSW,247,8.7,11.1,27,-99.99,,,0.00,0,rob ver 1B,2013-03-31 07:00:00,
2013-03-31 00:01:00,67.9,33.5,29.41,WSW,245,9.3,11.3,27,-99.99,,,0.00,0,rob ver 1B,2013-03-31 07:01:00,
2013-03-31 00:02:00,67.9,33.4,29.44,WSW,243,7.5,10.4,27,-99.99,,,0.00,0,rob ver 1B,2013-03-31 07:02:00,
2013-03-31 00:03:00,70.0,34.2,29.44,ESE,118,4.4,5.5,26,-99.99,,,0.00,0,rob ver 1A,2013-03-31 07:03:00,
2013-03-31 00:04:00,67.8,33.4,29.44,WSW,245,8.3,10.5,27,-99.99,,,0.00,0,rob ver 1B,2013-03-31 07:04:00,
2013-03-31 00:05:00,67.8,33.4,29.44,WSW,248,9.5,11.8,27,-99.99,,,0.00,0,rob ver 1B,2013-03-31 07:05:00,
2013-03-31 00:06:00,67.7,33.4,29.41,WSW,252,9.4,12.1,27,-99.99,,,0.00,0,rob ver 1B,2013-03-31 07:06:00,
2013-03-31 00:07:00,67.8,33.5,29.41,WSW,254,9.4,11.2,27,-99.99,,,0.00,0,rob ver 1B,2013-03-31 07:07:00,
2013-03-31 00:08:00,69.6,33.3,29.44,NE,42,3.1,3.8,25,-99.99,,,0.00,0,rob ver 1A,2013-03-31 07:08:00,
2013-03-31 00:09:00,67.8,33.6,29.41,WSW,256,11.7,14.4,27,-99.99,,,0.00,0,rob ver 1B,2013-03-31 07:09:00,
2013-03-31 00:10:00,67.9,33.6,29.41,WSW,251,11.1,12.7,28,-99.99,,,0.00,0,rob ver 1B,2013-03-31 07:10:00,
2013-03-31 00:11:00,67.8,33.6,29.41,WSW,246,9.4,11.8,28,-99.99,,,0.00,0,rob ver 1B,2013-03-31 07:11:00,
2013-03-31 00:12:00,67.7,33.6,29.41,WSW,252,8.4,10.8,28,-99.99,,,0.00,0,rob ver 1B,2013-03-31 07:12:00,
2013-03-31 00:13:00,69.4,33.7,29.44,ENE,75,2.5,3.2,27,-99.99,,,0.00,0,rob ver 1A,2013-03-31 07:13:00,
2013-03-31 00:14:00,67.4,33.6,29.44,WSW,254,8.8,11.9,28,-99.99,,,0.00,0,rob ver 1B,2013-03-31 07:14:00,
2013-03-31 00:15:00,67.4,33.6,29.44,WSW,253,8.2,9.8,28,-99.99,,,0.00,0,rob ver 1B,2013-03-31 07:15:00,
2013-03-31 00:16:00,67.4,33.6,29.44,WSW,254,7.4,10.5,28,-99.99,,,0.00,0,rob ver 1B,2013-03-31 07:16:00,
2013-03-31 00:17:00,67.3,33.6,29.41,West,263,6.0,10.4,28,-99.99,,,0.00,0,rob ver 1B,2013-03-31 07:17:00,
2013-03-31 00:18:00,70.2,34.6,29.44,ESE,102,3.9,5.0,26,-99.99,,,0.00,0,rob ver 1A,2013-03-31 07:18:00,
2013-03-31 00:19:00,67.2,33.9,29.44,WSW,256,9.3,12.4,29,-99.99,,,0.00,0,rob ver 1B,2013-03-31 07:19:00,
2013-03-31 00:20:00,67.3,34.1,29.44,WSW,250,10.7,13.0,29,-99.99,,,0.00,0,rob ver 1B,2013-03-31 07:20:00,
2013-03-31 00:21:00,67.4,34.3,29.41,WSW,246,13.2,14.9,29,-99.99,,,0.00,0,rob ver 1B,2013-03-31 07:21:00,
2013-03-31 00:22:00,67.5,34.4,29.41,WSW,248,10.8,14.0,29,-99.99,,,0.00,0,rob ver 1B,2013-03-31 07:22:00,
2013-03-31 00:23:00,70.4,34.2,29.44,ESE,117,2.8,4.2,26,-99.99,,,0.00,0,rob ver 1A,2013-03-31 07:23:00,
2013-03-31 00:24:00,67.3,34.4,29.44,WSW,253,9.5,14.1,29,-99.99,,,0.00,0,rob ver 1B,2013-03-31 07:24:00,
2013-03-31 00:25:00,67.3,34.5,29.41,WSW,247,11.4,14.7,29,-99.99,,,0.00,0,rob ver 1B,2013-03-31 07:25:00,
2013-03-31 00:26:00,67.3,34.5,29.41,WSW,248,9.5,13.9,29,-99.99,,,0.00,0,rob ver 1B,2013-03-31 07:26:00,
2013-03-31 00:27:00,67.3,34.4,29.41,WSW,254,10.4,12.5,29,-99.99,,,0.00,0,rob ver 1B,2013-03-31 07:27:00,
2013-03-31 00:28:00,70.3,34.0,29.44,SE,133,2.3,3.3,26,-99.99,,,0.00,0,rob ver 1A,2013-03-31 07:28:00,
2013-03-31 00:29:00,67.2,34.5,29.41,WSW,243,9.1,10.5,29,-99.99,,,0.00,0,rob ver 1B,2013-03-31 07:29:00,
2013-03-31 00:30:00,67.2,34.5,29.41,WSW,245,9.9,12.6,29,-99.99,,,0.00,0,rob ver 1B,2013-03-31 07:30:00,
2013-03-31 00:31:00,67.2,34.5,29.41,WSW,250,10.1,12.8,29,-99.99,,,0.00,0,rob ver 1B,2013-03-31 07:31:00,
2013-03-31 00:32:00,67.2,34.5,29.41,WSW,246,8.8,11.5,29,-99.99,,,0.00,0,rob ver 1B,2013-03-31 07:32:00,
2013-03-31 00:33:00,67.0,34.5,29.41,WSW,247,9.8,12.6,29,-99.99,,,0.00,0,rob ver 1B,2013-03-31 07:33:00,
2013-03-31 00:34:00,70.1,34.0,29.44,ENE,59,0.7,1.3,26,-99.99,,,0.00,0,rob ver 1A,2013-03-31 07:34:00,
2013-03-31 00:35:00,67.1,34.5,29.41,WSW,242,8.1,10.7,30,-99.99,,,0.00,0,rob ver 1B,2013-03-31 07:35:00,
2013-03-31 00:36:00,67.0,34.6,29.41,WSW,238,8.6,11.3,30,-99.99,,,0.00,0,rob ver 1B,2013-03-31 07:36:00,
2013-03-31 00:37:00,67.0,34.7,29.41,SW,235,9.5,12.8,30,-99.99,,,0.00,0,rob ver 1B,2013-03-31 07:37:00,
2013-03-31 00:38:00,66.9,34.6,29.41,SW,229,7.7,10.9,30,-99.99,,,0.00,0,rob ver 1B,2013-03-31 07:38:00,
2013-03-31 00:39:00,69.7,33.9,29.44,ESE,110,0.7,1.3,26,-99.99,,,0.00,0,rob ver 1A,2013-03-31 07:39:00,
2013-03-31 00:40:00,66.8,34.8,29.41,SW,230,10.7,12.3,30,-99.99,,,0.00,0,rob ver 1B,2013-03-31 07:40:00,
2013-03-31 00:41:00,66.9,34.9,29.41,SW,232,10.4,12.7,30,-99.99,,,0.00,0,rob ver 1B,2013-03-31 07:41:00,
2013-03-31 00:42:00,66.9,34.9,29.41,SW,222,10.1,12.1,30,-99.99,,,0.00,0,rob ver 1B,2013-03-31 07:42:00,
2013-03-31 00:43:00,66.8,34.9,29.41,SW,223,8.9,10.9,30,-99.99,,,0.00,0,rob ver 1B,2013-03-31 07:43:00,
2013-03-31 00:44:00,69.5,33.8,29.44,South,191,2.1,2.9,26,-99.99,,,0.00,0,rob ver 1A,2013-03-31 07:44:00,
2013-03-31 00:45:00,66.6,34.9,29.41,SW,224,11.1,14.5,30,-99.99,,,0.00,0,rob ver 1B,2013-03-31 07:45:00,
2013-03-31 00:46:00,66.7,34.9,29.41,SW,222,11.1,13.2,30,-99.99,,,0.00,0,rob ver 1B,2013-03-31 07:46:00,
2013-03-31 00:47:00,66.7,35.0,29.41,SW,226,10.9,14.3,30,-99.99,,,0.00,0,rob ver 1B,2013-03-31 07:47:00,
2013-03-31 00:48:00,66.6,35.0,29.41,SW,228,11.7,15.3,30,-99.99,,,0.00,0,rob ver 1B,2013-03-31 07:48:00,
2013-03-31 00:49:00,69.3,33.7,29.44,SW,218,2.2,3.4,26,-99.99,,,0.00,0,rob ver 1A,2013-03-31 07:49:00,
2013-03-31 00:50:00,66.6,35.1,29.41,SW,220,11.7,14.1,31,-99.99,,,0.00,0,rob ver 1B,2013-03-31 07:50:00,
2013-03-31 00:51:00,66.6,35.2,29.41,SW,223,11.3,13.2,31,-99.99,,,0.00,0,rob ver 1B,2013-03-31 07:51:00,
2013-03-31 00:52:00,66.5,35.2,29.41,SW,221,11.3,14.1,31,-99.99,,,0.00,0,rob ver 1B,2013-03-31 07:52:00,
2013-03-31 00:53:00,66.5,35.2,29.41,SW,218,9.5,11.2,31,-99.99,,,0.00,0,rob ver 1B,2013-03-31 07:53:00,
2013-03-31 00:54:00,69.5,33.6,29.44,SW,219,1.4,1.9,26,-99.99,,,0.00,0,rob ver 1A,2013-03-31 07:54:00,
2013-03-31 00:55:00,66.5,35.2,29.41,SW,225,11.5,15.0,31,-99.99,,,0.00,0,rob ver 1B,2013-03-31 07:55:00,
2013-03-31 00:56:00,66.4,35.3,29.41,SW,225,12.3,17.0,31,-99.99,,,0.00,0,rob ver 1B,2013-03-31 07:56:00,
2013-03-31 00:57:00,66.5,35.3,29.41,SW,215,10.4,12.7,31,-99.99,,,0.00,0,rob ver 1B,2013-03-31 07:57:00,
2013-03-31 00:58:00,66.5,35.4,29.41,SW,214,11.3,14.6,31,-99.99,,,0.00,0,rob ver 1B,2013-03-31 07:58:00,
2013-03-31 00:59:00,69.3,33.3,29.44,East,94,0.9,1.4,26,-99.99,,,0.00,0,rob ver 1A,2013-03-31 07:59:00,
2013-03-31 01:00:00,66.4,35.4,29.41,SSW,198,9.4,11.3,31,-99.99,,,0.00,0,rob ver 1B,2013-03-31 08:00:00,
2013-03-31 01:01:00,66.3,35.4,29.41,South,190,9.3,12.3,31,-99.99,,,0.00,0,rob ver 1B,2013-03-31 08:01:00,
2013-03-31 01:02:00,66.2,35.4,29.41,SSW,194,8.3,10.7,31,-99.99,,,0.00,0,rob ver 1B,2013-03-31 08:02:00,
2013-03-31 01:03:00,66.1,35.5,29.41,South,186,9.5,12.7,31,-99.99,,,0.00,0,rob ver 1B,2013-03-31 08:03:00,
2013-03-31 01:04:00,68.9,33.2,29.44,ENE,74,2.9,3.4,26,-99.99,,,0.00,0,rob ver 1A,2013-03-31 08:04:00,
2013-03-31 01:05:00,65.7,35.0,29.44,SSE,158,6.9,10.7,32,-99.99,,,0.00,0,rob ver 1B,2013-03-31 08:05:00,
2013-03-31 01:06:00,65.7,35.8,29.41,SSW,200,12.0,16.2,33,-99.99,,,0.00,0,rob ver 1B,2013-03-31 08:06:00,
2013-03-31 01:07:00,65.9,36.0,29.41,SSW,195,8.6,11.2,32,-99.99,,,0.00,0,rob ver 1B,2013-03-31 08:07:00,
2013-03-31 01:08:00,65.9,35.9,29.41,SSW,192,11.6,15.6,32,-99.99,,,0.00,0,rob ver 1B,2013-03-31 08:08:00,
2013-03-31 01:09:00,69.6,33.2,29.44,East,98,2.9,3.7,26,-99.99,,,0.00,0,rob ver 1A,2013-03-31 08:09:00,
2013-03-31 01:10:00,66.0,36.1,29.41,SSW,202,11.8,15.1,33,-99.99,,,0.00,0,rob ver 1B,2013-03-31 08:10:00,
2013-03-31 01:11:00,66.1,36.3,29.41,SSW,204,10.0,13.7,32,-99.99,,,0.00,0,rob ver 1B,2013-03-31 08:11:00,
2013-03-31 01:12:00,66.0,35.8,29.41,SSW,196,9.0,12.1,32,-99.99,,,0.00,0,rob ver 1B,2013-03-31 08:12:00,
2013-03-31 01:13:00,65.9,35.5,29.44,South,178,7.6,10.7,32,-99.99,,,0.00,0,rob ver 1B,2013-03-31 08:13:00,
2013-03-31 01:14:00,69.9,33.3,29.44,SSE,154,2.4,3.4,25,-99.99,,,0.00,0,rob ver 1A,2013-03-31 08:14:00,
2013-03-31 01:15:00,65.9,35.8,29.44,South,177,7.8,11.9,31,-99.99,,,0.00,0,rob ver 1B,2013-03-31 08:15:00,
2013-03-31 01:16:00,66.0,36.1,29.44,SE,143,10.6,16.4,32,-99.99,,,0.00,0,rob ver 1B,2013-03-31 08:16:00,
2013-03-31 01:17:00,66.2,36.4,29.44,ESE,112,9.0,12.2,33,-99.99,,,0.00,0,rob ver 1B,2013-03-31 08:17:00,
2013-03-31 01:18:00,66.1,36.7,29.41,ESE,109,7.5,10.7,33,-99.99,,,0.00,0,rob ver 1B,2013-03-31 08:18:00,
2013-03-31 01:19:00,66.1,36.5,29.41,SE,135,3.8,7.1,33,-99.99,,,0.00,0,rob ver 1B,2013-03-31 08:19:00,
2013-03-31 01:20:00,70.0,33.2,29.44,South,191,2.4,2.8,25,-99.99,,,0.00,0,rob ver 1A,2013-03-31 08:20:00,
2013-03-31 01:21:00,66.2,36.5,29.44,ESE,117,5.4,7.5,33,-99.99,,,0.00,0,rob ver 1B,2013-03-31 08:21:00,
2013-03-31 01:22:00,66.1,36.2,29.44,SE,137,5.0,7.4,32,-99.99,,,0.00,0,rob ver 1B,2013-03-31 08:22:00,
2013-03-31 01:23:00,66.0,36.0,29.44,SSE,161,4.0,6.0,32,-99.99,,,0.00,0,rob ver 1B,2013-03-31 08:23:00,
2013-03-31 01:24:00,65.9,36.0,29.41,SE,143,3.7,5.9,33,-99.99,,,0.00,0,rob ver 1B,2013-03-31 08:24:00,
2013-03-31 01:25:00,69.8,33.4,29.44,South,172,1.9,2.3,25,-99.99,,,0.00,0,rob ver 1A,2013-03-31 08:25:00,
2013-03-31 01:26:00,65.8,35.8,29.44,ESE,119,5.5,7.7,33,-99.99,,,0.00,0,rob ver 1B,2013-03-31 08:26:00,
2013-03-31 01:27:00,65.7,35.9,29.44,ESE,118,4.5,5.7,32,-99.99,,,0.00,0,rob ver 1B,2013-03-31 08:27:00,
2013-03-31 01:28:00,65.5,35.7,29.44,ESE,108,4.1,4.7,33,-99.99,,,0.00,0,rob ver 1B,2013-03-31 08:28:00,
2013-03-31 01:29:00,65.2,35.7,29.41,ESE,112,4.1,5.8,33,-99.99,,,0.00,0,rob ver 1B,2013-03-31 08:29:00,
2013-03-31 01:30:00,69.9,33.3,29.44,SE,137,1.9,3.3,26,-99.99,,,0.00,0,rob ver 1A,2013-03-31 08:30:00,
2013-03-31 01:31:00,64.9,36.2,29.44,ESE,102,6.3,8.2,34,-99.99,,,0.00,0,rob ver 1B,2013-03-31 08:31:00,
2013-03-31 01:32:00,65.0,36.2,29.44,ESE,122,6.0,7.6,34,-99.99,,,0.00,0,rob ver 1B,2013-03-31 08:32:00,
2013-03-31 01:33:00,65.0,36.1,29.44,ESE,121,5.4,6.2,34,-99.99,,,0.00,0,rob ver 1B,2013-03-31 08:33:00,
2013-03-31 01:34:00,64.8,36.0,29.44,SE,124,5.6,7.1,34,-99.99,,,0.00,0,rob ver 1B,2013-03-31 08:34:00,
2013-03-31 01:35:00,69.9,33.4,29.44,ENE,71,2.1,3.1,25,-99.99,,,0.00,0,rob ver 1A,2013-03-31 08:35:00,
2013-03-31 01:36:00,64.8,36.3,29.44,SE,124,6.7,8.3,34,-99.99,,,0.00,0,rob ver 1B,2013-03-31 08:36:00,
2013-03-31 01:37:00,64.8,36.7,29.44,SE,146,6.4,9.5,35,-99.99,,,0.00,0,rob ver 1B,2013-03-31 08:37:00,
2013-03-31 01:39:00,65.0,36.8,29.41,South,172,4.5,6.1,35,-99.99,,,0.00,0,rob ver 1B,2013-03-31 08:39:00,
2013-03-31 01:40:00,69.5,33.0,29.44,NE,51,2.8,3.1,26,-99.99,,,0.00,0,rob ver 1A,2013-03-31 08:40:00,
2013-03-31 01:41:00,64.9,37.0,29.41,South,183,5.8,7.7,35,-99.99,,,0.00,0,rob ver 1B,2013-03-31 08:41:00,
2013-03-31 01:42:00,64.9,37.0,29.44,SSW,212,4.9,7.2,35,-99.99,,,0.00,0,rob ver 1B,2013-03-31 08:42:00,
2013-03-31 01:43:00,64.8,37.2,29.44,SW,233,4.5,6.7,36,-99.99,,,0.00,0,rob ver 1B,2013-03-31 08:43:00,
2013-03-31 01:44:00,64.9,37.2,29.41,SSW,197,4.6,6.8,35,-99.99,,,0.00,0,rob ver 1B,2013-03-31 08:44:00,
2013-03-31 01:45:00,69.6,33.2,29.44,NE,55,1.3,1.7,25,-99.99,,,0.00,0,rob ver 1A,2013-03-31 08:45:00,
2013-03-31 01:46:00,64.8,37.3,29.41,SSW,213,3.8,6.0,35,-99.99,,,0.00,0,rob ver 1B,2013-03-31 08:46:00,
2013-03-31 01:47:00,64.7,37.4,29.44,SSW,211,3.8,6.3,36,-99.99,,,0.00,0,rob ver 1B,2013-03-31 08:47:00,
2013-03-31 01:48:00,64.7,37.6,29.41,SW,221,2.1,3.4,36,-99.99,,,0.00,0,rob ver 1B,2013-03-31 08:48:00,
2013-03-31 01:49:00,64.7,37.6,29.41,SW,227,4.9,8.8,36,-99.99,,,0.00,0,rob ver 1B,2013-03-31 08:49:00,
2013-03-31 01:50:00,69.6,33.1,29.44,SSW,197,0.3,0.9,25,-99.99,,,0.00,0,rob ver 1A,2013-03-31 08:50:00,
2013-03-31 01:51:00,64.5,37.6,29.41,SW,232,5.1,7.7,36,-99.99,,,0.00,0,rob ver 1B,2013-03-31 08:51:00,
2013-03-31 01:52:00,64.5,37.6,29.41,SW,228,4.1,6.1,36,-99.99,,,0.00,0,rob ver 1B,2013-03-31 08:52:00,
2013-03-31 01:53:00,64.5,37.6,29.41,SW,231,5.8,8.2,36,-99.99,,,0.00,0,rob ver 1B,2013-03-31 08:53:00,
2013-03-31 01:54:00,64.6,37.7,29.41,SW,226,6.0,7.8,36,-99.99,,,0.00,0,rob ver 1B,2013-03-31 08:54:00,
2013-03-31 01:55:00,69.6,34.2,29.44,SSW,204,1.9,2.5,27,-99.99,,,0.00,0,rob ver 1A,2013-03-31 08:55:00,
2013-03-31 01:56:00,64.7,37.6,29.41,SW,224,7.0,9.7,36,-99.99,,,0.00,0,rob ver 1B,2013-03-31 08:56:00,
2013-03-31 01:57:00,64.7,37.6,29.41,SW,227,7.5,10.1,36,-99.99,,,0.00,0,rob ver 1B,2013-03-31 08:57:00,
2013-03-31 01:58:00,64.7,37.6,29.44,SW,231,7.4,9.4,36,-99.99,,,0.00,0,rob ver 1B,2013-03-31 08:58:00,
2013-03-31 01:59:00,64.7,37.6,29.44,SW,227,7.7,10.8,36,-99.99,,,0.00,0,rob ver 1B,2013-03-31 08:59:00,
2013-03-31 02:00:00,69.8,34.2,29.44,SSE,165,2.4,2.9,26,-99.99,,,0.00,0,rob ver 1A,2013-03-31 09:00:00,
2013-03-31 02:01:00,64.7,37.6,29.41,SW,222,7.3,11.8,36,-99.99,,,0.00,0,rob ver 1B,2013-03-31 09:01:00,
2013-03-31 02:02:00,64.8,37.7,29.44,SW,228,7.6,11.4,36,-99.99,,,0.00,0,rob ver 1B,2013-03-31 09:02:00,
2013-03-31 02:03:00,64.7,37.5,29.44,SW,217,6.7,9.6,36,-99.99,,,0.00,0,rob ver 1B,2013-03-31 09:03:00,
2013-03-31 02:04:00,64.6,37.5,29.44,SW,230,7.5,10.4,36,-99.99,,,0.00,0,rob ver 1B,2013-03-31 09:04:00,
2013-03-31 02:05:00,69.2,34.0,29.44,SE,128,1.9,2.3,27,-99.99,,,0.00,0,rob ver 1A,2013-03-31 09:05:00,
2013-03-31 02:06:00,64.8,37.5,29.44,SSW,203,6.4,9.4,36,-99.99,,,0.00,0,rob ver 1B,2013-03-31 09:06:00,
2013-03-31 02:07:00,64.8,37.4,29.44,South,188,3.9,8.3,36,-99.99,,,0.00,0,rob ver 1B,2013-03-31 09:07:00,
2013-03-31 02:08:00,64.8,37.3,29.44,SSW,204,4.1,6.1,36,-99.99,,,0.00,0,rob ver 1B,2013-03-31 09:08:00,
2013-03-31 02:09:00,64.6,37.4,29.44,SSW,198,5.4,7.6,36,-99.99,,,0.00,0,rob ver 1B,2013-03-31 09:09:00,
2013-03-31 02:10:00,69.2,33.3,29.44,East,84,1.7,2.1,26,-99.99,,,0.00,0,rob ver 1A,2013-03-31 09:10:00,
2013-03-31 02:11:00,64.3,37.7,29.44,SSE,160,4.6,5.6,37,-99.99,,,0.00,0,rob ver 1B,2013-03-31 09:11:00,
2013-03-31 02:12:00,64.4,37.8,29.44,SSE,160,5.2,8.2,37,-99.99,,,0.00,0,rob ver 1B,2013-03-31 09:12:00,
2013-03-31 02:13:00,64.4,37.8,29.44,SE,146,4.9,7.0,37,-99.99,,,0.00,0,rob ver 1B,2013-03-31 09:13:00,
2013-03-31 02:14:00,64.4,37.9,29.44,SE,146,5.4,7.3,37,-99.99,,,0.00,0,rob ver 1B,2013-03-31 09:14:00,
2013-03-31 02:15:00,64.4,37.8,29.44,SSE,154,5.8,7.0,37,-99.99,,,0.00,0,rob ver 1B,2013-03-31 09:15:00,
2013-03-31 02:16:00,69.1,33.7,29.44,ESE,115,2.5,3.1,26,-99.99,,,0.00,0,rob ver 1A,2013-03-31 09:16:00,
2013-03-31 02:17:00,63.9,37.8,29.44,SSE,154,6.1,7.4,38,-99.99,,,0.00,0,rob ver 1B,2013-03-31 09:17:00,
2013-03-31 02:18:00,63.9,37.9,29.44,South,180,6.5,7.8,38,-99.99,,,0.00,0,rob ver 1B,2013-03-31 09:18:00,
2013-03-31 02:19:00,64.0,38.0,29.44,South,180,6.2,8.0,38,-99.99,,,0.00,0,rob ver 1B,2013-03-31 09:19:00,
2013-03-31 02:20:00,64.1,38.0,29.44,South,176,5.5,7.2,37,-99.99,,,0.00,0,rob ver 1B,2013-03-31 09:20:00,
2013-03-31 02:21:00,68.7,33.2,29.44,SE,136,2.1,2.5,27,-99.99,,,0.00,0,rob ver 1A,2013-03-31 09:21:00,
2013-03-31 02:22:00,64.0,37.9,29.44,South,181,7.8,9.8,38,-99.99,,,0.00,0,rob ver 1B,2013-03-31 09:22:00,
2013-03-31 02:23:00,63.9,38.0,29.44,South,184,5.9,7.9,38,-99.99,,,0.00,0,rob ver 1B,2013-03-31 09:23:00,
2013-03-31 02:24:00,63.8,38.1,29.44,SSW,200,6.2,7.7,38,-99.99,,,0.00,0,rob ver 1B,2013-03-31 09:24:00,
2013-03-31 02:25:00,63.8,38.4,29.41,SSW,205,7.9,10.6,39,-99.99,,,0.00,0,rob ver 1B,2013-03-31 09:25:00,
2013-03-31 02:26:00,68.2,33.8,29.44,SSE,158,3.4,3.6,27,-99.99,,,0.00,0,rob ver 1A,2013-03-31 09:26:00,
2013-03-31 02:27:00,64.0,38.6,29.41,SSW,206,8.2,11.0,39,-99.99,,,0.00,0,rob ver 1B,2013-03-31 09:27:00,
2013-03-31 02:28:00,64.0,38.9,29.41,SW,233,9.4,13.7,39,-99.99,,,0.00,0,rob ver 1B,2013-03-31 09:28:00,
2013-03-31 02:29:00,64.1,38.9,29.44,SW,228,7.4,9.4,39,-99.99,,,0.00,0,rob ver 1B,2013-03-31 09:29:00,
2013-03-31 02:30:00,64.1,38.7,29.41,SSW,212,6.7,8.4,39,-99.99,,,0.00,0,rob ver 1B,2013-03-31 09:30:00,
2013-03-31 02:31:00,68.4,33.3,29.44,SSE,154,4.5,4.9,27,-99.99,,,0.00,0,rob ver 1A,2013-03-31 09:31:00,
2013-03-31 02:32:00,63.8,39.2,29.44,SW,219,7.3,9.7,40,-99.99,,,0.00,0,rob ver 1B,2013-03-31 09:32:00,
2013-03-31 02:33:00,63.8,39.2,29.44,SSW,201,7.9,10.1,40,-99.99,,,0.00,0,rob ver 1B,2013-03-31 09:33:00,
2013-03-31 02:34:00,63.8,39.3,29.44,SSW,208,6.8,9.0,40,-99.99,,,0.00,0,rob ver 1B,2013-03-31 09:34:00,
2013-03-31 02:35:00,63.8,39.4,29.41,SSW,212,6.7,8.0,40,-99.99,,,0.00,0,rob ver 1B,2013-03-31 09:35:00,
2013-03-31 02:36:00,68.1,33.5,29.44,SSE,149,3.5,3.8,27,-99.99,,,0.00,0,rob ver 1A,2013-03-31 09:36:00,
2013-03-31 02:37:00,63.7,39.5,29.44,SSW,193,5.9,7.7,40,-99.99,,,0.00,0,rob ver 1B,2013-03-31 09:37:00,
2013-03-31 02:38:00,63.6,39.3,29.44,SSW,197,5.5,6.6,40,-99.99,,,0.00,0,rob ver 1B,2013-03-31 09:38:00,
2013-03-31 02:39:00,63.5,39.5,29.44,SSW,210,5.5,7.1,41,-99.99,,,0.00,0,rob ver 1B,2013-03-31 09:39:00,
2013-03-31 02:40:00,63.5,39.6,29.44,SSW,199,4.9,5.9,41,-99.99,,,0.00,0,rob ver 1B,2013-03-31 09:40:00,
2013-03-31 02:41:00,67.4,33.7,29.44,SSE,150,4.2,4.4,28,-99.99,,,0.00,0,rob ver 1A,2013-03-31 09:41:00,
2013-03-31 02:42:00,63.4,39.5,29.44,South,172,3.4,4.9,41,-99.99,,,0.00,0,rob ver 1B,2013-03-31 09:42:00,
2013-03-31 02:43:00,63.4,39.6,29.44,SSE,165,3.8,4.9,41,-99.99,,,0.00,0,rob ver 1B,2013-03-31 09:43:00,
2013-03-31 02:44:00,63.3,39.5,29.44,SSE,165,4.5,5.9,41,-99.99,,,0.00,0,rob ver 1B,2013-03-31 09:44:00,
2013-03-31 02:45:00,63.3,39.6,29.44,South,177,4.2,5.8,41,-99.99,,,0.00,0,rob ver 1B,2013-03-31 09:45:00,
2013-03-31 02:46:00,67.7,34.1,29.44,SE,136,3.4,3.6,28,-99.99,,,0.00,0,rob ver 1A,2013-03-31 09:46:00,
2013-03-31 02:47:00,63.1,39.6,29.44,South,169,4.5,5.1,41,-99.99,,,0.00,0,rob ver 1B,2013-03-31 09:47:00,
2013-03-31 02:48:00,63.2,39.6,29.44,SSE,166,4.8,5.4,41,-99.99,,,0.00,0,rob ver 1B,2013-03-31 09:48:00,
2013-03-31 02:49:00,63.1,39.4,29.44,SSE,164,4.9,6.2,41,-99.99,,,0.00,0,rob ver 1B,2013-03-31 09:49:00,
2013-03-31 02:50:00,63.0,39.5,29.44,South,172,4.4,5.9,41,-99.99,,,0.00,0,rob ver 1B,2013-03-31 09:50:00,
2013-03-31 02:51:00,67.8,34.2,29.44,East,92,2.3,2.9,28,-99.99,,,0.00,0,rob ver 1A,2013-03-31 09:51:00,
2013-03-31 02:52:00,62.6,39.2,29.44,South,182,4.4,4.9,42,-99.99,,,0.00,0,rob ver 1B,2013-03-31 09:52:00,
2013-03-31 02:53:00,62.5,39.4,29.44,South,185,3.7,4.6,42,-99.99,,,0.00,0,rob ver 1B,2013-03-31 09:53:00,
2013-03-31 02:54:00,62.5,39.4,29.44,South,186,2.5,3.3,42,-99.99,,,0.00,0,rob ver 1B,2013-03-31 09:54:00,
2013-03-31 02:55:00,62.5,39.6,29.44,South,181,1.4,2.1,42,-99.99,,,0.00,0,rob ver 1B,2013-03-31 09:55:00,
2013-03-31 02:56:00,62.5,39.6,29.44,SSW,199,1.4,2.2,42,-99.99,,,0.00,0,rob ver 1B,2013-03-31 09:56:00,
2013-03-31 02:57:00,67.3,34.1,29.44,East,99,2.8,3.4,29,-99.99,,,0.00,0,rob ver 1A,2013-03-31 09:57:00,
2013-03-31 02:58:00,62.6,39.7,29.44,SSW,203,2.2,2.5,42,-99.99,,,0.00,0,rob ver 1B,2013-03-31 09:58:00,
2013-03-31 02:59:00,62.6,39.7,29.44,SSW,209,1.9,2.1,42,-99.99,,,0.00,0,rob ver 1B,2013-03-31 09:59:00,
2013-03-31 03:00:00,62.6,39.7,29.44,SW,214,2.7,3.4,42,-99.99,,,0.00,0,rob ver 1B,2013-03-31 10:00:00,
2013-03-31 03:01:00,62.6,39.5,29.44,SW,219,3.4,4.1,42,-99.99,,,0.00,0,rob ver 1B,2013-03-31 10:01:00,
2013-03-31 03:02:00,67.1,33.7,29.44,ESE,113,3.1,3.4,29,-99.99,,,0.00,0,rob ver 1A,2013-03-31 10:02:00,
2013-03-31 03:03:00,62.8,39.7,29.44,SW,217,4.0,4.6,42,-99.99,,,0.00,0,rob ver 1B,2013-03-31 10:03:00,
2013-03-31 03:04:00,62.8,39.7,29.44,SSW,208,4.4,5.0,42,-99.99,,,0.00,0,rob ver 1B,2013-03-31 10:04:00,
2013-03-31 03:05:00,62.9,39.7,29.44,SSW,205,5.2,6.0,42,-99.99,,,0.00,0,rob ver 1B,2013-03-31 10:05:00,
2013-03-31 03:06:00,62.9,39.4,29.44,SSW,209,4.6,4.9,42,-99.99,,,0.00,0,rob ver 1B,2013-03-31 10:06:00,
2013-03-31 03:07:00,67.1,34.1,29.44,ESE,117,3.4,3.9,29,-99.99,,,0.00,0,rob ver 1A,2013-03-31 10:07:00,
2013-03-31 03:08:00,62.7,39.3,29.44,SW,214,5.3,6.4,42,-99.99,,,0.00,0,rob ver 1B,2013-03-31 10:08:00,
2013-03-31 03:09:00,62.5,39.1,29.44,SW,219,5.5,6.1,42,-99.99,,,0.00,0,rob ver 1B,2013-03-31 10:09:00,
2013-03-31 03:10:00,62.3,38.9,29.44,SW,218,4.9,5.8,41,-99.99,,,0.00,0,rob ver 1B,2013-03-31 10:10:00,
2013-03-31 03:11:00,61.9,38.6,29.44,SW,215,5.4,6.0,42,-99.99,,,0.00,0,rob ver 1B,2013-03-31 10:11:00,
2013-03-31 03:12:00,66.7,33.3,29.44,ENE,64,3.1,3.7,28,-99.99,,,0.00,0,rob ver 1A,2013-03-31 10:12:00,
2013-03-31 03:13:00,61.4,38.9,29.44,SSW,213,7.0,7.8,43,-99.99,,,0.00,0,rob ver 1B,2013-03-31 10:13:00,
2013-03-31 03:14:00,61.4,38.9,29.44,SSW,213,7.0,7.7,43,-99.99,,,0.00,0,rob ver 1B,2013-03-31 10:14:00,
2013-03-31 03:15:00,61.4,39.0,29.44,SW,214,6.3,7.2,43,-99.99,,,0.00,0,rob ver 1B,2013-03-31 10:15:00,
2013-03-31 03:16:00,61.4,39.2,29.44,SW,219,6.8,7.8,43,-99.99,,,0.00,0,rob ver 1B,2013-03-31 10:16:00,
2013-03-31 03:17:00,65.9,33.2,29.41,NE,48,3.6,4.2,29,-99.99,,,0.00,0,rob ver 1A,2013-03-31 10:17:00,
2013-03-31 03:18:00,61.6,39.1,29.44,SW,222,5.5,6.7,43,-99.99,,,0.00,0,rob ver 1B,2013-03-31 10:18:00,
2013-03-31 03:19:00,61.5,39.1,29.44,SW,222,5.0,6.0,43,-99.99,,,0.00,0,rob ver 1B,2013-03-31 10:19:00,
2013-03-31 03:20:00,61.4,38.9,29.44,SW,221,4.7,5.4,43,-99.99,,,0.00,0,rob ver 1B,2013-03-31 10:20:00,
2013-03-31 03:21:00,61.2,38.9,29.44,SW,215,4.6,5.5,43,-99.99,,,0.00,0,rob ver 1B,2013-03-31 10:21:00,
2013-03-31 03:22:00,67.4,35.1,29.41,East,92,4.1,5.3,30,-99.99,,,0.00,0,rob ver 1A,2013-03-31 10:22:00,
2013-03-31 03:23:00,60.9,38.6,29.44,SSW,206,4.4,5.3,43,-99.99,,,0.00,0,rob ver 1B,2013-03-31 10:23:00,
2013-03-31 03:24:00,60.9,38.8,29.44,SSW,203,4.8,5.3,43,-99.99,,,0.00,0,rob ver 1B,2013-03-31 10:24:00,
2013-03-31 03:25:00,60.9,38.7,29.44,SSW,197,4.4,5.0,43,-99.99,,,0.00,0,rob ver 1B,2013-03-31 10:25:00,
2013-03-31 03:26:00,60.8,38.7,29.44,South,190,4.1,4.7,43,-99.99,,,0.00,0,rob ver 1B,2013-03-31 10:26:00,
2013-03-31 03:27:00,68.0,35.3,29.41,ESE,118,3.7,4.2,29,-99.99,,,0.00,0,rob ver 1A,2013-03-31 10:27:00,
2013-03-31 03:28:00,60.9,38.9,29.44,South,183,4.0,4.5,44,-99.99,,,0.00,0,rob ver 1B,2013-03-31 10:28:00,
2013-03-31 03:29:00,60.9,38.8,29.44,South,179,3.8,4.5,43,-99.99,,,0.00,0,rob ver 1B,2013-03-31 10:29:00,
2013-03-31 03:30:00,60.8,38.6,29.44,South,175,3.7,4.1,43,-99.99,,,0.00,0,rob ver 1B,2013-03-31 10:30:00,
2013-03-31 03:31:00,60.7,38.5,29.44,South,173,4.1,4.5,43,-99.99,,,0.00,0,rob ver 1B,2013-03-31 10:31:00,
2013-03-31 03:32:00,67.9,35.0,29.41,SE,128,3.3,3.9,29,-99.99,,,0.00,0,rob ver 1A,2013-03-31 10:32:00,
2013-03-31 03:33:00,60.6,38.5,29.44,South,174,4.4,4.9,44,-99.99,,,0.00,0,rob ver 1B,2013-03-31 10:33:00,
2013-03-31 03:34:00,60.5,38.5,29.44,South,180,4.7,5.2,44,-99.99,,,0.00,0,rob ver 1B,2013-03-31 10:34:00,
2013-03-31 03:35:00,60.4,38.6,29.44,South,184,5.0,5.5,44,-99.99,,,0.00,0,rob ver 1B,2013-03-31 10:35:00,
2013-03-31 03:36:00,60.4,38.6,29.44,South,184,5.1,6.0,44,-99.99,,,0.00,0,rob ver 1B,2013-03-31 10:36:00,
2013-03-31 03:37:00,67.2,34.5,29.41,ESE,112,3.0,3.3,29,-99.99,,,0.00,0,rob ver 1A,2013-03-31 10:37:00,
2013-03-31 03:38:00,60.4,38.8,29.44,South,189,5.6,6.9,44,-99.99,,,0.00,0,rob ver 1B,2013-03-31 10:38:00,
2013-03-31 03:39:00,60.3,38.8,29.44,SSW,193,5.9,7.0,44,-99.99,,,0.00,0,rob ver 1B,2013-03-31 10:39:00,
2013-03-31 03:40:00,60.3,38.8,29.44,SSW,192,5.9,6.9,44,-99.99,,,0.00,0,rob ver 1B,2013-03-31 10:40:00,
2013-03-31 03:41:00,60.2,38.9,29.44,SSW,192,5.3,6.6,45,-99.99,,,0.00,0,rob ver 1B,2013-03-31 10:41:00,
2013-03-31 03:42:00,66.9,34.0,29.41,ENE,75,3.2,3.6,29,-99.99,,,0.00,0,rob ver 1A,2013-03-31 10:42:00,
2013-03-31 03:43:00,60.2,39.2,29.44,SSW,192,6.2,7.5,45,-99.99,,,0.00,0,rob ver 1B,2013-03-31 10:43:00,
2013-03-31 03:44:00,60.3,39.2,29.44,SSW,196,6.1,7.4,45,-99.99,,,0.00,0,rob ver 1B,2013-03-31 10:44:00,
2013-03-31 03:45:00,60.3,39.2,29.44,SSW,196,6.4,7.4,45,-99.99,,,0.00,0,rob ver 1B,2013-03-31 10:45:00,
2013-03-31 03:46:00,60.3,39.3,29.44,SSW,198,6.5,7.4,45,-99.99,,,0.00,0,rob ver 1B,2013-03-31 10:46:00,
2013-03-31 03:47:00,66.4,34.0,29.41,ENE,60,3.2,3.9,29,-99.99,,,0.00,0,rob ver 1A,2013-03-31 10:47:00,
2013-03-31 03:48:00,60.4,39.4,29.44,SSW,198,6.2,7.0,45,-99.99,,,0.00,0,rob ver 1B,2013-03-31 10:48:00,
2013-03-31 03:49:00,60.4,39.5,29.44,SSW,196,6.7,7.6,45,-99.99,,,0.00,0,rob ver 1B,2013-03-31 10:49:00,
2013-03-31 03:50:00,60.5,39.5,29.44,SSW,196,6.3,7.4,45,-99.99,,,0.00,0,rob ver 1B,2013-03-31 10:50:00,
2013-03-31 03:51:00,60.5,39.6,29.44,SSW,197,6.8,8.7,45,-99.99,,,0.00,0,rob ver 1B,2013-03-31 10:51:00,
2013-03-31 03:52:00,60.6,39.6,29.44,SSW,196,6.5,8.4,45,-99.99,,,0.00,0,rob ver 1B,2013-03-31 10:52:00,
2013-03-31 03:53:00,66.1,34.1,29.41,ENE,59,3.1,3.7,30,-99.99,,,0.00,0,rob ver 1A,2013-03-31 10:53:00,
2013-03-31 03:54:00,60.7,39.6,29.44,SSW,206,6.8,8.4,45,-99.99,,,0.00,0,rob ver 1B,2013-03-31 10:54:00,
2013-03-31 03:55:00,60.6,39.5,29.44,SSW,207,6.9,7.9,45,-99.99,,,0.00,0,rob ver 1B,2013-03-31 10:55:00,
2013-03-31 03:56:00,60.4,39.4,29.44,SSW,207,6.4,8.1,45,-99.99,,,0.00,0,rob ver 1B,2013-03-31 10:56:00,
2013-03-31 03:57:00,60.4,39.4,29.44,SSW,204,7.3,8.0,45,-99.99,,,0.00,0,rob ver 1B,2013-03-31 10:57:00,
2013-03-31 03:58:00,65.9,34.3,29.41,East,84,3.5,3.9,30,-99.99,,,0.00,0,rob ver 1A,2013-03-31 10:58:00,
2013-03-31 03:59:00,60.3,39.5,29.44,SSW,201,7.7,9.1,46,-99.99,,,0.00,0,rob ver 1B,2013-03-31 10:59:00,
2013-03-31 04:00:00,60.4,39.6,29.44,SSW,202,8.6,10.0,45,-99.99,,,0.00,0,rob ver 1B,2013-03-31 11:00:00,
2013-03-31 04:01:00,60.6,39.5,29.44,SSW,207,6.9,8.7,45,-99.99,,,0.00,0,rob ver 1B,2013-03-31 11:01:00,
2013-03-31 04:02:00,60.4,39.4,29.44,SSW,207,7.4,8.5,45,-99.99,,,0.00,0,rob ver 1B,2013-03-31 11:02:00,
2013-03-31 04:03:00,66.1,33.9,29.41,ENE,77,3.7,4.0,30,-99.99,,,0.00,0,rob ver 1A,2013-03-31 11:03:00,
2013-03-31 04:04:00,60.2,39.2,29.44,SSW,209,6.8,8.2,45,-99.99,,,0.00,0,rob ver 1B,2013-03-31 11:04:00,
2013-03-31 04:05:00,60.2,39.3,29.44,SSW,211,6.2,7.7,45,-99.99,,,0.00,0,rob ver 1B,2013-03-31 11:05:00,
2013-03-31 04:06:00,60.1,39.3,29.44,SSW,208,7.0,8.2,46,-99.99,,,0.00,0,rob ver 1B,2013-03-31 11:06:00,
2013-03-31 04:07:00,60.2,39.4,29.44,SSW,207,7.2,8.2,46,-99.99,,,0.00,0,rob ver 1B,2013-03-31 11:07:00,
2013-03-31 04:08:00,65.1,33.1,29.41,NE,47,4.0,4.5,30,-99.99,,,0.00,0,rob ver 1A,2013-03-31 11:08:00,
2013-03-31 04:09:00,60.2,39.3,29.44,SSW,212,6.8,8.2,45,-99.99,,,0.00,0,rob ver 1B,2013-03-31 11:09:00,
2013-03-31 04:10:00,60.2,39.3,29.44,SW,216,6.1,7.2,45,-99.99,,,0.00,0,rob ver 1B,2013-03-31 11:10:00,
2013-03-31 04:11:00,60.1,39.3,29.44,SW,216,6.6,7.8,46,-99.99,,,0.00,0,rob ver 1B,2013-03-31 11:11:00,
2013-03-31 04:12:00,60.1,39.3,29.44,SW,214,7.4,8.2,46,-99.99,,,0.00,0,rob ver 1B,2013-03-31 11:12:00,
2013-03-31 04:13:00,64.4,33.1,29.41,ENE,57,3.6,4.5,30,-99.99,,,0.00,0,rob ver 1A,2013-03-31 11:13:00,
2013-03-31 04:14:00,60.2,39.4,29.44,SSW,206,6.3,7.3,45,-99.99,,,0.00,0,rob ver 1B,2013-03-31 11:14:00,
2013-03-31 04:15:00,60.3,39.4,29.44,SSW,201,5.5,6.4,45,-99.99,,,0.00,0,rob ver 1B,2013-03-31 11:15:00,
2013-03-31 04:16:00,60.4,39.3,29.44,SSW,201,4.7,6.3,45,-99.99,,,0.00,0,rob ver 1B,2013-03-31 11:16:00,
2013-03-31 04:17:00,60.2,39.2,29.44,SSW,199,4.6,5.7,45,-99.99,,,0.00,0,rob ver 1B,2013-03-31 11:17:00,
2013-03-31 04:18:00,60.1,39.2,29.44,SSW,202,5.4,6.7,45,-99.99,,,0.00,0,rob ver 1B,2013-03-31 11:18:00,
2013-03-31 04:19:00,64.5,33.3,29.41,ENE,77,3.3,4.5,32,-99.99,,,0.00,0,rob ver 1A,2013-03-31 11:19:00,
2013-03-31 04:20:00,60.0,39.2,29.44,SSW,198,5.3,6.0,45,-99.99,,,0.00,0,rob ver 1B,2013-03-31 11:20:00,
2013-03-31 04:21:00,59.9,39.2,29.44,SSW,199,5.3,6.3,46,-99.99,,,0.00,0,rob ver 1B,2013-03-31 11:21:00,
2013-03-31 04:22:00,59.9,39.3,29.44,SSW,199,5.4,6.3,46,-99.99,,,0.00,0,rob ver 1B,2013-03-31 11:22:00,
2013-03-31 04:23:00,59.9,39.4,29.44,SSW,199,5.0,7.1,46,-99.99,,,0.00,0,rob ver 1B,2013-03-31 11:23:00,
2013-03-31 04:24:00,65.7,34.0,29.41,ENE,65,3.0,3.6,30,-99.99,,,0.00,0,rob ver 1A,2013-03-31 11:24:00,
2013-03-31 04:25:00,60.0,39.4,29.44,SSW,203,4.8,5.9,46,-99.99,,,0.00,0,rob ver 1B,2013-03-31 11:25:00,
2013-03-31 04:26:00,60.0,39.4,29.44,SSW,204,4.3,5.0,46,-99.99,,,0.00,0,rob ver 1B,2013-03-31 11:26:00,
2013-03-31 04:27:00,59.9,39.3,29.44,SSW,209,3.8,4.9,46,-99.99,,,0.00,0,rob ver 1B,2013-03-31 11:27:00,
2013-03-31 04:28:00,59.8,39.4,29.44,SW,217,3.7,5.3,46,-99.99,,,0.00,0,rob ver 1B,2013-03-31 11:28:00,
2013-03-31 04:29:00,65.1,33.9,29.41,NE,43,3.0,3.6,31,-99.99,,,0.00,0,rob ver 1A,2013-03-31 11:29:00,
2013-03-31 04:30:00,59.7,39.3,29.44,NNW,342,1.7,3.9,46,-99.99,,,0.00,0,rob ver 1B,2013-03-31 11:30:00,
2013-03-31 04:31:00,59.6,39.0,29.44,NE,38,3.7,4.6,46,-99.99,,,0.00,0,rob ver 1B,2013-03-31 11:31:00,
2013-03-31 04:32:00,59.5,38.9,29.44,NE,44,2.9,4.0,46,-99.99,,,0.00,0,rob ver 1B,2013-03-31 11:32:00,
2013-03-31 04:33:00,59.4,38.8,29.44,ENE,62,2.6,3.3,46,-99.99,,,0.00,0,rob ver 1B,2013-03-31 11:33:00,
2013-03-31 04:34:00,65.1,34.0,29.41,NE,42,2.8,3.1,31,-99.99,,,0.00,0,rob ver 1A,2013-03-31 11:34:00,
2013-03-31 04:35:00,59.3,39.3,29.44,ENE,58,3.1,5.0,47,-99.99,,,0.00,0,rob ver 1B,2013-03-31 11:35:00,
2013-03-31 04:36:00,59.4,39.7,29.44,North,2,2.7,3.6,47,-99.99,,,0.00,0,rob ver 1B,2013-03-31 11:36:00,
2013-03-31 04:37:00,59.7,39.8,29.44,East,89,1.8,3.1,47,-99.99,,,0.00,0,rob ver 1B,2013-03-31 11:37:00,
2013-03-31 04:38:00,59.9,39.8,29.44,South,187,2.1,4.1,47,-99.99,,,0.00,0,rob ver 1B,2013-03-31 11:38:00,
2013-03-31 04:39:00,65.4,34.6,29.41,NE,45,2.3,2.7,32,-99.99,,,0.00,0,rob ver 1A,2013-03-31 11:39:00,
2013-03-31 04:40:00,60.4,39.9,29.44,SSW,206,2.9,3.8,46,-99.99,,,0.00,0,rob ver 1B,2013-03-31 11:40:00,
2013-03-31 04:41:00,60.5,39.8,29.44,SSW,197,3.6,6.5,46,-99.99,,,0.00,0,rob ver 1B,2013-03-31 11:41:00,
2013-03-31 04:42:00,60.6,39.9,29.44,SSW,209,5.1,6.7,45,-99.99,,,0.00,0,rob ver 1B,2013-03-31 11:42:00,
2013-03-31 04:43:00,60.8,39.8,29.44,South,183,4.0,5.3,45,-99.99,,,0.00,0,rob ver 1B,2013-03-31 11:43:00,
2013-03-31 04:44:00,66.7,34.4,29.41,NNE,15,1.9,2.3,29,-99.99,,,0.00,0,rob ver 1A,2013-03-31 11:44:00,
2013-03-31 04:45:00,61.0,39.7,29.44,South,171,2.0,3.5,45,-99.99,,,0.00,0,rob ver 1B,2013-03-31 11:45:00,
2013-03-31 04:46:00,61.0,39.7,29.44,SSE,152,0.9,1.6,45,-99.99,,,0.00,0,rob ver 1B,2013-03-31 11:46:00,
2013-03-31 04:47:00,60.9,39.6,29.44,East,94,1.2,2.0,45,-99.99,,,0.00,0,rob ver 1B,2013-03-31 11:47:00,
2013-03-31 04:48:00,60.8,39.3,29.44,NE,40,4.1,5.6,45,-99.99,,,0.00,0,rob ver 1B,2013-03-31 11:48:00,
2013-03-31 04:49:00,65.2,34.1,29.41,NNE,21,2.4,3.0,31,-99.99,,,0.00,0,rob ver 1A,2013-03-31 11:49:00,
2013-03-31 04:50:00,60.0,38.8,29.44,NE,41,4.3,5.2,45,-99.99,,,0.00,0,rob ver 1B,2013-03-31 11:50:00,
2013-03-31 04:51:00,59.7,39.2,29.44,NE,49,4.1,4.9,47,-99.99,,,0.00,0,rob ver 1B,2013-03-31 11:51:00,
2013-03-31 04:52:00,59.8,39.5,29.44,ENE,71,2.1,3.5,47,-99.99,,,0.00,0,rob ver 1B,2013-03-31 11:52:00,
2013-03-31 04:53:00,60.0,39.7,29.44,East,97,1.3,2.1,46,-99.99,,,0.00,0,rob ver 1B,2013-03-31 11:53:00,
2013-03-31 04:54:00,65.6,34.7,29.41,NE,34,1.2,1.5,31,-99.99,,,0.00,0,rob ver 1A,2013-03-31 11:54:00,
2013-03-31 04:55:00,60.0,39.4,29.44,East,89,2.2,2.5,46,-99.99,,,0.00,0,rob ver 1B,2013-03-31 11:55:00,
2013-03-31 04:56:00,60.0,39.3,29.44,ENE,71,2.1,2.6,46,-99.99,,,0.00,0,rob ver 1B,2013-03-31 11:56:00,
2013-03-31 04:57:00,59.8,39.0,29.44,NE,43,3.0,3.5,46,-99.99,,,0.00,0,rob ver 1B,2013-03-31 11:57:00,
2013-03-31 04:58:00,59.5,38.8,29.44,NE,41,3.5,4.0,46,-99.99,,,0.00,0,rob ver 1B,2013-03-31 11:58:00,
2013-03-31 04:59:00,66.2,35.1,29.41,ENE,67,1.0,1.1,30,-99.99,,,0.00,0,rob ver 1A,2013-03-31 11:59:00,
2013-03-31 05:00:00,58.9,38.9,29.44,ENE,73,3.4,4.0,47,-99.99,,,0.00,0,rob ver 1B,2013-03-31 12:00:00,
2013-03-31 05:01:00,58.9,39.0,29.44,East,87,3.2,3.7,47,-99.99,,,0.00,0,rob ver 1B,2013-03-31 12:01:00,
2013-03-31 05:02:00,58.8,38.8,29.44,ESE,107,3.3,3.6,47,-99.99,,,0.00,0,rob ver 1B,2013-03-31 12:02:00,
2013-03-31 05:03:00,58.7,39.2,29.44,SE,125,3.8,4.2,49,-99.99,,,0.00,0,rob ver 1B,2013-03-31 12:03:00,
2013-03-31 05:04:00,58.9,39.8,29.44,SE,132,4.0,4.4,48,-99.99,,,0.00,0,rob ver 1B,2013-03-31 12:04:00,
2013-03-31 05:05:00,66.9,36.1,29.41,SSW,192,1.8,2.9,32,-99.99,,,0.00,0,rob ver 1A,2013-03-31 12:05:00,
2013-03-31 05:06:00,59.5,40.3,29.44,SE,138,3.9,4.1,48,-99.99,,,0.00,0,rob ver 1B,2013-03-31 12:06:00,
2013-03-31 05:07:00,59.6,39.9,29.44,SE,132,3.8,4.0,48,-99.99,,,0.00,0,rob ver 1B,2013-03-31 12:07:00,
2013-03-31 05:08:00,59.6,39.9,29.44,SE,126,3.8,4.0,48,-99.99,,,0.00,0,rob ver 1B,2013-03-31 12:08:00,
2013-03-31 05:09:00,59.4,39.7,29.44,SE,124,3.3,3.6,47,-99.99,,,0.00,0,rob ver 1B,2013-03-31 12:09:00,
2013-03-31 05:10:00,67.7,35.8,29.41,SSW,199,1.6,2.0,30,-99.99,,,0.00,0,rob ver 1A,2013-03-31 12:10:00,
2013-03-31 05:11:00,59.2,39.8,29.44,SE,133,2.7,2.9,48,-99.99,,,0.00,0,rob ver 1B,2013-03-31 12:11:00,
2013-03-31 05:12:00,59.1,39.6,29.44,SE,136,3.0,3.3,48,-99.99,,,0.00,0,rob ver 1B,2013-03-31 12:12:00,
2013-03-31 05:13:00,59.1,39.8,29.44,SE,136,3.5,3.9,48,-99.99,,,0.00,0,rob ver 1B,2013-03-31 12:13:00,
2013-03-31 05:14:00,59.1,39.6,29.44,SE,129,4.1,4.5,48,-99.99,,,0.00,0,rob ver 1B,2013-03-31 12:14:00,
2013-03-31 05:15:00,66.7,35.4,29.41,South,191,1.3,1.7,31,-99.99,,,0.00,0,rob ver 1A,2013-03-31 12:15:00,
2013-03-31 05:16:00,58.7,39.3,29.44,ESE,109,3.5,3.9,48,-99.99,,,0.00,0,rob ver 1B,2013-03-31 12:16:00,
2013-03-31 05:17:00,58.5,39.3,29.44,East,91,3.1,3.4,48,-99.99,,,0.00,0,rob ver 1B,2013-03-31 12:17:00,
2013-03-31 05:18:00,58.2,38.6,29.44,ENE,73,3.1,4.0,47,-99.99,,,0.00,0,rob ver 1B,2013-03-31 12:18:00,
2013-03-31 05:19:00,57.9,38.6,29.44,East,81,4.4,5.4,48,-99.99,,,0.00,0,rob ver 1B,2013-03-31 12:19:00,
2013-03-31 05:20:00,67.1,36.0,29.41,South,179,2.0,2.4,31,-99.99,,,0.00,0,rob ver 1A,2013-03-31 12:20:00,
2013-03-31 05:21:00,57.6,38.9,29.44,ESE,103,4.5,5.3,49,-99.99,,,0.00,0,rob ver 1B,2013-03-31 12:21:00,
2013-03-31 05:22:00,57.5,38.9,29.44,ESE,108,4.3,4.9,50,-99.99,,,0.00,0,rob ver 1B,2013-03-31 12:22:00,
2013-03-31 05:23:00,57.5,39.2,29.44,ESE,117,4.2,4.8,50,-99.99,,,0.00,0,rob ver 1B,2013-03-31 12:23:00,
2013-03-31 05:24:00,57.5,39.3,29.44,SE,124,4.3,4.8,50,-99.99,,,0.00,0,rob ver 1B,2013-03-31 12:24:00,
2013-03-31 05:25:00,67.1,36.4,29.41,SSW,207,2.3,3.2,31,-99.99,,,0.00,0,rob ver 1A,2013-03-31 12:25:00,
2013-03-31 05:26:00,57.6,39.3,29.44,SE,132,4.3,4.8,50,-99.99,,,0.00,0,rob ver 1B,2013-03-31 12:26:00,
2013-03-31 05:27:00,57.6,39.3,29.44,SE,130,4.3,4.7,50,-99.99,,,0.00,0,rob ver 1B,2013-03-31 12:27:00,
2013-03-31 05:28:00,57.5,39.2,29.44,ESE,123,4.8,5.7,50,-99.99,,,0.00,0,rob ver 1B,2013-03-31 12:28:00,
2013-03-31 05:29:00,57.5,39.3,29.44,ESE,121,4.7,5.6,50,-99.99,,,0.00,0,rob ver 1B,2013-03-31 12:29:00,
2013-03-31 05:30:00,66.8,36.6,29.41,SSW,196,2.3,2.7,32,-99.99,,,0.00,0,rob ver 1A,2013-03-31 12:30:00,
2013-03-31 05:31:00,57.5,39.6,29.44,SE,140,2.6,3.4,51,-99.99,,,0.00,0,rob ver 1B,2013-03-31 12:31:00,
2013-03-31 05:32:00,57.8,40.0,29.44,SE,124,2.8,3.2,51,-99.99,,,0.00,0,rob ver 1B,2013-03-31 12:32:00,
2013-03-31 05:33:00,58.1,40.0,29.44,ESE,121,2.6,3.3,50,-99.99,,,0.00,0,rob ver 1B,2013-03-31 12:33:00,
2013-03-31 05:34:00,58.2,39.9,29.44,East,98,1.3,1.9,50,-99.99,,,0.00,0,rob ver 1B,2013-03-31 12:34:00,
2013-03-31 05:35:00,67.5,37.3,29.44,South,180,3.1,3.9,32,-99.99,,,0.00,0,rob ver 1A,2013-03-31 12:35:00,
2013-03-31 05:36:00,58.2,39.7,29.44,SE,127,0.8,1.4,50,-99.99,,,0.00,0,rob ver 1B,2013-03-31 12:36:00,
2013-03-31 05:37:00,58.2,39.6,29.44,West,267,0.5,1.2,48,-99.99,,,0.00,0,rob ver 1B,2013-03-31 12:37:00,
2013-03-31 05:38:00,58.1,39.3,29.44,NNW,328,1.4,1.8,49,-99.99,,,0.00,0,rob ver 1B,2013-03-31 12:38:00,
2013-03-31 05:39:00,58.0,39.3,29.44,NNW,341,2.5,3.5,49,-99.99,,,0.00,0,rob ver 1B,2013-03-31 12:39:00,
2013-03-31 05:40:00,67.6,37.1,29.44,South,178,3.6,3.8,32,-99.99,,,0.00,0,rob ver 1A,2013-03-31 12:40:00,
2013-03-31 05:41:00,57.5,38.7,29.44,NNW,339,5.0,5.2,49,-99.99,,,0.00,0,rob ver 1B,2013-03-31 12:41:00,
2013-03-31 05:42:00,57.2,38.8,29.44,NNW,334,5.5,6.0,50,-99.99,,,0.00,0,rob ver 1B,2013-03-31 12:42:00,
2013-03-31 05:43:00,56.9,38.9,29.44,NNW,336,5.1,5.9,50,-99.99,,,0.00,0,rob ver 1B,2013-03-31 12:43:00,
2013-03-31 05:44:00,56.8,38.9,29.44,NNW,338,4.1,4.6,50,-99.99,,,0.00,0,rob ver 1B,2013-03-31 12:44:00,
2013-03-31 05:45:00,56.8,38.9,29.44,NNW,336,3.9,4.3,51,-99.99,,,0.00,0,rob ver 1B,2013-03-31 12:45:00,
2013-03-31 05:46:00,66.5,35.8,29.44,South,176,4.1,4.8,32,-99.99,,,0.00,0,rob ver 1A,2013-03-31 12:46:00,
2013-03-31 05:47:00,56.7,39.0,29.44,NNW,335,3.2,3.9,51,-99.99,,,0.00,0,rob ver 1B,2013-03-31 12:47:00,
2013-03-31 05:48:00,56.6,39.0,29.44,NNW,340,3.0,3.3,51,-99.99,,,0.00,0,rob ver 1B,2013-03-31 12:48:00,
2013-03-31 05:49:00,56.6,38.9,29.44,NNW,342,3.1,3.4,51,-99.99,,,0.00,0,rob ver 1B,2013-03-31 12:49:00,
2013-03-31 05:50:00,56.5,38.8,29.44,NNW,345,3.4,3.7,51,-99.99,,,0.00,0,rob ver 1B,2013-03-31 12:50:00,
2013-03-31 05:51:00,65.5,35.9,29.44,SSE,161,4.6,5.1,34,-99.99,,,0.00,0,rob ver 1A,2013-03-31 12:51:00,
2013-03-31 05:52:00,56.4,39.0,29.44,North,6,3.3,3.7,51,-99.99,,,0.00,0,rob ver 1B,2013-03-31 12:52:00,
2013-03-31 05:53:00,56.4,38.5,29.44,NNE,21,3.0,3.7,51,-99.99,,,0.00,0,rob ver 1B,2013-03-31 12:53:00,
2013-03-31 05:54:00,56.4,38.7,29.44,NNE,15,4.0,4.4,51,-99.99,,,0.00,0,rob ver 1B,2013-03-31 12:54:00,
2013-03-31 05:55:00,56.4,38.5,29.44,NNE,14,4.1,4.8,51,-99.99,,,0.00,0,rob ver 1B,2013-03-31 12:55:00,
2013-03-31 05:56:00,65.7,36.2,29.44,South,174,4.1,4.7,33,-99.99,,,0.00,0,rob ver 1A,2013-03-31 12:56:00,
2013-03-31 05:57:00,56.7,38.9,29.44,NNE,20,3.0,3.3,51,-99.99,,,0.00,0,rob ver 1B,2013-03-31 12:57:00,
2013-03-31 05:58:00,56.8,38.9,29.44,NNE,17,2.3,2.7,51,-99.99,,,0.00,0,rob ver 1B,2013-03-31 12:58:00,
2013-03-31 05:59:00,56.8,38.9,29.44,NNE,16,1.9,2.1,51,-99.99,,,0.00,0,rob ver 1B,2013-03-31 12:59:00,
2013-03-31 06:00:00,56.9,39.2,29.44,NNE,19,1.8,1.9,51,-99.99,,,0.00,0,rob ver 1B,2013-03-31 13:00:00,
2013-03-31 06:01:00,65.1,35.6,29.44,South,174,2.4,3.2,33,-99.99,,,0.00,0,rob ver 1A,2013-03-31 13:01:00,
2013-03-31 06:02:00,57.1,39.2,29.44,NNE,18,1.9,2.2,50,-99.99,,,0.00,0,rob ver 1B,2013-03-31 13:02:00,
2013-03-31 06:03:00,57.3,39.1,29.44,NE,40,2.1,2.6,50,-99.99,,,0.00,0,rob ver 1B,2013-03-31 13:03:00,
2013-03-31 06:04:00,57.3,38.8,29.44,ENE,69,2.7,3.5,49,-99.99,,,0.00,0,rob ver 1B,2013-03-31 13:04:00,
2013-03-31 06:05:00,57.1,38.7,29.44,ENE,75,3.7,4.1,49,-99.99,,,0.00,0,rob ver 1B,2013-03-31 13:05:00,
2013-03-31 06:06:00,64.2,36.5,29.44,West,261,2.3,3.2,35,-99.99,,,0.00,0,rob ver 1A,2013-03-31 13:06:00,
2013-03-31 06:07:00,56.5,38.1,29.44,ENE,64,4.4,5.0,50,-99.99,,,0.00,0,rob ver 1B,2013-03-31 13:07:00,
2013-03-31 06:08:00,56.3,38.1,29.44,NE,54,4.5,4.9,50,-99.99,,,0.00,.329,rob ver 1B,2013-03-31 13:08:00,
2013-03-31 06:09:00,56.1,37.9,29.44,NE,48,4.0,5.0,50,-99.99,,,0.00,.329,rob ver 1B,2013-03-31 13:09:00,
2013-03-31 06:10:00,56.0,38.0,29.44,NE,49,4.5,5.0,50,-99.99,,,0.00,.329,rob ver 1B,2013-03-31 13:10:00,
2013-03-31 06:11:00,64.7,36.2,29.44,SW,235,2.0,2.4,34,-99.99,,,0.00,.328,rob ver 1A,2013-03-31 13:11:00,
2013-03-31 06:12:00,55.9,38.2,29.44,NE,52,4.2,5.6,51,-99.99,,,0.00,.329,rob ver 1B,2013-03-31 13:12:00,
2013-03-31 06:13:00,55.9,38.0,29.44,NE,51,3.4,4.4,50,-99.99,,,0.00,.821,rob ver 1B,2013-03-31 13:13:00,
2013-03-31 06:14:00,55.9,37.8,29.44,NE,53,3.8,4.7,50,-99.99,,,0.00,.986,rob ver 1B,2013-03-31 13:14:00,
2013-03-31 06:15:00,55.8,37.7,29.44,NE,53,4.2,5.3,50,-99.99,,,0.00,.986,rob ver 1B,2013-03-31 13:15:00,
2013-03-31 06:16:00,64.7,36.5,29.44,SSE,157,1.4,1.8,34,-99.99,,,0.00,.985,rob ver 1A,2013-03-31 13:16:00,
2013-03-31 06:17:00,55.8,37.6,29.44,NE,55,3.8,5.1,50,-99.99,,,0.00,1.478,rob ver 1B,2013-03-31 13:17:00,
2013-03-31 06:18:00,55.8,37.6,29.44,NE,47,3.4,4.0,50,-99.99,,,0.00,1.643,rob ver 1B,2013-03-31 13:18:00,
2013-03-31 06:19:00,55.7,37.6,29.44,NE,47,3.6,4.4,50,-99.99,,,0.00,2.3,rob ver 1B,2013-03-31 13:19:00,
2013-03-31 06:20:00,55.7,37.5,29.44,NE,48,3.7,4.6,50,-99.99,,,0.00,2.957,rob ver 1B,2013-03-31 13:20:00,
2013-03-31 06:21:00,64.4,36.5,29.44,East,96,1.2,1.3,35,-99.99,,,0.00,2.955,rob ver 1A,2013-03-31 13:21:00,
2013-03-31 06:22:00,55.7,37.5,29.44,ENE,68,4.4,5.3,50,-99.99,,,0.00,2.957,rob ver 1B,2013-03-31 13:22:00,
2013-03-31 06:23:00,55.6,37.5,29.44,ENE,74,4.7,5.5,50,-99.99,,,0.00,3.285,rob ver 1B,2013-03-31 13:23:00,
2013-03-31 06:24:00,55.6,37.5,29.44,ENE,65,3.5,4.7,50,-99.99,,,0.00,3.285,rob ver 1B,2013-03-31 13:24:00,
2013-03-31 06:25:00,55.6,37.6,29.44,NE,56,3.9,4.9,50,-99.99,,,0.00,3.449,rob ver 1B,2013-03-31 13:25:00,
2013-03-31 06:26:00,55.6,37.5,29.44,NE,50,4.1,4.8,50,-99.99,,,0.00,3.942,rob ver 1B,2013-03-31 13:26:00,
2013-03-31 06:27:00,64.3,36.1,29.44,ENE,60,2.2,2.5,35,-99.99,,,0.00,4.597,rob ver 1A,2013-03-31 13:27:00,
2013-03-31 06:28:00,55.5,37.6,29.44,ENE,64,5.7,6.8,50,-99.99,,,0.00,5.256,rob ver 1B,2013-03-31 13:28:00,
2013-03-31 06:29:00,55.5,37.5,29.44,ENE,67,4.6,6.2,51,-99.99,,,0.00,5.913,rob ver 1B,2013-03-31 13:29:00,
2013-03-31 06:30:00,55.4,37.7,29.44,ENE,67,4.4,5.9,51,-99.99,,,0.00,7.88,rob ver 1B,2013-03-31 13:30:00,
2013-03-31 06:31:00,55.4,37.9,29.44,ENE,69,4.2,5.7,51,-99.99,,,0.00,9.2,rob ver 1B,2013-03-31 13:31:00,
2013-03-31 06:32:00,63.7,36.6,29.44,East,91,2.5,2.7,36,-99.99,,,0.00,9.85,rob ver 1A,2013-03-31 13:32:00,
2013-03-31 06:33:00,55.6,38.1,29.44,ENE,68,3.6,4.9,51,-99.99,,,0.00,11.83,rob ver 1B,2013-03-31 13:33:00,
2013-03-31 06:34:00,55.6,38.0,29.44,ENE,73,4.5,5.7,51,-99.99,,,0.00,12.48,rob ver 1B,2013-03-31 13:34:00,
2013-03-31 06:35:00,55.7,38.2,29.44,ENE,76,4.5,5.4,51,-99.99,,,0.00,12.48,rob ver 1B,2013-03-31 13:35:00,
2013-03-31 06:36:00,55.8,38.1,29.44,East,79,3.3,4.3,51,-99.99,,,0.00,13.8,rob ver 1B,2013-03-31 13:36:00,
2013-03-31 06:37:00,63.3,34.3,29.44,ENE,68,2.8,3.3,33,-99.99,,,0.00,19.04,rob ver 1A,2013-03-31 13:37:00,
2013-03-31 06:38:00,55.8,38.0,29.44,ENE,70,2.0,3.0,51,-99.99,,,0.00,16.26,rob ver 1B,2013-03-31 13:38:00,
2013-03-31 06:39:00,55.8,38.2,29.44,ENE,67,2.8,3.1,51,-99.99,,,0.00,17.74,rob ver 1B,2013-03-31 13:39:00,
2013-03-31 06:40:00,55.8,38.1,29.44,ENE,64,2.9,3.3,51,-99.99,,,0.00,19.55,rob ver 1B,2013-03-31 13:40:00,
2013-03-31 06:41:00,55.8,38.2,29.44,ENE,67,2.9,3.3,51,-99.99,,,0.00,20.86,rob ver 1B,2013-03-31 13:41:00,
2013-03-31 06:42:00,62.7,33.8,29.44,NE,56,3.3,3.6,33,-99.99,,,0.00,30.21,rob ver 1A,2013-03-31 13:42:00,
2013-03-31 06:43:00,55.9,38.2,29.44,ENE,64,2.9,3.2,51,-99.99,,,0.00,27.76,rob ver 1B,2013-03-31 13:43:00,
2013-03-31 06:44:00,55.9,38.2,29.44,ENE,60,2.8,3.1,51,-99.99,,,0.00,30.88,rob ver 1B,2013-03-31 13:44:00,
2013-03-31 06:45:00,56.0,38.3,29.44,ENE,59,2.5,3.0,51,-99.99,,,0.00,33.84,rob ver 1B,2013-03-31 13:45:00,
2013-03-31 06:46:00,56.1,38.3,29.44,ENE,67,2.3,2.8,50,-99.99,,,0.00,35.48,rob ver 1B,2013-03-31 13:46:00,
2013-03-31 06:47:00,62.5,33.4,29.44,NE,41,4.2,4.5,33,-99.99,,,0.00,42.03,rob ver 1A,2013-03-31 13:47:00,
2013-03-31 06:48:00,56.3,38.3,29.44,ENE,72,2.3,2.8,50,-99.99,,,0.00,38.93,rob ver 1B,2013-03-31 13:48:00,
2013-03-31 06:49:00,56.4,38.2,29.47,ENE,67,2.3,2.9,50,-99.99,,,0.00,42.38,rob ver 1B,2013-03-31 13:49:00,
2013-03-31 06:50:00,56.4,38.2,29.44,NE,52,3.1,3.5,50,-99.99,,,0.00,46.82,rob ver 1B,2013-03-31 13:50:00,
2013-03-31 06:51:00,56.4,38.1,29.44,NE,44,3.4,3.8,49,-99.99,,,0.00,53.22,rob ver 1B,2013-03-31 13:51:00,
2013-03-31 06:52:00,62.7,33.6,29.44,NE,46,4.3,4.6,33,-99.99,,,0.00,55.16,rob ver 1A,2013-03-31 13:52:00,
2013-03-31 06:53:00,56.4,37.8,29.47,NE,37,4.0,4.9,49,-99.99,,,0.00,57.82,rob ver 1B,2013-03-31 13:53:00,
2013-03-31 06:54:00,56.4,37.7,29.47,NE,36,4.1,4.6,49,-99.99,,,0.00,57.82,rob ver 1B,2013-03-31 13:54:00,
2013-03-31 06:55:00,56.4,37.6,29.47,NE,35,3.9,4.7,49,-99.99,,,0.00,67.18,rob ver 1B,2013-03-31 13:55:00,
2013-03-31 06:56:00,56.4,37.9,29.47,NE,53,3.3,4.1,49,-99.99,,,0.00,78,rob ver 1B,2013-03-31 13:56:00,
2013-03-31 06:57:00,63.0,34.3,29.44,NE,50,3.6,4.1,33,-99.99,,,0.00,68.3,rob ver 1A,2013-03-31 13:57:00,
2013-03-31 06:58:00,56.9,38.1,29.47,NE,49,2.7,3.6,48,-99.99,,,0.00,80.7,rob ver 1B,2013-03-31 13:58:00,
2013-03-31 07:00:00,57.3,38.2,29.47,NNE,26,3.0,3.4,48,-99.99,,,0.00,87.6,rob ver 1B,2013-03-31 14:00:00,
2013-03-31 07:01:00,57.5,38.2,29.47,NNE,24,3.6,3.9,48,-99.99,,,0.00,91.3,rob ver 1B,2013-03-31 14:01:00,
2013-03-31 07:02:00,63.8,34.6,29.44,NE,54,3.2,3.6,33,-99.99,,,0.00,84.7,rob ver 1A,2013-03-31 14:02:00,
2013-03-31 07:03:00,57.7,38.3,29.47,NNE,33,3.7,4.0,47,-99.99,,,0.00,100.9,rob ver 1B,2013-03-31 14:03:00,
2013-03-31 07:04:00,57.9,38.4,29.47,NE,40,2.9,3.4,47,-99.99,,,0.00,103.3,rob ver 1B,2013-03-31 14:04:00,
2013-03-31 07:05:00,58.2,38.5,29.47,NNE,32,2.1,2.4,47,-99.99,,,0.00,108.4,rob ver 1B,2013-03-31 14:05:00,
2013-03-31 07:06:00,58.5,38.6,29.47,North,11,1.9,2.3,46,-99.99,,,0.00,114.7,rob ver 1B,2013-03-31 14:06:00,
2013-03-31 07:07:00,64.0,34.5,29.44,NE,46,3.5,4.2,33,-99.99,,,0.00,99.2,rob ver 1A,2013-03-31 14:07:00,
2013-03-31 07:08:00,59.1,38.5,29.47,North,11,2.6,2.9,46,-99.99,,,0.00,113.3,rob ver 1B,2013-03-31 14:08:00,
2013-03-31 07:09:00,59.3,38.7,29.47,NNE,27,2.5,2.7,45,-99.99,,,0.00,115,rob ver 1B,2013-03-31 14:09:00,
2013-03-31 07:10:00,59.5,38.5,29.47,NNE,22,2.2,2.5,45,-99.99,,,0.00,118.3,rob ver 1B,2013-03-31 14:10:00,
2013-03-31 07:11:00,59.7,38.4,29.47,NNE,17,2.3,2.6,45,-99.99,,,0.00,122.9,rob ver 1B,2013-03-31 14:11:00,
2013-03-31 07:12:00,64.4,34.7,29.44,NE,45,3.6,4.3,32,-99.99,,,0.00,114.3,rob ver 1A,2013-03-31 14:12:00,
2013-03-31 07:13:00,59.9,38.5,29.47,NNE,15,2.5,2.8,44,-99.99,,,0.00,132.7,rob ver 1B,2013-03-31 14:13:00,
2013-03-31 07:14:00,60.0,38.5,29.47,NNE,20,2.4,2.7,44,-99.99,,,0.00,135.8,rob ver 1B,2013-03-31 14:14:00,
2013-03-31 07:15:00,60.0,38.3,29.47,NNE,21,2.2,2.5,44,-99.99,,,0.00,139.3,rob ver 1B,2013-03-31 14:15:00,
2013-03-31 07:16:00,60.1,38.4,29.47,NNE,25,1.8,2.3,44,-99.99,,,0.00,141.9,rob ver 1B,2013-03-31 14:16:00,
2013-03-31 07:17:00,60.3,38.4,29.47,NNE,14,1.8,2.2,43,-99.99,,,0.00,148.5,rob ver 1B,2013-03-31 14:17:00,
2013-03-31 07:18:00,64.6,34.8,29.44,NE,44,4.2,5.1,32,-99.99,,,0.00,129.4,rob ver 1A,2013-03-31 14:18:00,
2013-03-31 07:19:00,60.4,38.2,29.47,North,7,2.9,3.4,43,-99.99,,,0.00,150.5,rob ver 1B,2013-03-31 14:19:00,
2013-03-31 07:20:00,60.3,38.1,29.47,NNE,21,3.0,3.4,43,-99.99,,,0.00,149.2,rob ver 1B,2013-03-31 14:20:00,
2013-03-31 07:21:00,60.2,38.1,29.47,NNE,32,3.1,3.3,43,-99.99,,,0.00,158.4,rob ver 1B,2013-03-31 14:21:00,
2013-03-31 07:22:00,60.2,38.1,29.47,NE,42,3.1,3.7,43,-99.99,,,0.00,164.3,rob ver 1B,2013-03-31 14:22:00,
2013-03-31 07:23:00,65.0,34.8,29.44,NE,41,3.8,4.7,32,-99.99,,,0.00,145.1,rob ver 1A,2013-03-31 14:23:00,
2013-03-31 07:24:00,60.3,38.3,29.47,NE,51,2.0,2.9,43,-99.99,,,0.00,164.9,rob ver 1B,2013-03-31 14:24:00,
2013-03-31 07:25:00,60.5,38.2,29.47,NE,39,2.4,2.9,43,-99.99,,,0.00,174.8,rob ver 1B,2013-03-31 14:25:00,
2013-03-31 07:26:00,60.6,38.2,29.47,NE,37,2.6,2.9,43,-99.99,,,0.00,178.1,rob ver 1B,2013-03-31 14:26:00,
2013-03-31 07:27:00,60.8,38.2,29.47,NE,47,2.3,2.9,42,-99.99,,,0.00,172.5,rob ver 1B,2013-03-31 14:27:00,
2013-03-31 07:28:00,65.3,34.8,29.47,NE,41,4.1,4.7,32,-99.99,,,0.00,161.6,rob ver 1A,2013-03-31 14:28:00,
2013-03-31 07:29:00,61.0,38.3,29.47,ENE,60,1.2,1.7,42,-99.99,,,0.00,183.3,rob ver 1B,2013-03-31 14:29:00,
2013-03-31 07:30:00,61.3,38.4,29.47,East,88,1.0,1.3,42,-99.99,,,0.00,189.2,rob ver 1B,2013-03-31 14:30:00,
2013-03-31 07:31:00,61.4,38.2,29.47,East,97,1.1,1.3,42,-99.99,,,0.00,198.3,rob ver 1B,2013-03-31 14:31:00,
2013-03-31 07:32:00,61.6,38.4,29.47,ESE,107,0.9,1.4,41,-99.99,,,0.00,201.1,rob ver 1B,2013-03-31 14:32:00,
2013-03-31 07:33:00,66.2,35.2,29.47,NE,41,3.4,4.5,31,-99.99,,,0.00,178.6,rob ver 1A,2013-03-31 14:33:00,
2013-03-31 07:34:00,62.1,38.4,29.47,ENE,67,0.6,0.8,40,-99.99,,,0.00,203.7,rob ver 1B,2013-03-31 14:34:00,
2013-03-31 07:35:00,62.7,38.7,29.47,NE,36,0.8,0.9,41,-99.99,,,0.00,207.6,rob ver 1B,2013-03-31 14:35:00,
2013-03-31 07:36:00,63.2,38.9,29.47,NNE,22,0.9,1.4,40,-99.99,,,0.00,212.6,rob ver 1B,2013-03-31 14:36:00,
2013-03-31 07:37:00,63.6,38.8,29.47,NE,34,1.3,1.8,39,-99.99,,,0.00,217.2,rob ver 1B,2013-03-31 14:37:00,
2013-03-31 07:38:00,67.0,35.5,29.47,NE,40,3.6,4.0,30,-99.99,,,0.00,196.4,rob ver 1A,2013-03-31 14:38:00,
2013-03-31 07:39:00,63.3,38.1,29.47,NNE,21,2.7,3.1,39,-99.99,,,0.00,218.3,rob ver 1B,2013-03-31 14:39:00,
2013-03-31 07:40:00,62.8,38.1,29.47,NNE,29,3.5,4.0,39,-99.99,,,0.00,220.8,rob ver 1B,2013-03-31 14:40:00,
2013-03-31 07:41:00,62.4,37.8,29.47,NE,37,3.9,4.7,39,-99.99,,,0.00,230.1,rob ver 1B,2013-03-31 14:41:00,
2013-03-31 07:42:00,62.1,37.8,29.47,NE,43,4.0,4.4,40,-99.99,,,0.00,222.7,rob ver 1B,2013-03-31 14:42:00,
2013-03-31 07:43:00,67.6,35.7,29.47,NE,43,3.0,3.6,30,-99.99,,,0.00,214.6,rob ver 1A,2013-03-31 14:43:00,
2013-03-31 07:44:00,61.9,38.9,29.47,NE,38,2.9,3.4,42,-99.99,,,0.00,226.7,rob ver 1B,2013-03-31 14:44:00,
2013-03-31 07:45:00,62.1,38.8,29.47,NE,56,2.2,3.0,42,-99.99,,,0.00,234.6,rob ver 1B,2013-03-31 14:45:00,
2013-03-31 07:46:00,62.3,39.0,29.47,ENE,78,1.6,2.2,42,-99.99,,,0.00,234.6,rob ver 1B,2013-03-31 14:46:00,
2013-03-31 07:47:00,62.4,39.0,29.47,ENE,60,1.4,1.9,41,-99.99,,,0.00,234.6,rob ver 1B,2013-03-31 14:47:00,
2013-03-31 07:48:00,68.3,35.8,29.47,NE,47,3.1,3.7,30,-99.99,,,0.00,232.5,rob ver 1A,2013-03-31 14:48:00,
2013-03-31 07:49:00,62.8,38.9,29.47,ENE,67,1.7,2.4,41,-99.99,,,0.00,241.8,rob ver 1B,2013-03-31 14:49:00,
2013-03-31 07:50:00,63.0,39.0,29.47,ENE,66,1.4,2.1,40,-99.99,,,0.00,237.8,rob ver 1B,2013-03-31 14:50:00,
2013-03-31 07:51:00,63.3,38.9,29.47,ENE,66,1.6,2.0,40,-99.99,,,0.00,244.4,rob ver 1B,2013-03-31 14:51:00,
2013-03-31 07:52:00,63.4,38.6,29.47,ENE,71,1.4,2.1,39,-99.99,,,0.00,250.3,rob ver 1B,2013-03-31 14:52:00,
2013-03-31 07:53:00,68.7,36.0,29.47,NE,47,3.9,4.6,29,-99.99,,,0.00,250.8,rob ver 1A,2013-03-31 14:53:00,
2013-03-31 07:54:00,63.6,38.9,29.47,NE,41,1.8,2.3,40,-99.99,,,0.00,256.2,rob ver 1B,2013-03-31 14:54:00,
2013-03-31 07:55:00,63.7,39.1,29.47,NNE,32,1.4,1.9,40,-99.99,,,0.00,256.9,rob ver 1B,2013-03-31 14:55:00,
2013-03-31 07:56:00,64.0,39.2,29.47,NE,40,0.4,1.0,39,-99.99,,,0.00,274.8,rob ver 1B,2013-03-31 14:56:00,
2013-03-31 07:57:00,64.4,39.2,29.47,ESE,102,0.9,1.5,39,-99.99,,,0.00,262.8,rob ver 1B,2013-03-31 14:57:00,
2013-03-31 07:58:00,69.5,36.2,29.47,NE,52,3.2,4.3,29,-99.99,,,0.00,267.9,rob ver 1A,2013-03-31 14:58:00,
2013-03-31 07:59:00,64.0,38.7,29.47,SSE,161,1.6,2.3,39,-99.99,,,0.00,265.4,rob ver 1B,2013-03-31 14:59:00,
2013-03-31 08:00:00,63.8,38.6,29.47,SSE,168,2.1,2.8,39,-99.99,,,0.00,251.6,rob ver 1B,2013-03-31 15:00:00,
2013-03-31 08:01:00,63.7,38.7,29.47,South,184,1.9,2.6,39,-99.99,,,0.00,247.3,rob ver 1B,2013-03-31 15:01:00,
2013-03-31 08:02:00,63.7,38.8,29.47,South,171,1.9,2.5,39,-99.99,,,0.00,250.3,rob ver 1B,2013-03-31 15:02:00,
2013-03-31 08:03:00,70.3,36.3,29.47,NE,41,2.8,3.5,28,-99.99,,,0.00,286.9,rob ver 1A,2013-03-31 15:03:00,
2013-03-31 08:04:00,63.3,38.9,29.47,SSE,160,2.2,2.7,40,-99.99,,,0.00,273.9,rob ver 1B,2013-03-31 15:04:00,
2013-03-31 08:05:00,63.1,38.9,29.47,South,172,2.4,3.4,40,-99.99,,,0.00,271.9,rob ver 1B,2013-03-31 15:05:00,
2013-03-31 08:06:00,63.2,39.0,29.47,SSE,165,1.9,2.6,40,-99.99,,,0.00,277.8,rob ver 1B,2013-03-31 15:06:00,
2013-03-31 08:07:00,63.1,39.0,29.47,South,170,1.8,2.3,40,-99.99,,,0.00,289.5,rob ver 1B,2013-03-31 15:07:00,
2013-03-31 08:08:00,71.3,36.7,29.47,ENE,68,1.7,2.3,28,-99.99,,,0.00,308.7,rob ver 1A,2013-03-31 15:08:00,
2013-03-31 08:09:00,63.2,38.8,29.50,South,174,2.6,3.4,40,-99.99,,,0.00,304.8,rob ver 1B,2013-03-31 15:09:00,
2013-03-31 08:10:00,63.3,39.0,29.50,South,183,2.0,2.5,40,-99.99,,,0.00,317.9,rob ver 1B,2013-03-31 15:10:00,
2013-03-31 08:11:00,63.6,39.1,29.47,SSE,162,2.0,2.7,40,-99.99,,,0.00,335.6,rob ver 1B,2013-03-31 15:11:00,
2013-03-31 08:12:00,63.8,39.3,29.50,South,188,1.9,2.6,40,-99.99,,,0.00,328.4,rob ver 1B,2013-03-31 15:12:00,
2013-03-31 08:13:00,72.6,36.7,29.47,ESE,107,1.2,1.8,26,-99.99,,,0.00,326.6,rob ver 1A,2013-03-31 15:13:00,
2013-03-31 08:14:00,64.3,39.3,29.50,SSW,208,3.3,4.5,39,-99.99,,,0.00,317.2,rob ver 1B,2013-03-31 15:14:00,
2013-03-31 08:15:00,64.1,39.2,29.50,SW,218,3.2,4.4,40,-99.99,,,0.00,335,rob ver 1B,2013-03-31 15:15:00,
2013-03-31 08:16:00,64.0,39.4,29.50,SSW,209,3.3,4.7,40,-99.99,,,0.00,344.7,rob ver 1B,2013-03-31 15:16:00,
2013-03-31 08:17:00,64.0,39.4,29.50,SSW,207,2.5,3.1,40,-99.99,,,0.00,351.4,rob ver 1B,2013-03-31 15:17:00,
2013-03-31 08:18:00,64.2,39.5,29.50,SSW,204,1.9,3.1,40,-99.99,,,0.00,347.4,rob ver 1B,2013-03-31 15:18:00,
2013-03-31 08:19:00,74.2,36.8,29.47,ENE,69,1.0,1.5,25,-99.99,,,0.00,344.7,rob ver 1A,2013-03-31 15:19:00,
2013-03-31 08:20:00,64.5,39.7,29.50,SW,227,2.5,3.4,39,-99.99,,,0.00,335,rob ver 1B,2013-03-31 15:20:00,
2013-03-31 08:21:00,64.5,39.8,29.50,SW,227,1.7,2.6,40,-99.99,,,0.00,338.6,rob ver 1B,2013-03-31 15:21:00,
2013-03-31 08:22:00,64.7,39.7,29.50,SW,222,1.9,3.0,39,-99.99,,,0.00,343.5,rob ver 1B,2013-03-31 15:22:00,
2013-03-31 08:23:00,65.0,39.9,29.50,WSW,242,2.2,3.0,39,-99.99,,,0.00,271.2,rob ver 1B,2013-03-31 15:23:00,
2013-03-31 08:24:00,75.0,36.6,29.47,ENE,74,0.9,1.3,24,-99.99,,,0.00,363,rob ver 1A,2013-03-31 15:24:00,
2013-03-31 08:25:00,64.8,39.9,29.50,SW,233,1.9,2.5,39,-99.99,,,0.00,349.4,rob ver 1B,2013-03-31 15:25:00,
2013-03-31 08:26:00,65.0,40.0,29.50,SW,224,2.8,4.9,39,-99.99,,,0.00,371.7,rob ver 1B,2013-03-31 15:26:00,
2013-03-31 08:27:00,65.1,40.1,29.50,WSW,247,2.8,4.7,39,-99.99,,,0.00,361.2,rob ver 1B,2013-03-31 15:27:00,
2013-03-31 08:28:00,65.1,40.2,29.50,SW,235,3.3,4.5,40,-99.99,,,0.00,377.6,rob ver 1B,2013-03-31 15:28:00,
2013-03-31 08:29:00,75.2,36.5,29.47,ENE,76,1.0,2.0,24,-99.99,,,0.00,381,rob ver 1A,2013-03-31 15:29:00,
2013-03-31 08:30:00,65.1,40.2,29.50,West,261,2.8,3.7,39,-99.99,,,0.00,342.8,rob ver 1B,2013-03-31 15:30:00,
2013-03-31 08:31:00,65.2,40.1,29.50,West,259,2.8,4.3,39,-99.99,,,0.00,309.3,rob ver 1B,2013-03-31 15:31:00,
2013-03-31 08:32:00,65.1,39.9,29.50,WSW,252,4.5,5.7,39,-99.99,,,0.00,321.5,rob ver 1B,2013-03-31 15:32:00,
2013-03-31 08:33:00,64.9,39.9,29.50,West,272,3.9,4.7,40,-99.99,,,0.00,371.5,rob ver 1B,2013-03-31 15:33:00,
2013-03-31 08:34:00,75.4,36.4,29.47,South,175,1.0,2.1,24,-99.99,,,0.00,398.2,rob ver 1A,2013-03-31 15:34:00,
2013-03-31 08:35:00,64.8,40.1,29.50,WSW,258,3.7,5.0,40,-99.99,,,0.00,344.8,rob ver 1B,2013-03-31 15:35:00,
2013-03-31 08:36:00,64.9,40.1,29.50,SW,230,4.6,5.1,39,-99.99,,,0.00,354,rob ver 1B,2013-03-31 15:36:00,
2013-03-31 08:37:00,64.8,40.0,29.50,WSW,258,4.5,5.3,40,-99.99,,,0.00,395.3,rob ver 1B,2013-03-31 15:37:00,
2013-03-31 08:38:00,64.8,40.1,29.50,WSW,251,2.7,3.7,40,-99.99,,,0.00,365.8,rob ver 1B,2013-03-31 15:38:00,
2013-03-31 08:39:00,75.0,36.0,29.47,SSW,192,2.1,3.3,24,-99.99,,,0.00,419.4,rob ver 1A,2013-03-31 15:39:00,
2013-03-31 08:40:00,65.3,40.0,29.50,WSW,258,3.5,4.6,39,-99.99,,,0.00,390.4,rob ver 1B,2013-03-31 15:40:00,
2013-03-31 08:41:00,65.4,40.1,29.50,WSW,253,3.1,4.0,39,-99.99,,,0.00,384.3,rob ver 1B,2013-03-31 15:41:00,
2013-03-31 08:42:00,65.3,39.9,29.50,SW,234,5.1,6.5,39,-99.99,,,0.00,378.2,rob ver 1B,2013-03-31 15:42:00,
2013-03-31 08:43:00,65.1,40.0,29.50,SW,235,4.2,5.0,39,-99.99,,,0.00,370.5,rob ver 1B,2013-03-31 15:43:00,
2013-03-31 08:44:00,65.2,40.0,29.50,WSW,242,3.2,5.1,39,-99.99,,,0.00,407,rob ver 1B,2013-03-31 15:44:00,
2013-03-31 08:45:00,75.0,35.9,29.47,South,180,2.9,4.1,23,-99.99,,,0.00,436.7,rob ver 1A,2013-03-31 15:45:00,
2013-03-31 08:46:00,65.3,40.1,29.50,SW,226,3.5,4.6,39,-99.99,,,0.00,447.2,rob ver 1B,2013-03-31 15:46:00,
2013-03-31 08:47:00,65.5,40.0,29.50,WSW,247,3.1,4.8,39,-99.99,,,0.00,472.8,rob ver 1B,2013-03-31 15:47:00,
2013-03-31 08:48:00,65.7,40.0,29.50,SW,220,4.1,4.8,38,-99.99,,,0.00,469.6,rob ver 1B,2013-03-31 15:48:00,
2013-03-31 08:49:00,65.8,40.0,29.50,SW,221,3.8,5.4,38,-99.99,,,0.00,491.2,rob ver 1B,2013-03-31 15:49:00,
2013-03-31 08:50:00,75.1,34.4,29.47,SSW,211,5.5,6.8,22,-99.99,,,0.00,453.8,rob ver 1A,2013-03-31 15:50:00,
2013-03-31 08:51:00,66.0,39.9,29.50,WSW,238,5.2,6.3,38,-99.99,,,0.00,510.5,rob ver 1B,2013-03-31 15:51:00,
2013-03-31 08:52:00,65.9,39.8,29.50,WSW,246,4.9,6.0,38,-99.99,,,0.00,524.6,rob ver 1B,2013-03-31 15:52:00,
2013-03-31 08:53:00,65.8,39.9,29.50,WSW,243,3.9,5.0,38,-99.99,,,0.00,474,rob ver 1B,2013-03-31 15:53:00,
2013-03-31 08:54:00,65.8,40.0,29.50,SW,234,3.6,5.0,38,-99.99,,,0.00,491.1,rob ver 1B,2013-03-31 15:54:00,
2013-03-31 08:55:00,74.9,34.2,29.47,SSW,194,4.8,5.7,22,-99.99,,,0.00,470.8,rob ver 1A,2013-03-31 15:55:00,
2013-03-31 08:56:00,66.1,39.8,29.50,West,275,4.4,5.9,37,-99.99,,,0.00,409.2,rob ver 1B,2013-03-31 15:56:00,
2013-03-31 08:57:00,66.1,39.8,29.50,West,267,4.6,6.5,38,-99.99,,,0.00,408.2,rob ver 1B,2013-03-31 15:57:00,
2013-03-31 08:58:00,65.9,39.8,29.50,WSW,253,5.1,6.4,38,-99.99,,,0.00,390.6,rob ver 1B,2013-03-31 15:58:00,
2013-03-31 08:59:00,65.8,39.8,29.50,West,266,4.2,5.3,38,-99.99,,,0.00,443.3,rob ver 1B,2013-03-31 15:59:00,
2013-03-31 09:00:00,74.9,34.1,29.47,SW,215,6.5,8.0,22,-99.99,,,0.00,488,rob ver 1A,2013-03-31 16:00:00,
2013-03-31 09:01:00,65.8,40.0,29.50,WSW,239,4.0,7.6,38,-99.99,,,0.00,468.1,rob ver 1B,2013-03-31 16:01:00,
2013-03-31 09:02:00,65.9,40.0,29.50,West,260,5.2,7.2,38,-99.99,,,0.00,476.8,rob ver 1B,2013-03-31 16:02:00,
2013-03-31 09:03:00,65.8,39.8,29.50,WSW,254,3.3,5.1,38,-99.99,,,0.00,526.5,rob ver 1B,2013-03-31 16:03:00,
2013-03-31 09:04:00,66.0,39.8,29.50,WSW,258,4.8,6.3,37,-99.99,,,0.00,525.8,rob ver 1B,2013-03-31 16:04:00,
2013-03-31 09:05:00,74.9,34.0,29.47,SW,215,6.0,8.1,22,-99.99,,,0.00,505,rob ver 1A,2013-03-31 16:05:00,
2013-03-31 09:06:00,66.4,39.7,29.50,West,271,3.5,4.5,37,-99.99,,,0.00,573.9,rob ver 1B,2013-03-31 16:06:00,
2013-03-31 09:07:00,66.5,39.9,29.50,WSW,253,3.7,4.8,37,-99.99,,,0.00,492,rob ver 1B,2013-03-31 16:07:00,
2013-03-31 09:08:00,66.7,39.8,29.50,SW,228,5.0,6.6,36,-99.99,,,0.00,496.3,rob ver 1B,2013-03-31 16:08:00,
2013-03-31 09:09:00,66.5,39.7,29.50,SW,232,5.2,7.0,37,-99.99,,,0.00,446.1,rob ver 1B,2013-03-31 16:09:00,
2013-03-31 09:10:00,74.8,33.8,29.47,SW,222,7.7,9.2,22,-99.99,,,0.00,521.4,rob ver 1A,2013-03-31 16:10:00,
2013-03-31 09:11:00,66.6,39.8,29.50,SW,235,3.1,4.6,37,-99.99,,,0.00,361.7,rob ver 1B,2013-03-31 16:11:00,
2013-03-31 09:12:00,66.7,39.6,29.50,SSW,210,4.2,5.6,37,-99.99,,,0.00,329.9,rob ver 1B,2013-03-31 16:12:00,
2013-03-31 09:13:00,66.5,39.5,29.50,SW,224,4.1,6.1,37,-99.99,,,0.00,394.8,rob ver 1B,2013-03-31 16:13:00,
2013-03-31 09:14:00,66.4,39.7,29.50,SW,220,3.3,5.5,37,-99.99,,,0.00,415.2,rob ver 1B,2013-03-31 16:14:00,
2013-03-31 09:15:00,66.5,39.1,29.50,West,274,5.0,6.0,35,-99.99,,,0.00,361,rob ver 1B,2013-03-31 16:15:00,
2013-03-31 09:16:00,75.4,34.0,29.47,SW,223,7.2,10.0,22,-99.99,,,0.00,540.9,rob ver 1A,2013-03-31 16:16:00,
2013-03-31 09:17:00,66.5,38.8,29.50,West,275,4.8,6.5,35,-99.99,,,0.00,381.5,rob ver 1B,2013-03-31 16:17:00,
2013-03-31 09:18:00,66.4,39.2,29.50,West,259,5.4,7.0,37,-99.99,,,0.00,485.7,rob ver 1B,2013-03-31 16:18:00,
2013-03-31 09:19:00,66.6,39.2,29.50,West,260,6.1,7.8,35,-99.99,,,0.00,461.8,rob ver 1B,2013-03-31 16:19:00,
2013-03-31 09:20:00,66.6,38.5,29.50,West,265,5.6,6.5,35,-99.99,,,0.00,403.7,rob ver 1B,2013-03-31 16:20:00,
2013-03-31 09:21:00,75.5,34.4,29.47,SW,220,6.1,8.0,22,-99.99,,,0.00,555.5,rob ver 1A,2013-03-31 16:21:00,
2013-03-31 09:22:00,66.7,38.8,29.50,WSW,247,5.0,6.6,35,-99.99,,,0.00,474.1,rob ver 1B,2013-03-31 16:22:00,
2013-03-31 09:23:00,66.8,38.8,29.50,WSW,243,5.9,9.5,35,-99.99,,,0.00,496.9,rob ver 1B,2013-03-31 16:23:00,
2013-03-31 09:24:00,66.8,38.6,29.50,WSW,249,8.0,10.1,35,-99.99,,,0.00,444.2,rob ver 1B,2013-03-31 16:24:00,
2013-03-31 09:25:00,66.7,38.8,29.50,West,261,6.5,8.7,35,-99.99,,,0.00,505.1,rob ver 1B,2013-03-31 16:25:00,
2013-03-31 09:26:00,76.0,34.2,29.47,SSW,208,8.3,10.4,21,-99.99,,,0.00,572.2,rob ver 1A,2013-03-31 16:26:00,
2013-03-31 09:27:00,67.1,38.8,29.50,West,279,4.9,6.5,34,-99.99,,,0.00,487,rob ver 1B,2013-03-31 16:27:00,
2013-03-31 09:28:00,67.4,38.6,29.50,West,276,5.2,6.4,34,-99.99,,,0.00,512.6,rob ver 1B,2013-03-31 16:28:00,
2013-03-31 09:29:00,67.4,38.6,29.50,West,259,4.6,5.6,34,-99.99,,,0.00,526.1,rob ver 1B,2013-03-31 16:29:00,
2013-03-31 09:30:00,67.4,38.5,29.50,West,277,7.0,8.6,34,-99.99,,,0.00,559.5,rob ver 1B,2013-03-31 16:30:00,
2013-03-31 09:31:00,76.5,34.4,29.47,SW,214,6.6,8.9,21,-99.99,,,0.00,586.9,rob ver 1A,2013-03-31 16:31:00,
2013-03-31 09:32:00,67.3,38.5,29.50,WSW,247,6.2,9.6,34,-99.99,,,0.00,696.5,rob ver 1B,2013-03-31 16:32:00,
2013-03-31 09:33:00,67.5,38.6,29.50,WSW,252,5.6,7.4,34,-99.99,,,0.00,642.4,rob ver 1B,2013-03-31 16:33:00,
2013-03-31 09:34:00,67.7,38.6,29.50,West,259,7.1,9.5,34,-99.99,,,0.00,416.4,rob ver 1B,2013-03-31 16:34:00,
2013-03-31 09:35:00,67.5,38.6,29.50,WNW,285,5.4,8.1,34,-99.99,,,0.00,532.9,rob ver 1B,2013-03-31 16:35:00,
2013-03-31 09:36:00,76.8,34.5,29.50,SW,219,5.3,7.6,21,-99.99,,,0.00,601.7,rob ver 1A,2013-03-31 16:36:00,
2013-03-31 09:37:00,67.2,38.6,29.50,WSW,253,5.0,6.4,34,-99.99,,,0.00,591.2,rob ver 1B,2013-03-31 16:37:00,
2013-03-31 09:38:00,67.4,38.8,29.50,West,259,5.8,7.4,34,-99.99,,,0.00,629.9,rob ver 1B,2013-03-31 16:38:00,
2013-03-31 09:39:00,67.7,38.7,29.50,WSW,254,6.8,8.6,34,-99.99,,,0.00,624.5,rob ver 1B,2013-03-31 16:39:00,
2013-03-31 09:40:00,67.7,38.7,29.50,WSW,258,6.2,8.1,34,-99.99,,,0.00,640.7,rob ver 1B,2013-03-31 16:40:00,
2013-03-31 09:41:00,77.8,34.4,29.47,WSW,244,5.6,7.2,20,-99.99,,,0.00,617.6,rob ver 1A,2013-03-31 16:41:00,
2013-03-31 09:42:00,67.6,38.7,29.50,WSW,237,5.4,7.1,34,-99.99,,,0.00,599.2,rob ver 1B,2013-03-31 16:42:00,
2013-03-31 09:43:00,67.7,38.7,29.50,West,276,5.5,7.4,34,-99.99,,,0.00,585.4,rob ver 1B,2013-03-31 16:43:00,
2013-03-31 09:44:00,67.9,38.8,29.50,West,264,3.5,5.6,34,-99.99,,,0.00,576.9,rob ver 1B,2013-03-31 16:44:00,
2013-03-31 09:45:00,68.1,38.8,29.50,WSW,245,6.7,9.5,34,-99.99,,,0.00,551.9,rob ver 1B,2013-03-31 16:45:00,
2013-03-31 09:46:00,77.2,34.6,29.47,SW,228,5.8,8.5,21,-99.99,,,0.00,631.6,rob ver 1A,2013-03-31 16:46:00,
2013-03-31 09:47:00,67.9,38.8,29.50,WNW,283,6.3,8.1,34,-99.99,,,0.00,552.1,rob ver 1B,2013-03-31 16:47:00,
2013-03-31 09:48:00,68.1,38.9,29.50,West,273,5.8,8.4,33,-99.99,,,0.00,572.4,rob ver 1B,2013-03-31 16:48:00,
2013-03-31 09:49:00,68.3,38.9,29.50,West,278,6.6,8.7,33,-99.99,,,0.00,536.3,rob ver 1B,2013-03-31 16:49:00,
2013-03-31 09:50:00,68.5,38.9,29.50,West,276,6.4,9.4,33,-99.99,,,0.00,483.5,rob ver 1B,2013-03-31 16:50:00,
2013-03-31 09:51:00,78.0,34.5,29.50,WSW,246,7.5,9.7,20,-99.99,,,0.00,645.8,rob ver 1A,2013-03-31 16:51:00,
2013-03-31 09:52:00,68.6,38.8,29.50,West,263,6.4,7.9,33,-99.99,,,0.00,579.7,rob ver 1B,2013-03-31 16:52:00,
2013-03-31 09:53:00,68.6,38.9,29.50,West,267,5.6,8.7,33,-99.99,,,0.00,599.5,rob ver 1B,2013-03-31 16:53:00,
2013-03-31 09:54:00,68.6,38.9,29.50,West,279,5.2,7.9,33,-99.99,,,0.00,640.2,rob ver 1B,2013-03-31 16:54:00,
2013-03-31 09:55:00,68.7,39.0,29.50,West,261,3.8,5.2,33,-99.99,,,0.00,686.5,rob ver 1B,2013-03-31 16:55:00,
2013-03-31 09:56:00,78.5,34.9,29.50,SW,232,8.2,11.1,20,-99.99,,,0.00,662.3,rob ver 1A,2013-03-31 16:56:00,
2013-03-31 09:57:00,69.4,38.9,29.50,WSW,242,4.7,6.4,32,-99.99,,,0.00,645.1,rob ver 1B,2013-03-31 16:57:00,
2013-03-31 09:58:00,69.3,38.9,29.50,SW,228,5.6,7.9,32,-99.99,,,0.00,631.7,rob ver 1B,2013-03-31 16:58:00,
2013-03-31 09:59:00,69.2,38.8,29.50,SSW,213,6.7,9.4,32,-99.99,,,0.00,621,rob ver 1B,2013-03-31 16:59:00,
2013-03-31 10:00:00,69.1,38.8,29.50,SSW,208,5.9,8.7,32,-99.99,,,0.00,658.7,rob ver 1B,2013-03-31 17:00:00,
2013-03-31 10:01:00,78.9,35.1,29.47,SW,223,8.8,11.6,20,-99.99,,,0.00,674.6,rob ver 1A,2013-03-31 17:01:00,
2013-03-31 10:02:00,69.5,38.7,29.50,WSW,246,5.1,7.9,32,-99.99,,,0.00,702,rob ver 1B,2013-03-31 17:02:00,
2013-03-31 10:03:00,69.5,38.9,29.50,SW,220,3.2,4.7,32,-99.99,,,0.00,675.3,rob ver 1B,2013-03-31 17:03:00,
2013-03-31 10:04:00,69.8,39.0,29.50,WSW,245,4.3,7.8,32,-99.99,,,0.00,711,rob ver 1B,2013-03-31 17:04:00,
2013-03-31 10:05:00,69.9,39.1,29.50,WSW,243,7.2,10.0,32,-99.99,,,0.00,664.4,rob ver 1B,2013-03-31 17:05:00,
2013-03-31 10:06:00,69.6,39.0,29.50,West,260,4.2,5.7,32,-99.99,,,0.00,667,rob ver 1B,2013-03-31 17:06:00,
2013-03-31 10:07:00,78.7,35.2,29.50,WSW,237,8.5,10.7,20,-99.99,,,0.00,688.8,rob ver 1A,2013-03-31 17:07:00,
2013-03-31 10:08:00,69.3,38.9,29.50,WSW,249,4.8,7.9,32,-99.99,,,0.00,683.1,rob ver 1B,2013-03-31 17:08:00,
2013-03-31 10:09:00,69.4,38.7,29.50,West,267,6.3,8.5,32,-99.99,,,0.00,645.7,rob ver 1B,2013-03-31 17:09:00,
2013-03-31 10:10:00,69.4,38.9,29.50,West,264,4.9,6.8,32,-99.99,,,0.00,697.4,rob ver 1B,2013-03-31 17:10:00,
2013-03-31 10:11:00,69.3,39.0,29.50,West,267,3.9,6.4,32,-99.99,,,0.00,745,rob ver 1B,2013-03-31 17:11:00,
2013-03-31 10:12:00,78.6,35.1,29.50,WSW,254,6.6,10.6,20,-99.99,,,0.00,702,rob ver 1A,2013-03-31 17:12:00,
2013-03-31 10:13:00,69.3,38.9,29.50,WSW,256,1.9,3.5,32,-99.99,,,0.00,673.6,rob ver 1B,2013-03-31 17:13:00,
2013-03-31 10:14:00,69.6,39.0,29.50,WSW,254,3.6,5.9,32,-99.99,,,0.00,727,rob ver 1B,2013-03-31 17:14:00,
2013-03-31 10:15:00,69.6,39.0,29.50,SW,235,3.4,4.6,32,-99.99,,,0.00,737,rob ver 1B,2013-03-31 17:15:00,
2013-03-31 10:16:00,69.9,38.9,29.50,SW,218,5.6,8.3,31,-99.99,,,0.00,739,rob ver 1B,2013-03-31 17:16:00,
2013-03-31 10:17:00,79.3,35.7,29.47,SW,226,12.3,15.6,20,-99.99,,,0.00,715,rob ver 1A,2013-03-31 17:17:00,
2013-03-31 10:18:00,70.1,38.6,29.50,SW,227,8.2,9.7,31,-99.99,,,0.00,763,rob ver 1B,2013-03-31 17:18:00,
2013-03-31 10:19:00,69.9,38.6,29.50,WSW,257,7.9,9.2,31,-99.99,,,0.00,763,rob ver 1B,2013-03-31 17:19:00,
2013-03-31 10:20:00,69.7,38.6,29.50,West,271,5.7,7.6,31,-99.99,,,0.00,763,rob ver 1B,2013-03-31 17:20:00,
2013-03-31 10:21:00,69.8,38.6,29.50,West,277,3.9,6.4,31,-99.99,,,0.00,762,rob ver 1B,2013-03-31 17:21:00,
2013-03-31 10:22:00,79.7,36.3,29.47,SW,225,11.6,14.2,20,-99.99,,,0.00,726,rob ver 1A,2013-03-31 17:22:00,
2013-03-31 10:23:00,70.5,38.7,29.50,WNW,295,3.9,5.0,31,-99.99,,,0.00,766,rob ver 1B,2013-03-31 17:23:00,
2013-03-31 10:24:00,70.7,38.9,29.50,West,276,2.9,3.9,31,-99.99,,,0.00,769,rob ver 1B,2013-03-31 17:24:00,
2013-03-31 10:25:00,71.0,39.0,29.50,West,276,3.9,7.5,30,-99.99,,,0.00,770,rob ver 1B,2013-03-31 17:25:00,
2013-03-31 10:26:00,71.2,38.8,29.50,West,269,4.5,7.4,30,-99.99,,,0.00,753,rob ver 1B,2013-03-31 17:26:00,
2013-03-31 10:27:00,79.4,36.1,29.47,WSW,249,11.2,14.5,21,-99.99,,,0.00,739,rob ver 1A,2013-03-31 17:27:00,
2013-03-31 10:28:00,70.7,38.6,29.50,WNW,288,3.0,4.9,31,-99.99,,,0.00,758,rob ver 1B,2013-03-31 17:28:00,
2013-03-31 10:29:00,71.0,38.8,29.50,WNW,302,2.5,4.8,30,-99.99,,,0.00,762,rob ver 1B,2013-03-31 17:29:00,
2013-03-31 10:30:00,71.3,38.8,29.50,WNW,287,3.3,5.9,30,-99.99,,,0.00,772,rob ver 1B,2013-03-31 17:30:00,
2013-03-31 10:31:00,71.3,38.7,29.50,WNW,301,3.0,5.4,30,-99.99,,,0.00,762,rob ver 1B,2013-03-31 17:31:00,
2013-03-31 10:32:00,79.6,36.6,29.47,SW,235,9.5,12.3,21,-99.99,,,0.00,750,rob ver 1A,2013-03-31 17:32:00,
2013-03-31 10:33:00,71.8,38.7,29.50,SSW,206,4.3,5.6,30,-99.99,,,0.00,731,rob ver 1B,2013-03-31 17:33:00,
2013-03-31 10:34:00,71.6,38.4,29.50,SSW,195,3.2,4.3,30,-99.99,,,0.00,752,rob ver 1B,2013-03-31 17:34:00,
2013-03-31 10:35:00,71.5,38.5,29.50,WSW,238,3.9,8.1,30,-99.99,,,0.00,757,rob ver 1B,2013-03-31 17:35:00,
2013-03-31 10:36:00,71.6,38.7,29.50,SE,127,1.4,2.8,30,-99.99,,,0.00,771,rob ver 1B,2013-03-31 17:36:00,
2013-03-31 10:37:00,80.0,36.7,29.50,WSW,252,8.0,10.5,20,-99.99,,,0.00,761,rob ver 1A,2013-03-31 17:37:00,
2013-03-31 10:38:00,72.2,38.6,29.50,West,261,4.3,6.5,29,-99.99,,,0.00,787,rob ver 1B,2013-03-31 17:38:00,
2013-03-31 10:39:00,72.0,38.6,29.50,West,261,4.0,7.9,29,-99.99,,,0.00,691,rob ver 1B,2013-03-31 17:39:00,
2013-03-31 10:40:00,72.0,38.5,29.50,WNW,288,6.5,8.1,29,-99.99,,,0.00,799,rob ver 1B,2013-03-31 17:40:00,
2013-03-31 10:41:00,72.1,38.6,29.50,WNW,294,5.7,7.1,29,-99.99,,,0.00,799,rob ver 1B,2013-03-31 17:41:00,
2013-03-31 10:42:00,79.6,36.2,29.50,SSW,197,6.2,7.7,21,-99.99,,,0.00,771,rob ver 1A,2013-03-31 17:42:00,
2013-03-31 10:43:00,72.4,38.7,29.50,NW,322,3.2,6.0,29,-99.99,,,0.00,805,rob ver 1B,2013-03-31 17:43:00,
2013-03-31 10:44:00,72.6,38.8,29.50,NW,306,3.9,5.1,29,-99.99,,,0.00,788,rob ver 1B,2013-03-31 17:44:00,
2013-03-31 10:45:00,72.6,38.8,29.50,WNW,301,4.3,7.0,29,-99.99,,,0.00,806,rob ver 1B,2013-03-31 17:45:00,
2013-03-31 10:46:00,72.6,38.5,29.50,WNW,292,5.5,8.5,29,-99.99,,,0.00,810,rob ver 1B,2013-03-31 17:46:00,
2013-03-31 10:47:00,80.0,36.5,29.50,WNW,289,3.1,6.2,20,-99.99,,,0.00,780,rob ver 1A,2013-03-31 17:47:00,
2013-03-31 10:48:00,72.4,38.6,29.50,WNW,289,4.4,6.6,29,-99.99,,,0.00,817,rob ver 1B,2013-03-31 17:48:00,
2013-03-31 10:49:00,72.4,38.7,29.50,West,270,6.4,8.8,29,-99.99,,,0.00,813,rob ver 1B,2013-03-31 17:49:00,
2013-03-31 10:50:00,72.4,38.7,29.50,WSW,239,4.1,5.6,29,-99.99,,,0.00,811,rob ver 1B,2013-03-31 17:50:00,
2013-03-31 10:51:00,72.6,38.7,29.50,West,270,5.9,7.6,28,-99.99,,,0.00,804,rob ver 1B,2013-03-31 17:51:00,
2013-03-31 10:52:00,80.3,36.5,29.50,West,263,4.4,9.5,20,-99.99,,,0.00,791,rob ver 1A,2013-03-31 17:52:00,
2013-03-31 10:53:00,72.8,38.8,29.50,NW,306,1.4,2.3,28,-99.99,,,0.00,818,rob ver 1B,2013-03-31 17:53:00,
2013-03-31 10:54:00,73.3,38.9,29.50,WSW,251,1.6,3.0,28,-99.99,,,0.00,830,rob ver 1B,2013-03-31 17:54:00,
2013-03-31 10:55:00,73.6,38.9,29.50,WSW,239,3.0,5.6,28,-99.99,,,0.00,830,rob ver 1B,2013-03-31 17:55:00,
2013-03-31 10:56:00,73.5,39.0,29.50,NW,308,3.3,5.5,28,-99.99,,,0.00,831,rob ver 1B,2013-03-31 17:56:00,
2013-03-31 10:57:00,73.7,39.0,29.50,WNW,300,4.4,6.8,28,-99.99,,,0.00,834,rob ver 1B,2013-03-31 17:57:00,
2013-03-31 10:58:00,80.6,37.1,29.47,WSW,249,8.2,14.4,20,-99.99,,,0.00,803,rob ver 1A,2013-03-31 17:58:00,
2013-03-31 10:59:00,73.6,38.3,29.50,WNW,297,8.1,9.6,28,-99.99,,,0.00,838,rob ver 1B,2013-03-31 17:59:00,
2013-03-31 11:00:00,73.1,38.3,29.50,WNW,283,5.9,8.0,28,-99.99,,,0.00,841,rob ver 1B,2013-03-31 18:00:00,
2013-03-31 11:01:00,72.9,38.3,29.50,West,278,3.7,5.3,28,-99.99,,,0.00,842,rob ver 1B,2013-03-31 18:01:00,
2013-03-31 11:02:00,73.2,38.5,29.50,WNW,291,2.0,3.6,28,-99.99,,,0.00,845,rob ver 1B,2013-03-31 18:02:00,
2013-03-31 11:03:00,80.9,37.3,29.47,SW,223,8.6,13.6,20,-99.99,,,0.00,812,rob ver 1A,2013-03-31 18:03:00,
2013-03-31 11:04:00,74.2,38.6,29.50,NNW,340,4.4,7.0,27,-99.99,,,0.00,849,rob ver 1B,2013-03-31 18:04:00,
2013-03-31 11:05:00,74.3,38.7,29.50,NNW,344,4.1,5.8,27,-99.99,,,0.00,852,rob ver 1B,2013-03-31 18:05:00,
2013-03-31 11:06:00,74.3,38.7,29.50,NW,313,1.9,3.8,27,-99.99,,,0.00,842,rob ver 1B,2013-03-31 18:06:00,
2013-03-31 11:07:00,74.7,38.8,29.50,West,266,3.4,5.0,27,-99.99,,,0.00,861,rob ver 1B,2013-03-31 18:07:00,
2013-03-31 11:08:00,80.4,37.3,29.47,WSW,238,5.4,9.9,21,-99.99,,,0.00,821,rob ver 1A,2013-03-31 18:08:00,
2013-03-31 11:09:00,74.7,38.7,29.50,SW,236,6.1,8.9,27,-99.99,,,0.00,861,rob ver 1B,2013-03-31 18:09:00,
2013-03-31 11:10:00,74.6,38.4,29.50,SW,235,6.7,9.4,27,-99.99,,,0.00,840,rob ver 1B,2013-03-31 18:10:00,
2013-03-31 11:11:00,74.5,38.4,29.50,West,268,11.4,15.4,27,-99.99,,,0.00,864,rob ver 1B,2013-03-31 18:11:00,
2013-03-31 11:12:00,74.1,38.3,29.50,West,267,6.4,9.7,27,-99.99,,,0.00,863,rob ver 1B,2013-03-31 18:12:00,
2013-03-31 11:13:00,81.2,37.6,29.47,SW,232,9.7,11.2,20,-99.99,,,0.00,830,rob ver 1A,2013-03-31 18:13:00,
2013-03-31 11:14:00,74.0,38.4,29.50,WSW,243,6.2,8.9,27,-99.99,,,0.00,862,rob ver 1B,2013-03-31 18:14:00,
2013-03-31 11:15:00,73.6,38.4,29.50,West,260,4.6,7.0,27,-99.99,,,0.00,865,rob ver 1B,2013-03-31 18:15:00,
2013-03-31 11:16:00,73.7,38.5,29.50,WSW,258,5.8,7.6,27,-99.99,,,0.00,871,rob ver 1B,2013-03-31 18:16:00,
2013-03-31 11:17:00,74.0,38.4,29.50,SW,232,4.9,6.2,27,-99.99,,,0.00,876,rob ver 1B,2013-03-31 18:17:00,
2013-03-31 11:18:00,81.3,37.8,29.47,SW,236,9.4,11.6,21,-99.99,,,0.00,836,rob ver 1A,2013-03-31 18:18:00,
2013-03-31 11:19:00,74.0,38.5,29.50,WSW,255,4.0,7.0,27,-99.99,,,0.00,887,rob ver 1B,2013-03-31 18:19:00,
2013-03-31 11:20:00,74.3,38.5,29.50,WSW,237,5.2,9.5,26,-99.99,,,0.00,883,rob ver 1B,2013-03-31 18:20:00,
2013-03-31 11:21:00,74.3,38.2,29.50,SSW,198,3.1,4.5,26,-99.99,,,0.00,888,rob ver 1B,2013-03-31 18:21:00,
2013-03-31 11:22:00,74.4,38.3,29.50,SSW,193,2.4,4.6,26,-99.99,,,0.00,888,rob ver 1B,2013-03-31 18:22:00,
2013-03-31 11:23:00,81.0,37.8,29.47,SW,217,5.1,9.1,21,-99.99,,,0.00,843,rob ver 1A,2013-03-31 18:23:00,
2013-03-31 11:24:00,75.0,38.5,29.50,WNW,303,6.7,11.7,26,-99.99,,,0.00,894,rob ver 1B,2013-03-31 18:24:00,
2013-03-31 11:25:00,74.9,38.0,29.50,WNW,287,9.1,10.9,26,-99.99,,,0.00,894,rob ver 1B,2013-03-31 18:25:00,
2013-03-31 11:26:00,74.8,38.1,29.50,WNW,293,6.7,8.5,26,-99.99,,,0.00,897,rob ver 1B,2013-03-31 18:26:00,
2013-03-31 11:27:00,74.8,38.2,29.50,WNW,302,4.9,7.2,26,-99.99,,,0.00,883,rob ver 1B,2013-03-31 18:27:00,
2013-03-31 11:28:00,81.7,38.2,29.47,SW,215,11.8,15.6,21,-99.99,,,0.00,850,rob ver 1A,2013-03-31 18:28:00,
2013-03-31 11:29:00,74.5,38.3,29.50,WNW,295,5.9,10.1,27,-99.99,,,0.00,836,rob ver 1B,2013-03-31 18:29:00,
2013-03-31 11:30:00,74.7,38.4,29.50,NW,307,2.4,4.3,26,-99.99,,,0.00,876,rob ver 1B,2013-03-31 18:30:00,
2013-03-31 11:31:00,75.2,38.5,29.50,NW,312,1.8,3.4,26,-99.99,,,0.00,859,rob ver 1B,2013-03-31 18:31:00,
2013-03-31 11:32:00,75.6,38.4,29.50,WSW,256,2.9,6.2,26,-99.99,,,0.00,834,rob ver 1B,2013-03-31 18:32:00,
2013-03-31 11:33:00,81.6,38.3,29.47,SW,235,9.1,14.4,21,-99.99,,,0.00,856,rob ver 1A,2013-03-31 18:33:00,
2013-03-31 11:34:00,75.6,38.2,29.50,WNW,288,4.6,7.6,26,-99.99,,,0.00,835,rob ver 1B,2013-03-31 18:34:00,
2013-03-31 11:35:00,75.1,38.2,29.50,WNW,301,4.2,5.5,26,-99.99,,,0.00,847,rob ver 1B,2013-03-31 18:35:00,
2013-03-31 11:36:00,74.8,38.2,29.50,NW,316,2.7,4.3,26,-99.99,,,0.00,802,rob ver 1B,2013-03-31 18:36:00,
2013-03-31 11:37:00,75.0,38.3,29.50,WNW,297,4.3,10.8,26,-99.99,,,0.00,856,rob ver 1B,2013-03-31 18:37:00,
2013-03-31 11:38:00,75.1,37.9,29.50,West,273,8.7,13.6,25,-99.99,,,0.00,892,rob ver 1B,2013-03-31 18:38:00,
2013-03-31 11:39:00,82.3,38.2,29.47,WSW,246,7.9,10.6,21,-99.99,,,0.00,862,rob ver 1A,2013-03-31 18:39:00,
2013-03-31 11:40:00,74.5,37.7,29.50,WSW,256,6.0,8.3,26,-99.99,,,0.00,937,rob ver 1B,2013-03-31 18:40:00,
2013-03-31 11:41:00,74.3,37.8,29.50,SW,232,3.8,6.6,26,-99.99,,,0.00,884,rob ver 1B,2013-03-31 18:41:00,
2013-03-31 11:42:00,75.0,38.1,29.50,WNW,283,8.4,12.2,25,-99.99,,,0.00,959,rob ver 1B,2013-03-31 18:42:00,
2013-03-31 11:43:00,75.6,37.8,29.50,WNW,299,7.0,8.7,25,-99.99,,,0.00,938,rob ver 1B,2013-03-31 18:43:00,
2013-03-31 11:44:00,82.5,39.1,29.47,SSW,198,11.2,14.4,21,-99.99,,,0.00,868,rob ver 1A,2013-03-31 18:44:00,
2013-03-31 11:45:00,75.5,37.6,29.50,WNW,293,5.1,7.4,25,-99.99,,,0.00,979,rob ver 1B,2013-03-31 18:45:00,
2013-03-31 11:46:00,75.6,37.4,29.50,WNW,294,5.3,6.4,25,-99.99,,,0.00,790,rob ver 1B,2013-03-31 18:46:00,
2013-03-31 11:47:00,75.3,37.3,29.50,SW,227,4.6,6.6,25,-99.99,,,0.00,828,rob ver 1B,2013-03-31 18:47:00,
2013-03-31 11:48:00,75.1,37.3,29.50,SW,219,2.9,4.1,25,-99.99,,,0.00,945,rob ver 1B,2013-03-31 18:48:00,
2013-03-31 11:49:00,82.3,38.6,29.47,SW,219,9.9,12.8,21,-99.99,,,0.00,874,rob ver 1A,2013-03-31 18:49:00,
2013-03-31 11:50:00,75.5,37.3,29.50,SW,218,5.3,6.7,25,-99.99,,,0.00,957,rob ver 1B,2013-03-31 18:50:00,
2013-03-31 11:51:00,75.3,37.3,29.50,South,185,2.8,5.3,25,-99.99,,,0.00,1013,rob ver 1B,2013-03-31 18:51:00,
2013-03-31 11:52:00,75.6,37.6,29.50,South,173,2.0,4.3,25,-99.99,,,0.00,1029,rob ver 1B,2013-03-31 18:52:00,
2013-03-31 11:53:00,76.3,37.5,29.50,NW,314,6.1,8.4,24,-99.99,,,0.00,846,rob ver 1B,2013-03-31 18:53:00,
2013-03-31 11:54:00,81.8,38.0,29.47,SW,231,5.0,6.4,21,-99.99,,,0.00,879,rob ver 1A,2013-03-31 18:54:00,
2013-03-31 11:55:00,76.4,37.5,29.50,NNW,331,3.3,4.5,24,-99.99,,,0.00,977,rob ver 1B,2013-03-31 18:55:00,
2013-03-31 11:56:00,76.6,37.5,29.47,North,6,4.0,5.3,24,-99.99,,,0.00,859,rob ver 1B,2013-03-31 18:56:00,
2013-03-31 11:57:00,76.3,37.4,29.47,NE,46,3.6,5.7,24,-99.99,,,0.00,806,rob ver 1B,2013-03-31 18:57:00,
2013-03-31 11:58:00,76.2,37.5,29.47,NW,304,2.6,6.5,24,-99.99,,,0.00,726,rob ver 1B,2013-03-31 18:58:00,
2013-03-31 11:59:00,82.5,39.3,29.47,SSW,213,10.6,15.1,21,-99.99,,,0.00,883,rob ver 1A,2013-03-31 18:59:00,
2013-03-31 12:00:00,75.6,36.9,29.50,WSW,244,6.3,9.1,24,-99.99,,,0.00,795,rob ver 1B,2013-03-31 19:00:00,
2013-03-31 12:01:00,75.4,36.1,29.50,West,277,7.3,9.5,24,-99.99,,,0.00,784,rob ver 1B,2013-03-31 19:01:00,
2013-03-31 12:02:00,75.3,36.6,29.50,West,279,5.7,8.4,24,-99.99,,,0.00,722,rob ver 1B,2013-03-31 19:02:00,
2013-03-31 12:03:00,75.4,36.6,29.47,West,280,5.1,9.1,24,-99.99,,,0.00,826,rob ver 1B,2013-03-31 19:03:00,
2013-03-31 12:04:00,82.5,39.2,29.47,SSW,205,10.2,15.3,21,-99.99,,,0.00,889,rob ver 1A,2013-03-31 19:04:00,
2013-03-31 12:05:00,76.3,36.8,29.47,WNW,292,3.0,5.3,24,-99.99,,,0.00,755,rob ver 1B,2013-03-31 19:05:00,
2013-03-31 12:06:00,76.4,37.0,29.47,WSW,239,4.6,7.5,24,-99.99,,,0.00,781,rob ver 1B,2013-03-31 19:06:00,
2013-03-31 12:07:00,76.2,36.9,29.47,WSW,251,4.4,8.4,24,-99.99,,,0.00,737,rob ver 1B,2013-03-31 19:07:00,
2013-03-31 12:08:00,76.2,37.0,29.47,SW,216,8.5,11.3,23,-99.99,,,0.00,817,rob ver 1B,2013-03-31 19:08:00,
2013-03-31 12:09:00,75.9,36.5,29.47,SSW,209,6.4,10.4,24,-99.99,,,0.00,707,rob ver 1B,2013-03-31 19:09:00,
2013-03-31 12:10:00,82.9,39.6,29.47,WSW,241,13.6,18.5,21,-99.99,,,0.00,891,rob ver 1A,2013-03-31 19:10:00,
2013-03-31 12:11:00,76.1,36.7,29.47,SSW,199,3.3,8.8,23,-99.99,,,0.00,668.8,rob ver 1B,2013-03-31 19:11:00,
2013-03-31 12:12:00,76.6,36.7,29.47,SSW,200,5.1,7.2,23,-99.99,,,0.00,730,rob ver 1B,2013-03-31 19:12:00,
2013-03-31 12:13:00,76.4,36.3,29.47,SSE,159,1.7,4.1,23,-99.99,,,0.00,746,rob ver 1B,2013-03-31 19:13:00,
2013-03-31 12:14:00,76.8,36.6,29.47,NW,314,0.9,1.5,23,-99.99,,,0.00,707,rob ver 1B,2013-03-31 19:14:00,
2013-03-31 12:15:00,82.1,39.4,29.47,West,269,6.5,9.2,22,-99.99,,,0.00,894,rob ver 1A,2013-03-31 19:15:00,
2013-03-31 12:16:00,76.7,36.6,29.47,SSE,161,5.2,11.7,23,-99.99,,,0.00,612.1,rob ver 1B,2013-03-31 19:16:00,
2013-03-31 12:17:00,76.7,36.7,29.47,SW,224,6.1,7.4,23,-99.99,,,0.00,693.9,rob ver 1B,2013-03-31 19:17:00,
2013-03-31 12:18:00,76.5,36.8,29.47,SW,227,4.3,6.2,23,-99.99,,,0.00,725,rob ver 1B,2013-03-31 19:18:00,
2013-03-31 12:19:00,76.6,36.9,29.47,SSW,208,4.5,6.5,23,-99.99,,,0.00,688.5,rob ver 1B,2013-03-31 19:19:00,
2013-03-31 12:20:00,83.2,39.7,29.47,SW,236,11.7,14.8,21,-99.99,,,0.00,896,rob ver 1A,2013-03-31 19:20:00,
2013-03-31 12:22:00,76.9,35.8,29.47,West,269,4.7,7.4,22,-99.99,,,0.00,911,rob ver 1B,2013-03-31 19:22:00,
2013-03-31 12:23:00,77.1,35.8,29.47,WSW,253,7.2,10.5,22,-99.99,,,0.00,977,rob ver 1B,2013-03-31 19:23:00,
2013-03-31 12:24:00,76.9,35.8,29.47,WSW,252,6.4,7.7,22,-99.99,,,0.00,987,rob ver 1B,2013-03-31 19:24:00,
2013-03-31 12:25:00,83.1,38.4,29.47,SW,221,9.0,12.1,20,-99.99,,,0.00,898,rob ver 1A,2013-03-31 19:25:00,
2013-03-31 12:26:00,77.3,35.9,29.47,SW,222,2.5,3.8,22,-99.99,,,0.00,977,rob ver 1B,2013-03-31 19:26:00,
2013-03-31 12:27:00,77.6,35.9,29.47,SW,235,5.2,9.5,21,-99.99,,,0.00,982,rob ver 1B,2013-03-31 19:27:00,
2013-03-31 12:28:00,77.9,35.2,29.47,West,269,6.2,9.4,21,-99.99,,,0.00,979,rob ver 1B,2013-03-31 19:28:00,
2013-03-31 12:29:00,77.7,35.0,29.47,West,268,9.6,13.2,21,-99.99,,,0.00,953,rob ver 1B,2013-03-31 19:29:00,
2013-03-31 12:30:00,82.5,39.7,29.47,West,266,15.3,19.4,21,-99.99,,,0.00,899,rob ver 1A,2013-03-31 19:30:00,
2013-03-31 12:31:00,77.1,34.9,29.47,SW,224,7.4,10.3,21,-99.99,,,0.00,865,rob ver 1B,2013-03-31 19:31:00,
2013-03-31 12:32:00,77.0,34.5,29.47,WSW,238,7.6,10.3,21,-99.99,,,0.00,779,rob ver 1B,2013-03-31 19:32:00,
2013-03-31 12:33:00,77.0,34.1,29.47,West,277,6.7,9.6,21,-99.99,,,0.00,831,rob ver 1B,2013-03-31 19:33:00,
2013-03-31 12:34:00,76.9,34.3,29.47,WNW,297,5.2,7.0,21,-99.99,,,0.00,847,rob ver 1B,2013-03-31 19:34:00,
2013-03-31 12:35:00,83.2,39.0,29.47,SSW,210,14.1,19.7,20,-99.99,,,0.00,900,rob ver 1A,2013-03-31 19:35:00,
2013-03-31 12:36:00,77.1,34.9,29.47,WSW,239,3.8,9.2,21,-99.99,,,0.00,936,rob ver 1B,2013-03-31 19:36:00,
2013-03-31 12:37:00,77.1,34.1,29.47,SW,233,8.8,11.3,20,-99.99,,,0.00,952,rob ver 1B,2013-03-31 19:37:00,
2013-03-31 12:38:00,77.1,34.1,29.47,SW,216,6.4,8.6,20,-99.99,,,0.00,900,rob ver 1B,2013-03-31 19:38:00,
2013-03-31 12:39:00,77.2,34.1,29.47,SW,221,4.6,8.0,20,-99.99,,,0.00,896,rob ver 1B,2013-03-31 19:39:00,
2013-03-31 12:40:00,83.1,40.0,29.47,SW,221,12.2,19.5,21,-99.99,,,0.00,902,rob ver 1A,2013-03-31 19:40:00,
2013-03-31 12:41:00,77.4,34.1,29.47,SSW,197,6.1,9.1,20,-99.99,,,0.00,733,rob ver 1B,2013-03-31 19:41:00,
2013-03-31 12:42:00,77.5,34.0,29.47,SSW,202,7.0,10.0,20,-99.99,,,0.00,726,rob ver 1B,2013-03-31 19:42:00,
2013-03-31 12:43:00,77.3,34.2,29.47,SW,214,7.2,10.0,20,-99.99,,,0.00,864,rob ver 1B,2013-03-31 19:43:00,
2013-03-31 12:44:00,77.4,34.1,29.47,SW,229,8.3,10.7,20,-99.99,,,0.00,882,rob ver 1B,2013-03-31 19:44:00,
2013-03-31 12:45:00,82.7,40.3,29.47,SW,221,10.4,17.8,21,-99.99,,,0.00,897,rob ver 1A,2013-03-31 19:45:00,
2013-03-31 12:46:00,77.9,34.4,29.47,WNW,283,12.8,16.5,20,-99.99,,,0.00,902,rob ver 1B,2013-03-31 19:46:00,
2013-03-31 12:47:00,77.4,34.8,29.47,West,277,8.6,11.5,21,-99.99,,,0.00,848,rob ver 1B,2013-03-31 19:47:00,
2013-03-31 12:48:00,76.9,34.5,29.47,WNW,294,6.9,10.9,21,-99.99,,,0.00,878,rob ver 1B,2013-03-31 19:48:00,
2013-03-31 12:49:00,77.0,34.6,29.47,WNW,294,6.0,8.5,21,-99.99,,,0.00,703,rob ver 1B,2013-03-31 19:49:00,
2013-03-31 12:50:00,77.2,34.4,29.47,NW,312,5.8,8.1,20,-99.99,,,0.00,718,rob ver 1B,2013-03-31 19:50:00,
2013-03-31 12:51:00,82.7,40.1,29.47,WSW,245,6.9,9.9,21,-99.99,,,0.00,900,rob ver 1A,2013-03-31 19:51:00,
2013-03-31 12:52:00,77.5,34.6,29.47,SW,222,6.2,9.8,21,-99.99,,,0.00,778,rob ver 1B,2013-03-31 19:52:00,
2013-03-31 12:53:00,77.5,34.6,29.47,SW,226,8.2,12.1,20,-99.99,,,0.00,820,rob ver 1B,2013-03-31 19:53:00,
2013-03-31 12:54:00,77.9,34.5,29.47,WSW,238,12.3,16.2,20,-99.99,,,0.00,872,rob ver 1B,2013-03-31 19:54:00,
2013-03-31 12:55:00,77.6,34.4,29.47,SW,235,10.5,15.8,20,-99.99,,,0.00,865,rob ver 1B,2013-03-31 19:55:00,
2013-03-31 12:56:00,83.6,40.5,29.47,SW,235,15.9,19.4,21,-99.99,,,0.00,899,rob ver 1A,2013-03-31 19:56:00,
2013-03-31 12:57:00,77.8,34.3,29.47,SW,224,7.7,9.9,20,-99.99,,,0.00,928,rob ver 1B,2013-03-31 19:57:00,
2013-03-31 12:58:00,77.3,34.4,29.47,WSW,245,5.7,9.0,20,-99.99,,,0.00,929,rob ver 1B,2013-03-31 19:58:00,
2013-03-31 12:59:00,77.4,34.5,29.47,SW,234,4.2,6.2,20,-99.99,,,0.00,872,rob ver 1B,2013-03-31 19:59:00,
2013-03-31 13:00:00,77.9,34.7,29.47,South,190,4.7,6.6,20,-99.99,,,0.00,910,rob ver 1B,2013-03-31 20:00:00,
2013-03-31 13:01:00,82.9,40.7,29.47,SW,226,12.7,18.2,22,-99.99,,,0.00,896,rob ver 1A,2013-03-31 20:01:00,
2013-03-31 13:02:00,78.2,34.4,29.47,South,186,3.4,5.7,20,-99.99,,,0.00,900,rob ver 1B,2013-03-31 20:02:00,
2013-03-31 13:03:00,78.5,34.4,29.47,SW,216,5.4,7.6,19,-99.99,,,0.00,831,rob ver 1B,2013-03-31 20:03:00,
2013-03-31 13:04:00,78.4,34.1,29.47,SSW,194,4.7,6.5,20,-99.99,,,0.00,773,rob ver 1B,2013-03-31 20:04:00,
2013-03-31 13:05:00,78.3,34.3,29.47,SSW,209,3.6,6.0,20,-99.99,,,0.00,692,rob ver 1B,2013-03-31 20:05:00,
2013-03-31 13:06:00,82.9,40.8,29.44,SW,232,17.2,20.5,22,-99.99,,,0.00,898,rob ver 1A,2013-03-31 20:06:00,
2013-03-31 13:07:00,78.6,34.6,29.47,West,270,2.3,4.9,20,-99.99,,,0.00,729,rob ver 1B,2013-03-31 20:07:00,
2013-03-31 13:08:00,78.7,34.6,29.47,North,358,3.5,6.0,20,-99.99,,,0.00,725,rob ver 1B,2013-03-31 20:08:00,
2013-03-31 13:09:00,78.5,34.8,29.47,North,353,3.6,5.6,20,-99.99,,,0.00,756,rob ver 1B,2013-03-31 20:09:00,
2013-03-31 13:10:00,78.7,34.8,29.47,WNW,297,3.4,6.3,20,-99.99,,,0.00,733,rob ver 1B,2013-03-31 20:10:00,
2013-03-31 13:11:00,83.9,41.1,29.44,SW,217,12.9,15.7,21,-99.99,,,0.00,895,rob ver 1A,2013-03-31 20:11:00,
2013-03-31 13:12:00,78.0,34.5,29.47,WSW,256,4.4,11.1,20,-99.99,,,0.00,815,rob ver 1B,2013-03-31 20:12:00,
2013-03-31 13:13:00,77.6,34.4,29.47,South,184,1.4,2.7,20,-99.99,,,0.00,857,rob ver 1B,2013-03-31 20:13:00,
2013-03-31 13:14:00,77.9,34.5,29.47,East,96,3.6,6.8,20,-99.99,,,0.00,887,rob ver 1B,2013-03-31 20:14:00,
2013-03-31 13:15:00,77.7,34.2,29.47,East,85,4.9,6.5,20,-99.99,,,0.00,903,rob ver 1B,2013-03-31 20:15:00,
2013-03-31 13:16:00,83.8,40.8,29.44,SSW,209,14.5,20.6,22,-99.99,,,0.00,894,rob ver 1A,2013-03-31 20:16:00,
2013-03-31 13:17:00,77.8,34.2,29.47,South,187,5.5,7.9,20,-99.99,,,0.00,855,rob ver 1B,2013-03-31 20:17:00,
2013-03-31 13:18:00,78.6,33.4,29.47,SSW,209,5.7,9.3,19,-99.99,,,0.00,887,rob ver 1B,2013-03-31 20:18:00,
2013-03-31 13:19:00,78.9,32.8,29.47,WSW,238,7.8,15.8,18,-99.99,,,0.00,842,rob ver 1B,2013-03-31 20:19:00,
2013-03-31 13:20:00,79.0,32.5,29.44,SW,223,6.2,10.2,18,-99.99,,,0.00,866,rob ver 1B,2013-03-31 20:20:00,
2013-03-31 13:21:00,82.9,40.9,29.44,WSW,254,8.3,13.4,22,-99.99,,,0.00,893,rob ver 1A,2013-03-31 20:21:00,
2013-03-31 13:22:00,78.6,32.6,29.47,West,261,6.9,9.0,18,-99.99,,,0.00,686.7,rob ver 1B,2013-03-31 20:22:00,
2013-03-31 13:23:00,78.4,32.7,29.47,WSW,256,7.3,12.2,18,-99.99,,,0.00,777,rob ver 1B,2013-03-31 20:23:00,
2013-03-31 13:24:00,78.2,32.7,29.47,WSW,251,4.2,6.7,19,-99.99,,,0.00,782,rob ver 1B,2013-03-31 20:24:00,
2013-03-31 13:25:00,78.5,32.5,29.44,SW,228,2.2,4.1,18,-99.99,,,0.00,720,rob ver 1B,2013-03-31 20:25:00,
2013-03-31 13:26:00,83.0,41.0,29.44,SW,225,14.9,20.5,22,-99.99,,,0.00,890,rob ver 1A,2013-03-31 20:26:00,
2013-03-31 13:27:00,79.2,31.6,29.44,WSW,243,12.6,17.3,17,-99.99,,,0.00,790,rob ver 1B,2013-03-31 20:27:00,
2013-03-31 13:28:00,79.1,31.6,29.44,WSW,237,11.0,13.4,17,-99.99,,,0.00,752,rob ver 1B,2013-03-31 20:28:00,
2013-03-31 13:29:00,78.9,31.7,29.44,WSW,237,10.7,14.0,18,-99.99,,,0.00,748,rob ver 1B,2013-03-31 20:29:00,
2013-03-31 13:30:00,79.0,31.9,29.44,WSW,257,9.9,12.9,18,-99.99,,,0.00,830,rob ver 1B,2013-03-31 20:30:00,
2013-03-31 13:31:00,83.3,41.2,29.44,WSW,240,11.0,16.7,22,-99.99,,,0.00,874,rob ver 1A,2013-03-31 20:31:00,
2013-03-31 13:32:00,79.8,31.8,29.44,SW,234,11.6,13.8,17,-99.99,,,0.00,805,rob ver 1B,2013-03-31 20:32:00,
2013-03-31 13:33:00,80.3,31.9,29.44,SW,234,11.5,14.2,17,-99.99,,,0.00,721,rob ver 1B,2013-03-31 20:33:00,
2013-03-31 13:34:00,79.9,31.8,29.44,SW,231,10.7,14.7,17,-99.99,,,0.00,802,rob ver 1B,2013-03-31 20:34:00,
2013-03-31 13:35:00,79.5,30.7,29.44,SW,224,12.5,16.1,17,-99.99,,,0.00,799,rob ver 1B,2013-03-31 20:35:00,
2013-03-31 13:36:00,79.1,31.0,29.44,SW,233,6.0,10.2,17,-99.99,,,0.00,669.4,rob ver 1B,2013-03-31 20:36:00,
2013-03-31 13:37:00,83.5,40.8,29.44,West,261,12.6,17.6,22,-99.99,,,0.00,870,rob ver 1A,2013-03-31 20:37:00,
2013-03-31 13:38:00,78.6,31.6,29.44,WSW,249,7.7,9.5,18,-99.99,,,0.00,721,rob ver 1B,2013-03-31 20:38:00,
2013-03-31 13:39:00,78.5,31.6,29.44,SSW,209,8.9,13.5,17,-99.99,,,0.00,665,rob ver 1B,2013-03-31 20:39:00,
2013-03-31 13:40:00,78.8,31.6,29.44,SSW,202,8.9,14.1,17,-99.99,,,0.00,627.3,rob ver 1B,2013-03-31 20:40:00,
2013-03-31 13:41:00,78.7,31.5,29.44,South,185,5.6,8.1,17,-99.99,,,0.00,747,rob ver 1B,2013-03-31 20:41:00,
2013-03-31 13:42:00,84.1,40.9,29.44,WSW,254,14.2,18.5,21,-99.99,,,0.00,869,rob ver 1A,2013-03-31 20:42:00,
2013-03-31 13:43:00,78.7,30.9,29.44,South,178,8.9,13.3,17,-99.99,,,0.00,847,rob ver 1B,2013-03-31 20:43:00,
2013-03-31 13:44:00,78.7,30.8,29.44,South,184,12.4,15.8,17,-99.99,,,0.00,952,rob ver 1B,2013-03-31 20:44:00,
2013-03-31 13:45:00,78.9,30.8,29.44,South,172,11.1,14.9,17,-99.99,,,0.00,715,rob ver 1B,2013-03-31 20:45:00,
2013-03-31 13:46:00,78.5,30.9,29.44,South,186,9.8,14.8,17,-99.99,,,0.00,640.7,rob ver 1B,2013-03-31 20:46:00,
2013-03-31 13:47:00,84.0,40.6,29.44,SW,215,15.2,17.9,21,-99.99,,,0.00,820,rob ver 1A,2013-03-31 20:47:00,
2013-03-31 13:48:00,78.4,30.7,29.44,SW,216,3.3,7.2,17,-99.99,,,0.00,540.7,rob ver 1B,2013-03-31 20:48:00,
2013-03-31 13:49:00,78.4,30.9,29.44,West,277,7.4,9.0,17,-99.99,,,0.00,556.2,rob ver 1B,2013-03-31 20:49:00,
2013-03-31 13:50:00,77.9,31.1,29.44,West,260,3.6,6.4,18,-99.99,,,0.00,633.3,rob ver 1B,2013-03-31 20:50:00,
2013-03-31 13:51:00,78.2,30.7,29.44,SSW,195,5.2,7.6,16,-99.99,,,0.00,612.2,rob ver 1B,2013-03-31 20:51:00,
2013-03-31 13:52:00,83.2,40.5,29.44,WSW,246,8.6,12.3,22,-99.99,,,0.00,778,rob ver 1A,2013-03-31 20:52:00,
2013-03-31 13:53:00,78.3,29.9,29.44,SSW,192,5.0,7.5,16,-99.99,,,0.00,641,rob ver 1B,2013-03-31 20:53:00,
2013-03-31 13:54:00,78.8,29.6,29.44,SW,217,9.7,14.0,16,-99.99,,,0.00,777,rob ver 1B,2013-03-31 20:54:00,
2013-03-31 13:55:00,79.2,29.9,29.44,WSW,239,9.4,14.2,16,-99.99,,,0.00,886,rob ver 1B,2013-03-31 20:55:00,
2013-03-31 13:56:00,79.5,29.6,29.44,SW,215,12.7,15.5,16,-99.99,,,0.00,857,rob ver 1B,2013-03-31 20:56:00,
2013-03-31 13:57:00,83.0,40.8,29.44,SW,224,5.3,10.0,22,-99.99,,,0.00,734,rob ver 1A,2013-03-31 20:57:00,
2013-03-31 13:58:00,79.3,30.1,29.44,SSW,206,11.5,15.2,16,-99.99,,,0.00,868,rob ver 1B,2013-03-31 20:58:00,
2013-03-31 13:59:00,79.1,30.5,29.44,SSW,208,11.6,14.9,16,-99.99,,,0.00,825,rob ver 1B,2013-03-31 20:59:00,
2013-03-31 14:00:00,79.2,30.8,29.44,South,190,8.9,12.3,17,-99.99,,,0.00,762,rob ver 1B,2013-03-31 21:00:00,
2013-03-31 14:01:00,79.8,31.3,29.44,SSW,196,12.2,15.1,17,-99.99,,,0.00,812,rob ver 1B,2013-03-31 21:01:00,
2013-03-31 14:02:00,84.3,40.5,29.44,WSW,245,14.1,17.8,21,-99.99,,,0.00,752,rob ver 1A,2013-03-31 21:02:00,
2013-03-31 14:03:00,79.8,30.5,29.44,South,191,10.1,13.5,16,-99.99,,,0.00,809,rob ver 1B,2013-03-31 21:03:00,
2013-03-31 14:04:00,79.8,30.4,29.44,SSW,197,13.2,17.2,16,-99.99,,,0.00,865,rob ver 1B,2013-03-31 21:04:00,
2013-03-31 14:05:00,80.1,30.3,29.44,SSW,210,13.1,15.8,16,-99.99,,,0.00,968,rob ver 1B,2013-03-31 21:05:00,
2013-03-31 14:06:00,79.5,30.3,29.44,SSW,203,9.4,13.2,16,-99.99,,,0.00,977,rob ver 1B,2013-03-31 21:06:00,
2013-03-31 14:07:00,83.3,40.6,29.44,WSW,238,5.3,6.9,22,-99.99,,,0.00,816,rob ver 1A,2013-03-31 21:07:00,
2013-03-31 14:08:00,79.1,30.5,29.44,SSW,206,9.0,12.5,16,-99.99,,,0.00,978,rob ver 1B,2013-03-31 21:08:00,
2013-03-31 14:09:00,79.4,30.6,29.44,SW,229,10.8,17.3,16,-99.99,,,0.00,954,rob ver 1B,2013-03-31 21:09:00,
2013-03-31 14:10:00,79.7,30.7,29.44,West,261,10.0,14.0,17,-99.99,,,0.00,941,rob ver 1B,2013-03-31 21:10:00,
2013-03-31 14:11:00,79.5,30.9,29.44,West,262,8.2,12.9,17,-99.99,,,0.00,895,rob ver 1B,2013-03-31 21:11:00,
2013-03-31 14:12:00,79.3,30.9,29.44,SW,228,6.6,10.3,17,-99.99,,,0.00,949,rob ver 1B,2013-03-31 21:12:00,
2013-03-31 14:13:00,83.4,40.9,29.44,SW,236,9.4,11.8,21,-99.99,,,0.00,864,rob ver 1A,2013-03-31 21:13:00,
2013-03-31 14:14:00,79.5,31.6,29.44,SW,234,7.3,13.4,17,-99.99,,,0.00,883,rob ver 1B,2013-03-31 21:14:00,
2013-03-31 14:15:00,79.5,31.9,29.44,South,184,7.5,10.2,17,-99.99,,,0.00,899,rob ver 1B,2013-03-31 21:15:00,
2013-03-31 14:16:00,79.8,32.8,29.44,SSW,208,8.2,12.2,19,-99.99,,,0.00,925,rob ver 1B,2013-03-31 21:16:00,
2013-03-31 14:17:00,80.0,33.8,29.44,SSW,206,11.9,16.9,18,-99.99,,,0.00,882,rob ver 1B,2013-03-31 21:17:00,
2013-03-31 14:18:00,83.9,40.3,29.44,SSE,162,6.3,8.0,21,-99.99,,,0.00,817,rob ver 1A,2013-03-31 21:18:00,
2013-03-31 14:19:00,80.1,33.4,29.44,SW,221,8.4,10.3,18,-99.99,,,0.00,807,rob ver 1B,2013-03-31 21:19:00,
2013-03-31 14:20:00,79.8,32.5,29.41,SW,232,9.6,13.4,18,-99.99,,,0.00,760,rob ver 1B,2013-03-31 21:20:00,
2013-03-31 14:21:00,79.9,32.8,29.41,WSW,240,9.5,12.6,18,-99.99,,,0.00,790,rob ver 1B,2013-03-31 21:21:00,
2013-03-31 14:22:00,80.2,32.8,29.44,West,261,9.7,12.1,17,-99.99,,,0.00,848,rob ver 1B,2013-03-31 21:22:00,
2013-03-31 14:23:00,84.0,40.9,29.41,West,264,1.9,4.3,21,-99.99,,,0.00,838,rob ver 1A,2013-03-31 21:23:00,
2013-03-31 14:24:00,79.6,33.1,29.44,WSW,240,8.3,14.7,18,-99.99,,,0.00,845,rob ver 1B,2013-03-31 21:24:00,
2013-03-31 14:25:00,79.8,33.6,29.41,WSW,248,10.5,12.3,18,-99.99,,,0.00,815,rob ver 1B,2013-03-31 21:25:00,
2013-03-31 14:26:00,79.5,33.4,29.41,WSW,239,8.6,11.4,18,-99.99,,,0.00,857,rob ver 1B,2013-03-31 21:26:00,
2013-03-31 14:27:00,79.3,33.4,29.41,SW,230,5.9,9.9,18,-99.99,,,0.00,743,rob ver 1B,2013-03-31 21:27:00,
2013-03-31 14:28:00,84.9,40.4,29.41,SW,217,12.2,15.1,20,-99.99,,,0.00,830,rob ver 1A,2013-03-31 21:28:00,
2013-03-31 14:29:00,79.7,34.9,29.41,South,186,12.4,16.2,19,-99.99,,,0.00,661.6,rob ver 1B,2013-03-31 21:29:00,
2013-03-31 14:30:00,79.3,35.2,29.41,South,188,10.5,13.7,20,-99.99,,,0.00,632.1,rob ver 1B,2013-03-31 21:30:00,
2013-03-31 14:31:00,79.1,35.4,29.41,South,182,6.9,9.7,20,-99.99,,,0.00,654.4,rob ver 1B,2013-03-31 21:31:00,
2013-03-31 14:32:00,79.1,35.1,29.41,SSE,161,8.2,10.8,20,-99.99,,,0.00,617.2,rob ver 1B,2013-03-31 21:32:00,
2013-03-31 14:33:00,85.3,39.6,29.41,SSW,194,13.1,16.7,19,-99.99,,,0.00,819,rob ver 1A,2013-03-31 21:33:00,
2013-03-31 14:34:00,78.5,35.2,29.41,SSE,154,8.7,12.4,20,-99.99,,,0.00,715,rob ver 1B,2013-03-31 21:34:00,
2013-03-31 14:35:00,78.7,35.3,29.41,SSE,162,9.3,12.8,20,-99.99,,,0.00,797,rob ver 1B,2013-03-31 21:35:00,
2013-03-31 14:36:00,78.6,35.4,29.41,SE,138,6.6,9.1,21,-99.99,,,0.00,803,rob ver 1B,2013-03-31 21:36:00,
2013-03-31 14:37:00,78.2,35.2,29.41,SSE,151,3.3,7.1,21,-99.99,,,0.00,801,rob ver 1B,2013-03-31 21:37:00,
2013-03-31 14:38:00,84.5,40.0,29.41,SSE,155,10.6,13.6,20,-99.99,,,0.00,806,rob ver 1A,2013-03-31 21:38:00,
2013-03-31 14:39:00,79.3,35.9,29.41,SE,140,6.5,8.0,20,-99.99,,,0.00,859,rob ver 1B,2013-03-31 21:39:00,
2013-03-31 14:40:00,79.3,35.6,29.41,SE,129,6.1,7.3,20,-99.99,,,0.00,836,rob ver 1B,2013-03-31 21:40:00,
2013-03-31 14:41:00,79.5,35.7,29.41,ESE,115,5.5,6.9,20,-99.99,,,0.00,841,rob ver 1B,2013-03-31 21:41:00,
2013-03-31 14:42:00,79.5,35.6,29.41,SE,138,6.0,9.0,20,-99.99,,,0.00,799,rob ver 1B,2013-03-31 21:42:00,
2013-03-31 14:43:00,85.3,39.8,29.41,SSW,204,11.4,16.8,19,-99.99,,,0.00,793,rob ver 1A,2013-03-31 21:43:00,
2013-03-31 14:44:00,80.3,35.9,29.41,SSE,156,10.6,14.5,20,-99.99,,,0.00,770,rob ver 1B,2013-03-31 21:44:00,
2013-03-31 14:45:00,79.6,35.7,29.41,SSE,168,10.0,15.7,20,-99.99,,,0.00,777,rob ver 1B,2013-03-31 21:45:00,
2013-03-31 14:46:00,79.0,35.8,29.41,SSE,156,6.4,8.8,21,-99.99,,,0.00,752,rob ver 1B,2013-03-31 21:46:00,
2013-03-31 14:47:00,79.3,36.1,29.41,SSE,165,9.2,16.4,21,-99.99,,,0.00,655.4,rob ver 1B,2013-03-31 21:47:00,
2013-03-31 14:48:00,79.5,35.9,29.41,SSE,159,10.2,15.4,21,-99.99,,,0.00,461.7,rob ver 1B,2013-03-31 21:48:00,
2013-03-31 14:49:00,86.3,39.8,29.41,SSW,197,12.8,18.1,19,-99.99,,,0.00,760,rob ver 1A,2013-03-31 21:49:00,
2013-03-31 14:50:00,79.2,36.0,29.41,SSE,151,10.3,15.8,20,-99.99,,,0.00,564,rob ver 1B,2013-03-31 21:50:00,
2013-03-31 14:51:00,79.4,35.9,29.41,SSE,156,9.0,11.2,20,-99.99,,,0.00,588.4,rob ver 1B,2013-03-31 21:51:00,
2013-03-31 14:52:00,79.8,35.8,29.41,South,176,14.3,17.4,20,-99.99,,,0.00,581.6,rob ver 1B,2013-03-31 21:52:00,
2013-03-31 14:53:00,79.7,35.7,29.41,South,183,13.6,17.6,20,-99.99,,,0.00,514.1,rob ver 1B,2013-03-31 21:53:00,
2013-03-31 14:54:00,86.5,39.0,29.41,SSW,201,11.4,16.2,18,-99.99,,,0.00,740,rob ver 1A,2013-03-31 21:54:00,
2013-03-31 14:55:00,79.1,35.6,29.41,South,185,7.4,10.1,20,-99.99,,,0.00,683.2,rob ver 1B,2013-03-31 21:55:00,
2013-03-31 14:56:00,79.3,35.5,29.41,SSW,196,12.5,18.4,20,-99.99,,,0.00,728,rob ver 1B,2013-03-31 21:56:00,
2013-03-31 14:57:00,80.0,35.2,29.41,South,184,14.7,17.4,19,-99.99,,,0.00,652.8,rob ver 1B,2013-03-31 21:57:00,
2013-03-31 14:58:00,79.9,35.0,29.41,SSE,163,14.9,18.5,19,-99.99,,,0.00,548.2,rob ver 1B,2013-03-31 21:58:00,
2013-03-31 14:59:00,85.5,39.1,29.41,West,262,11.0,14.2,19,-99.99,,,0.00,756,rob ver 1A,2013-03-31 21:59:00,
2013-03-31 15:00:00,79.2,35.2,29.41,SSE,156,13.8,17.3,20,-99.99,,,0.00,601.3,rob ver 1B,2013-03-31 22:00:00,
2013-03-31 15:01:00,79.1,35.1,29.41,SSE,166,10.9,13.2,20,-99.99,,,0.00,617.7,rob ver 1B,2013-03-31 22:01:00,
2013-03-31 15:02:00,79.6,35.0,29.41,South,169,13.7,18.1,19,-99.99,,,0.00,560.3,rob ver 1B,2013-03-31 22:02:00,
2013-03-31 15:03:00,79.3,34.5,29.41,South,183,14.2,18.7,19,-99.99,,,0.00,619.7,rob ver 1B,2013-03-31 22:03:00,
2013-03-31 15:04:00,85.2,39.5,29.41,SW,229,11.3,15.2,19,-99.99,,,0.00,692.6,rob ver 1A,2013-03-31 22:04:00,
2013-03-31 15:05:00,79.4,34.1,29.41,SSE,168,10.7,16.3,19,-99.99,,,0.00,674.5,rob ver 1B,2013-03-31 22:05:00,
2013-03-31 15:06:00,78.9,34.2,29.41,South,172,6.2,7.4,19,-99.99,,,0.00,688,rob ver 1B,2013-03-31 22:06:00,
2013-03-31 15:07:00,79.2,34.1,29.41,South,172,6.6,9.1,19,-99.99,,,0.00,586.9,rob ver 1B,2013-03-31 22:07:00,
2013-03-31 15:08:00,79.0,34.1,29.41,SSE,160,7.5,10.8,19,-99.99,,,0.00,665.5,rob ver 1B,2013-03-31 22:08:00,
2013-03-31 15:09:00,85.0,39.3,29.41,SSW,211,12.4,17.7,20,-99.99,,,0.00,688.5,rob ver 1A,2013-03-31 22:09:00,
2013-03-31 15:10:00,78.5,34.0,29.41,South,171,5.2,6.5,19,-99.99,,,0.00,677.7,rob ver 1B,2013-03-31 22:10:00,
2013-03-31 15:11:00,78.9,34.2,29.41,South,179,5.7,8.4,19,-99.99,,,0.00,683.2,rob ver 1B,2013-03-31 22:11:00,
2013-03-31 15:12:00,79.1,34.0,29.41,South,170,5.6,7.9,19,-99.99,,,0.00,681.9,rob ver 1B,2013-03-31 22:12:00,
2013-03-31 15:13:00,79.5,33.8,29.41,South,177,7.0,9.1,18,-99.99,,,0.00,712,rob ver 1B,2013-03-31 22:13:00,
2013-03-31 15:14:00,85.3,39.4,29.38,SW,220,13.6,18.6,19,-99.99,,,0.00,679.8,rob ver 1A,2013-03-31 22:14:00,
2013-03-31 15:15:00,79.9,33.2,29.41,SSE,167,8.3,11.8,18,-99.99,,,0.00,793,rob ver 1B,2013-03-31 22:15:00,
2013-03-31 15:16:00,79.6,32.9,29.41,SSE,163,7.5,12.6,18,-99.99,,,0.00,789,rob ver 1B,2013-03-31 22:16:00,
2013-03-31 15:17:00,79.3,32.7,29.41,South,174,9.6,15.2,18,-99.99,,,0.00,788,rob ver 1B,2013-03-31 22:17:00,
2013-03-31 15:18:00,79.3,32.7,29.41,South,181,8.6,14.1,18,-99.99,,,0.00,772,rob ver 1B,2013-03-31 22:18:00,
2013-03-31 15:19:00,84.6,39.2,29.41,SSW,207,4.5,6.2,20,-99.99,,,0.00,672.2,rob ver 1A,2013-03-31 22:19:00,
2013-03-31 15:20:00,79.9,32.2,29.41,South,175,13.2,16.9,17,-99.99,,,0.00,772,rob ver 1B,2013-03-31 22:20:00,
2013-03-31 15:21:00,79.8,31.8,29.41,South,187,10.5,13.5,17,-99.99,,,0.00,764,rob ver 1B,2013-03-31 22:21:00,
2013-03-31 15:22:00,80.1,31.8,29.41,SSW,192,11.0,14.3,17,-99.99,,,0.00,759,rob ver 1B,2013-03-31 22:22:00,
2013-03-31 15:23:00,80.3,31.6,29.41,South,191,12.3,15.9,17,-99.99,,,0.00,746,rob ver 1B,2013-03-31 22:23:00,
2013-03-31 15:24:00,84.8,39.1,29.38,SW,220,9.4,14.8,20,-99.99,,,0.00,650.8,rob ver 1A,2013-03-31 22:24:00,
2013-03-31 15:25:00,79.7,32.0,29.41,South,177,6.3,10.6,17,-99.99,,,0.00,724,rob ver 1B,2013-03-31 22:25:00,
2013-03-31 15:26:00,79.9,32.3,29.41,SSW,209,2.7,6.6,17,-99.99,,,0.00,718,rob ver 1B,2013-03-31 22:26:00,
2013-03-31 15:27:00,80.3,31.6,29.41,South,191,10.4,13.2,17,-99.99,,,0.00,709,rob ver 1B,2013-03-31 22:27:00,
2013-03-31 15:28:00,80.4,31.6,29.41,South,175,12.4,15.1,16,-99.99,,,0.00,705,rob ver 1B,2013-03-31 22:28:00,
2013-03-31 15:29:00,80.1,31.1,29.41,SSE,162,9.1,11.7,16,-99.99,,,0.00,705,rob ver 1B,2013-03-31 22:29:00,
2013-03-31 15:30:00,85.0,39.3,29.38,WSW,238,12.2,16.2,19,-99.99,,,0.00,646.2,rob ver 1A,2013-03-31 22:30:00,
2013-03-31 15:31:00,80.0,31.0,29.41,SSW,193,9.7,14.3,16,-99.99,,,0.00,708,rob ver 1B,2013-03-31 22:31:00,
2013-03-31 15:32:00,80.2,30.6,29.41,South,190,10.9,14.7,16,-99.99,,,0.00,707,rob ver 1B,2013-03-31 22:32:00,
2013-03-31 15:33:00,80.1,30.4,29.41,SSW,192,10.3,14.4,16,-99.99,,,0.00,705,rob ver 1B,2013-03-31 22:33:00,
2013-03-31 15:34:00,80.0,30.5,29.41,SSW,202,7.0,10.6,16,-99.99,,,0.00,703,rob ver 1B,2013-03-31 22:34:00,
2013-03-31 15:35:00,85.5,40.0,29.38,South,189,13.1,16.7,20,-99.99,,,0.00,593.3,rob ver 1A,2013-03-31 22:35:00,
2013-03-31 15:36:00,80.4,30.5,29.41,South,173,8.5,12.2,16,-99.99,,,0.00,702,rob ver 1B,2013-03-31 22:36:00,
2013-03-31 15:37:00,80.2,30.1,29.41,SSW,194,8.6,11.5,15,-99.99,,,0.00,699.8,rob ver 1B,2013-03-31 22:37:00,
2013-03-31 15:38:00,80.2,30.0,29.41,South,181,13.1,17.2,16,-99.99,,,0.00,692.9,rob ver 1B,2013-03-31 22:38:00,
2013-03-31 15:39:00,80.1,29.8,29.41,South,186,13.6,16.4,15,-99.99,,,0.00,680,rob ver 1B,2013-03-31 22:39:00,
2013-03-31 15:40:00,85.4,40.0,29.38,South,184,16.6,20.0,19,-99.99,,,0.00,582.5,rob ver 1A,2013-03-31 22:40:00,
2013-03-31 15:41:00,79.6,29.9,29.41,SSE,167,9.7,13.1,16,-99.99,,,0.00,680,rob ver 1B,2013-03-31 22:41:00,
2013-03-31 15:42:00,79.4,29.9,29.41,SSE,161,7.8,10.0,16,-99.99,,,0.00,657,rob ver 1B,2013-03-31 22:42:00,
2013-03-31 15:43:00,79.4,30.2,29.41,SSE,168,6.7,12.0,16,-99.99,,,0.00,669,rob ver 1B,2013-03-31 22:43:00,
2013-03-31 15:44:00,80.1,29.8,29.41,SSE,154,8.6,11.9,15,-99.99,,,0.00,660.3,rob ver 1B,2013-03-31 22:44:00,
2013-03-31 15:45:00,84.8,39.0,29.38,SSW,212,13.6,17.3,19,-99.99,,,0.00,637,rob ver 1A,2013-03-31 22:45:00,
2013-03-31 15:46:00,80.0,28.3,29.38,SSW,206,14.6,18.7,15,-99.99,,,0.00,637,rob ver 1B,2013-03-31 22:46:00,
2013-03-31 15:47:00,80.3,28.2,29.41,SSW,196,12.8,15.7,14,-99.99,,,0.00,625.4,rob ver 1B,2013-03-31 22:47:00,
2013-03-31 15:48:00,80.5,27.8,29.41,SSW,195,8.8,12.9,14,-99.99,,,0.00,638.5,rob ver 1B,2013-03-31 22:48:00,
2013-03-31 15:49:00,80.1,28.1,29.41,SSW,212,8.2,9.9,14,-99.99,,,0.00,635.9,rob ver 1B,2013-03-31 22:49:00,
2013-03-31 15:50:00,84.7,39.1,29.38,SSW,210,10.8,13.3,20,-99.99,,,0.00,537.6,rob ver 1A,2013-03-31 22:50:00,
2013-03-31 15:51:00,80.3,28.6,29.41,South,172,9.4,11.7,14,-99.99,,,0.00,639.6,rob ver 1B,2013-03-31 22:51:00,
2013-03-31 15:52:00,80.3,27.6,29.41,South,180,8.6,12.6,14,-99.99,,,0.00,640.6,rob ver 1B,2013-03-31 22:52:00,
2013-03-31 15:53:00,80.4,27.2,29.41,South,177,10.1,15.1,14,-99.99,,,0.00,616.2,rob ver 1B,2013-03-31 22:53:00,
2013-03-31 15:54:00,80.2,27.0,29.41,SSE,167,11.9,14.8,14,-99.99,,,0.00,547.7,rob ver 1B,2013-03-31 22:54:00,
2013-03-31 15:55:00,85.4,39.0,29.38,SW,215,15.4,19.7,19,-99.99,,,0.00,577.6,rob ver 1A,2013-03-31 22:55:00,
2013-03-31 15:56:00,80.5,26.9,29.38,South,177,12.8,17.0,13,-99.99,,,0.00,613.1,rob ver 1B,2013-03-31 22:56:00,
2013-03-31 15:57:00,80.3,26.9,29.38,SSW,192,12.3,15.2,14,-99.99,,,0.00,619.3,rob ver 1B,2013-03-31 22:57:00,
2013-03-31 15:58:00,80.0,26.9,29.38,SSW,195,9.0,10.8,14,-99.99,,,0.00,586.7,rob ver 1B,2013-03-31 22:58:00,
2013-03-31 15:59:00,80.3,27.1,29.38,South,172,11.2,14.7,13,-99.99,,,0.00,630.5,rob ver 1B,2013-03-31 22:59:00,
2013-03-31 16:00:00,84.0,39.1,29.38,SW,224,10.5,17.7,20,-99.99,,,0.00,474.7,rob ver 1A,2013-03-31 23:00:00,
2013-03-31 16:01:00,80.1,26.7,29.38,SSE,159,14.1,17.5,14,-99.99,,,0.00,571.2,rob ver 1B,2013-03-31 23:01:00,
2013-03-31 16:02:00,79.8,26.6,29.38,SSE,151,13.6,17.6,14,-99.99,,,0.00,556.1,rob ver 1B,2013-03-31 23:02:00,
2013-03-31 16:03:00,79.9,26.7,29.38,SSE,157,12.4,17.4,13,-99.99,,,0.00,583,rob ver 1B,2013-03-31 23:03:00,
2013-03-31 16:04:00,80.2,26.6,29.38,South,169,11.4,14.1,13,-99.99,,,0.00,622.3,rob ver 1B,2013-03-31 23:04:00,
2013-03-31 16:05:00,79.8,26.6,29.38,SSE,162,9.7,13.3,14,-99.99,,,0.00,627.7,rob ver 1B,2013-03-31 23:05:00,
2013-03-31 16:06:00,84.9,38.1,29.38,SSW,199,15.6,18.7,19,-99.99,,,0.00,387.6,rob ver 1A,2013-03-31 23:06:00,
2013-03-31 16:07:00,79.1,26.2,29.38,SE,134,8.6,12.0,14,-99.99,,,0.00,602.8,rob ver 1B,2013-03-31 23:07:00,
2013-03-31 16:08:00,79.1,26.3,29.38,SE,144,9.1,13.3,14,-99.99,,,0.00,605.1,rob ver 1B,2013-03-31 23:08:00,
2013-03-31 16:09:00,79.9,26.3,29.38,SSE,152,9.4,12.0,13,-99.99,,,0.00,605.4,rob ver 1B,2013-03-31 23:09:00,
2013-03-31 16:10:00,79.7,26.1,29.38,SSE,164,10.3,13.6,13,-99.99,,,0.00,602.1,rob ver 1B,2013-03-31 23:10:00,
2013-03-31 16:11:00,85.0,38.4,29.38,SW,218,14.8,17.2,19,-99.99,,,0.00,431.6,rob ver 1A,2013-03-31 23:11:00,
2013-03-31 16:12:00,80.3,26.0,29.38,South,186,8.7,12.5,13,-99.99,,,0.00,590,rob ver 1B,2013-03-31 23:12:00,
2013-03-31 16:13:00,80.5,25.9,29.38,SSE,164,11.3,14.5,13,-99.99,,,0.00,592,rob ver 1B,2013-03-31 23:13:00,
2013-03-31 16:14:00,80.6,26.0,29.38,South,171,12.8,15.4,13,-99.99,,,0.00,585.1,rob ver 1B,2013-03-31 23:14:00,
2013-03-31 16:15:00,80.8,26.0,29.38,SSW,196,11.5,14.2,13,-99.99,,,0.00,586.2,rob ver 1B,2013-03-31 23:15:00,
2013-03-31 16:16:00,84.7,37.7,29.38,SSW,212,12.9,16.5,18,-99.99,,,0.00,445.5,rob ver 1A,2013-03-31 23:16:00,
2013-03-31 16:17:00,80.7,25.8,29.38,SSE,166,8.2,9.6,13,-99.99,,,0.00,588,rob ver 1B,2013-03-31 23:17:00,
2013-03-31 16:18:00,80.0,25.5,29.38,South,169,7.1,9.6,13,-99.99,,,0.00,571.8,rob ver 1B,2013-03-31 23:18:00,
2013-03-31 16:19:00,80.2,25.8,29.38,SSW,205,6.5,10.0,13,-99.99,,,0.00,586.2,rob ver 1B,2013-03-31 23:19:00,
2013-03-31 16:20:00,80.8,25.9,29.38,SSW,194,10.0,15.1,13,-99.99,,,0.00,506.1,rob ver 1B,2013-03-31 23:20:00,
2013-03-31 16:21:00,85.1,37.1,29.38,SSW,211,14.5,17.5,18,-99.99,,,0.00,500.9,rob ver 1A,2013-03-31 23:21:00,
2013-03-31 16:22:00,80.7,25.6,29.38,South,185,7.9,10.1,13,-99.99,,,0.00,451.9,rob ver 1B,2013-03-31 23:22:00,
2013-03-31 16:23:00,80.3,25.5,29.38,South,187,6.5,8.9,13,-99.99,,,0.00,557.1,rob ver 1B,2013-03-31 23:23:00,
2013-03-31 16:24:00,80.1,25.5,29.38,South,181,5.9,8.2,13,-99.99,,,0.00,569.5,rob ver 1B,2013-03-31 23:24:00,
2013-03-31 16:25:00,80.3,25.6,29.38,SSW,192,9.4,11.9,13,-99.99,,,0.00,571.5,rob ver 1B,2013-03-31 23:25:00,
2013-03-31 16:26:00,84.5,38.2,29.38,SSW,210,13.0,17.8,19,-99.99,,,0.00,398.4,rob ver 1A,2013-03-31 23:26:00,
2013-03-31 16:27:00,80.3,25.4,29.38,SSE,159,8.2,9.4,13,-99.99,,,0.00,566.1,rob ver 1B,2013-03-31 23:27:00,
2013-03-31 16:28:00,80.2,25.4,29.38,South,179,11.3,16.4,13,-99.99,,,0.00,544.9,rob ver 1B,2013-03-31 23:28:00,
2013-03-31 16:29:00,80.5,25.4,29.38,South,179,14.4,19.8,13,-99.99,,,0.00,548.2,rob ver 1B,2013-03-31 23:29:00,
2013-03-31 16:30:00,80.4,25.4,29.38,South,176,14.3,16.3,13,-99.99,,,0.00,536.1,rob ver 1B,2013-03-31 23:30:00,
2013-03-31 16:31:00,84.5,38.3,29.38,WSW,242,13.6,16.8,19,-99.99,,,0.00,377.1,rob ver 1A,2013-03-31 23:31:00,
2013-03-31 16:32:00,80.1,25.3,29.38,SSE,166,9.8,12.2,13,-99.99,,,0.00,509.4,rob ver 1B,2013-03-31 23:32:00,
2013-03-31 16:33:00,80.1,25.2,29.38,SSE,162,10.2,13.8,13,-99.99,,,0.00,537.4,rob ver 1B,2013-03-31 23:33:00,
2013-03-31 16:34:00,80.3,25.5,29.38,South,173,12.8,17.7,13,-99.99,,,0.00,443.7,rob ver 1B,2013-03-31 23:34:00,
2013-03-31 16:35:00,80.2,25.3,29.38,SSE,163,11.7,14.3,13,-99.99,,,0.00,380.3,rob ver 1B,2013-03-31 23:35:00,
2013-03-31 16:36:00,80.0,25.2,29.38,South,189,10.6,14.1,13,-99.99,,,0.00,407,rob ver 1B,2013-03-31 23:36:00,
2013-03-31 16:37:00,84.5,38.7,29.38,SW,230,9.0,13.7,19,-99.99,,,0.00,466.2,rob ver 1A,2013-03-31 23:37:00,
2013-03-31 16:38:00,80.2,25.2,29.38,SSE,155,11.6,14.6,13,-99.99,,,0.00,319.5,rob ver 1B,2013-03-31 23:38:00,
2013-03-31 16:39:00,79.9,25.0,29.38,SSE,154,11.1,12.9,13,-99.99,,,0.00,256.6,rob ver 1B,2013-03-31 23:39:00,
2013-03-31 16:40:00,79.7,25.0,29.38,SSE,150,10.2,14.2,13,-99.99,,,0.00,253.3,rob ver 1B,2013-03-31 23:40:00,
2013-03-31 16:41:00,79.7,25.1,29.38,SSE,158,10.8,13.5,13,-99.99,,,0.00,250,rob ver 1B,2013-03-31 23:41:00,
2013-03-31 16:42:00,84.5,38.4,29.38,SW,225,12.9,14.8,19,-99.99,,,0.00,411.8,rob ver 1A,2013-03-31 23:42:00,
2013-03-31 16:43:00,79.8,25.4,29.38,SSE,162,12.0,14.0,13,-99.99,,,0.00,260.5,rob ver 1B,2013-03-31 23:43:00,
2013-03-31 16:44:00,80.0,25.4,29.38,SE,146,12.1,14.1,13,-99.99,,,0.00,335.2,rob ver 1B,2013-03-31 23:44:00,
2013-03-31 16:45:00,79.9,25.5,29.38,South,169,12.0,15.0,13,-99.99,,,0.00,298.5,rob ver 1B,2013-03-31 23:45:00,
2013-03-31 16:46:00,80.5,25.8,29.38,South,184,11.0,14.1,13,-99.99,,,0.00,362.7,rob ver 1B,2013-03-31 23:46:00,
2013-03-31 16:47:00,83.9,38.2,29.38,WSW,252,9.0,10.9,19,-99.99,,,0.00,305.2,rob ver 1A,2013-03-31 23:47:00,
2013-03-31 16:48:00,80.7,25.8,29.38,South,187,13.4,16.1,13,-99.99,,,0.00,261.8,rob ver 1B,2013-03-31 23:48:00,
2013-03-31 16:49:00,80.2,25.7,29.38,South,180,12.5,15.1,13,-99.99,,,0.00,217.3,rob ver 1B,2013-03-31 23:49:00,
2013-03-31 16:50:00,80.0,25.7,29.38,SSE,168,10.8,14.7,13,-99.99,,,0.00,219.2,rob ver 1B,2013-03-31 23:50:00,
2013-03-31 16:51:00,80.0,25.6,29.38,South,173,12.0,16.1,13,-99.99,,,0.00,267.2,rob ver 1B,2013-03-31 23:51:00,
2013-03-31 16:52:00,84.5,37.9,29.38,SW,227,15.1,17.6,19,-99.99,,,0.00,278.8,rob ver 1A,2013-03-31 23:52:00,
2013-03-31 16:53:00,80.0,25.6,29.38,SSE,152,12.2,16.7,13,-99.99,,,0.00,317.5,rob ver 1B,2013-03-31 23:53:00,
2013-03-31 16:54:00,80.0,25.5,29.38,SSE,160,15.9,17.8,13,-99.99,,,0.00,313.9,rob ver 1B,2013-03-31 23:54:00,
2013-03-31 16:55:00,79.7,25.3,29.38,SSE,164,13.6,18.7,13,-99.99,,,0.00,360.1,rob ver 1B,2013-03-31 23:55:00,
2013-03-31 16:56:00,79.9,25.4,29.38,SSE,168,13.0,15.6,13,-99.99,,,0.00,378.6,rob ver 1B,2013-03-31 23:56:00,
2013-03-31 16:57:00,84.5,37.4,29.38,SW,230,13.3,15.8,18,-99.99,,,0.00,392.2,rob ver 1A,2013-03-31 23:57:00,
2013-03-31 16:58:00,80.1,25.3,29.38,South,169,13.2,15.8,13,-99.99,,,0.00,405,rob ver 1B,2013-03-31 23:58:00,
2013-03-31 16:59:00,80.0,25.2,29.38,SSE,164,13.2,15.7,13,-99.99,,,0.00,354.4,rob ver 1B,2013-03-31 23:59:00,
2013-03-31 17:00:00,80.0,25.5,29.38,South,172,15.6,19.1,13,-99.99,,,0.00,330.8,rob ver 1B,2013-04-01 00:00:00,
2013-03-31 17:01:00,79.9,25.6,29.38,South,174,12.7,15.3,13,-99.99,,,0.00,326.7,rob ver 1B,2013-04-01 00:01:00,
2013-03-31 17:02:00,84.8,36.9,29.38,SW,220,14.5,18.7,18,-99.99,,,0.00,421.2,rob ver 1A,2013-04-01 00:02:00,
2013-03-31 17:03:00,80.3,25.2,29.38,South,176,12.8,16.3,13,-99.99,,,0.00,273,rob ver 1B,2013-04-01 00:03:00,
2013-03-31 17:04:00,80.7,25.4,29.38,South,180,12.3,14.9,12,-99.99,,,0.00,285.4,rob ver 1B,2013-04-01 00:04:00,
2013-03-31 17:05:00,80.5,25.1,29.38,SSE,166,12.7,16.0,12,-99.99,,,0.00,216.3,rob ver 1B,2013-04-01 00:05:00,
2013-03-31 17:06:00,80.3,25.1,29.38,South,177,13.3,15.9,13,-99.99,,,0.00,275.6,rob ver 1B,2013-04-01 00:06:00,
2013-03-31 17:07:00,84.9,36.7,29.38,SW,225,14.6,20.0,17,-99.99,,,0.00,400.2,rob ver 1A,2013-04-01 00:07:00,
2013-03-31 17:08:00,80.2,25.4,29.38,South,180,11.8,15.9,13,-99.99,,,0.00,225.6,rob ver 1B,2013-04-01 00:08:00,
2013-03-31 17:09:00,80.2,25.4,29.38,South,172,10.7,13.7,13,-99.99,,,0.00,262.3,rob ver 1B,2013-04-01 00:09:00,
2013-03-31 17:10:00,80.2,25.5,29.38,SSE,160,12.6,16.7,13,-99.99,,,0.00,257.4,rob ver 1B,2013-04-01 00:10:00,
2013-03-31 17:11:00,80.3,25.5,29.38,SSE,167,12.8,15.2,13,-99.99,,,0.00,182.2,rob ver 1B,2013-04-01 00:11:00,
2013-03-31 17:12:00,84.3,36.7,29.38,SSW,198,6.3,8.6,18,-99.99,,,0.00,345.7,rob ver 1A,2013-04-01 00:12:00,
2013-03-31 17:13:00,80.0,25.4,29.38,SSE,165,13.6,17.3,13,-99.99,,,0.00,221.2,rob ver 1B,2013-04-01 00:13:00,
2013-03-31 17:14:00,79.7,25.2,29.35,SSE,159,17.0,19.8,13,-99.99,,,0.00,215.3,rob ver 1B,2013-04-01 00:14:00,
2013-03-31 17:15:00,79.5,25.2,29.35,SSE,161,14.2,18.1,13,-99.99,,,0.00,230.4,rob ver 1B,2013-04-01 00:15:00,
2013-03-31 17:16:00,79.6,25.4,29.35,South,173,16.0,19.3,13,-99.99,,,0.00,232.7,rob ver 1B,2013-04-01 00:16:00,
2013-03-31 17:17:00,84.2,37.2,29.38,WSW,238,16.3,20.8,18,-99.99,,,0.00,264.4,rob ver 1A,2013-04-01 00:17:00,
2013-03-31 17:18:00,79.6,25.5,29.35,South,171,12.8,16.3,13,-99.99,,,0.00,326.9,rob ver 1B,2013-04-01 00:18:00,
2013-03-31 17:19:00,79.9,25.7,29.38,South,171,11.8,15.3,13,-99.99,,,0.00,334.1,rob ver 1B,2013-04-01 00:19:00,
2013-03-31 17:20:00,80.2,25.8,29.35,South,171,14.6,17.1,13,-99.99,,,0.00,353.3,rob ver 1B,2013-04-01 00:20:00,
2013-03-31 17:21:00,80.0,25.8,29.35,SSE,165,15.0,18.5,13,-99.99,,,0.00,390.3,rob ver 1B,2013-04-01 00:21:00,
2013-03-31 17:22:00,80.0,25.9,29.35,SSE,164,12.5,16.4,13,-99.99,,,0.00,378.3,rob ver 1B,2013-04-01 00:22:00,
2013-03-31 17:23:00,83.8,37.4,29.38,WSW,245,15.5,19.8,19,-99.99,,,0.00,295.9,rob ver 1A,2013-04-01 00:23:00,
2013-03-31 17:24:00,80.3,25.8,29.35,South,173,9.6,12.7,13,-99.99,,,0.00,399.3,rob ver 1B,2013-04-01 00:24:00,
2013-03-31 17:25:00,80.6,26.1,29.35,SSW,203,8.1,10.3,13,-99.99,,,0.00,340.6,rob ver 1B,2013-04-01 00:25:00,
2013-03-31 17:26:00,81.0,26.5,29.35,SSW,195,12.9,18.8,13,-99.99,,,0.00,328,rob ver 1B,2013-04-01 00:26:00,
2013-03-31 17:27:00,81.2,27.1,29.35,SSW,210,14.4,17.6,14,-99.99,,,0.00,344.1,rob ver 1B,2013-04-01 00:27:00,
2013-03-31 17:28:00,84.1,37.2,29.35,WSW,242,16.7,21.5,18,-99.99,,,0.00,233.3,rob ver 1A,2013-04-01 00:28:00,
2013-03-31 17:29:00,81.1,28.2,29.35,SW,225,10.5,13.7,14,-99.99,,,0.00,341.2,rob ver 1B,2013-04-01 00:29:00,
2013-03-31 17:30:00,81.2,28.4,29.35,SW,217,11.7,15.1,14,-99.99,,,0.00,354.6,rob ver 1B,2013-04-01 00:30:00,
2013-03-31 17:31:00,81.6,28.1,29.35,SSW,210,13.2,16.1,14,-99.99,,,0.00,258.9,rob ver 1B,2013-04-01 00:31:00,
2013-03-31 17:32:00,81.3,28.1,29.35,SSW,211,12.3,15.4,14,-99.99,,,0.00,126.8,rob ver 1B,2013-04-01 00:32:00,
2013-03-31 17:33:00,83.5,37.0,29.38,WSW,242,14.9,18.8,19,-99.99,,,0.00,209.4,rob ver 1A,2013-04-01 00:33:00,
2013-03-31 17:34:00,80.7,28.4,29.35,SW,222,11.5,14.7,14,-99.99,,,0.00,162.9,rob ver 1B,2013-04-01 00:34:00,
2013-03-31 17:35:00,80.6,28.7,29.35,SW,229,12.1,14.8,15,-99.99,,,0.00,172.1,rob ver 1B,2013-04-01 00:35:00,
2013-03-31 17:36:00,80.6,28.8,29.35,SW,236,13.3,16.4,15,-99.99,,,0.00,143.9,rob ver 1B,2013-04-01 00:36:00,
2013-03-31 17:37:00,80.3,28.8,29.35,SW,233,14.1,18.1,15,-99.99,,,0.00,109.5,rob ver 1B,2013-04-01 00:37:00,
2013-03-31 17:38:00,83.6,36.7,29.38,WSW,245,13.5,15.7,18,-99.99,,,0.00,250,rob ver 1A,2013-04-01 00:38:00,
2013-03-31 17:39:00,80.2,28.8,29.35,SW,222,11.4,13.7,15,-99.99,,,0.00,86.9,rob ver 1B,2013-04-01 00:39:00,
2013-03-31 17:40:00,80.1,29.0,29.35,SW,223,12.6,15.3,15,-99.99,,,0.00,84.9,rob ver 1B,2013-04-01 00:40:00,
2013-03-31 17:41:00,79.9,29.0,29.35,SW,222,11.4,14.0,15,-99.99,,,0.00,86.2,rob ver 1B,2013-04-01 00:41:00,
2013-03-31 17:42:00,80.0,29.0,29.35,SW,230,9.6,13.1,15,-99.99,,,0.00,89.5,rob ver 1B,2013-04-01 00:42:00,
2013-03-31 17:43:00,83.3,37.0,29.35,WSW,238,17.4,20.0,19,-99.99,,,0.00,213,rob ver 1A,2013-04-01 00:43:00,
2013-03-31 17:44:00,79.8,29.0,29.35,SW,220,12.3,15.5,15,-99.99,,,0.00,102.9,rob ver 1B,2013-04-01 00:44:00,
2013-03-31 17:45:00,79.8,29.0,29.35,SW,222,12.0,14.1,15,-99.99,,,0.00,111.8,rob ver 1B,2013-04-01 00:45:00,
2013-03-31 17:46:00,79.7,29.0,29.35,SW,222,11.6,14.1,15,-99.99,,,0.00,151.1,rob ver 1B,2013-04-01 00:46:00,
2013-03-31 17:47:00,80.0,29.0,29.35,SW,217,14.0,17.5,15,-99.99,,,0.00,189.8,rob ver 1B,2013-04-01 00:47:00,
2013-03-31 17:48:00,82.9,37.0,29.38,WSW,242,16.5,19.4,19,-99.99,,,0.00,200.5,rob ver 1A,2013-04-01 00:48:00,
2013-03-31 17:49:00,80.0,29.1,29.35,SW,222,10.8,13.0,15,-99.99,,,0.00,159.3,rob ver 1B,2013-04-01 00:49:00,
2013-03-31 17:50:00,80.0,29.1,29.35,SW,214,12.9,17.1,15,-99.99,,,0.00,153.4,rob ver 1B,2013-04-01 00:50:00,
2013-03-31 17:51:00,79.7,29.1,29.35,SW,218,9.7,11.9,15,-99.99,,,0.00,138.8,rob ver 1B,2013-04-01 00:51:00,
2013-03-31 17:52:00,79.7,29.3,29.35,SW,231,12.0,15.2,15,-99.99,,,0.00,127.7,rob ver 1B,2013-04-01 00:52:00,
2013-03-31 17:53:00,82.7,36.7,29.35,WSW,238,14.7,17.6,19,-99.99,,,0.00,113.4,rob ver 1A,2013-04-01 00:53:00,
2013-03-31 17:54:00,79.7,29.2,29.35,SSW,211,12.9,15.8,15,-99.99,,,0.00,146.2,rob ver 1B,2013-04-01 00:54:00,
2013-03-31 17:55:00,79.7,29.2,29.35,SW,217,15.6,18.5,15,-99.99,,,0.00,185,rob ver 1B,2013-04-01 00:55:00,
2013-03-31 17:56:00,79.6,29.1,29.35,SW,230,12.4,16.6,15,-99.99,,,0.00,217.3,rob ver 1B,2013-04-01 00:56:00,
2013-03-31 17:57:00,79.6,29.2,29.35,SW,219,10.4,12.6,15,-99.99,,,0.00,246,rob ver 1B,2013-04-01 00:57:00,
2013-03-31 17:58:00,82.7,36.7,29.38,SW,231,14.4,17.0,19,-99.99,,,0.00,109.1,rob ver 1A,2013-04-01 00:58:00,
2013-03-31 17:59:00,79.9,29.0,29.35,SW,231,12.8,17.2,15,-99.99,,,0.00,238.6,rob ver 1B,2013-04-01 00:59:00,
2013-03-31 18:00:00,79.9,28.7,29.35,SW,222,14.4,18.3,15,-99.99,,,0.00,251.6,rob ver 1B,2013-04-01 01:00:00,
2013-03-31 18:01:00,80.0,28.4,29.35,SW,219,14.4,17.2,15,-99.99,,,0.00,250.1,rob ver 1B,2013-04-01 01:01:00,
2013-03-31 18:02:00,79.9,28.5,29.35,SW,217,13.8,15.9,15,-99.99,,,0.00,256.7,rob ver 1B,2013-04-01 01:02:00,
2013-03-31 18:03:00,81.8,36.7,29.38,SW,236,14.1,18.4,19,-99.99,,,0.00,86.3,rob ver 1A,2013-04-01 01:03:00,
2013-03-31 18:04:00,80.1,27.5,29.35,SW,222,13.2,17.0,14,-99.99,,,0.00,245.5,rob ver 1B,2013-04-01 01:04:00,
2013-03-31 18:05:00,80.2,27.1,29.35,SW,219,13.4,17.1,14,-99.99,,,0.00,224.6,rob ver 1B,2013-04-01 01:05:00,
2013-03-31 18:06:00,80.1,27.4,29.35,SSW,212,12.5,17.5,14,-99.99,,,0.00,199.6,rob ver 1B,2013-04-01 01:06:00,
2013-03-31 18:07:00,80.1,27.3,29.35,SSW,204,12.0,13.9,14,-99.99,,,0.00,209.1,rob ver 1B,2013-04-01 01:07:00,
2013-03-31 18:08:00,81.6,36.7,29.38,WSW,239,13.1,17.5,19,-99.99,,,0.00,60.29,rob ver 1A,2013-04-01 01:08:00,
2013-03-31 18:09:00,80.2,26.3,29.35,SW,220,15.4,18.5,13,-99.99,,,0.00,196.7,rob ver 1B,2013-04-01 01:09:00,
2013-03-31 18:10:00,80.0,26.1,29.35,SW,224,13.6,16.4,13,-99.99,,,0.00,200.6,rob ver 1B,2013-04-01 01:10:00,
2013-03-31 18:11:00,80.1,25.9,29.35,SW,226,13.1,16.2,13,-99.99,,,0.00,196,rob ver 1B,2013-04-01 01:11:00,
2013-03-31 18:12:00,80.3,25.7,29.35,SW,221,14.0,17.9,13,-99.99,,,0.00,189.1,rob ver 1B,2013-04-01 01:12:00,
2013-03-31 18:13:00,81.1,36.6,29.38,WSW,241,14.4,17.7,20,-99.99,,,0.00,56.03,rob ver 1A,2013-04-01 01:13:00,
2013-03-31 18:14:00,79.9,25.7,29.35,SW,233,12.5,15.9,13,-99.99,,,0.00,178,rob ver 1B,2013-04-01 01:14:00,
2013-03-31 18:15:00,79.8,25.6,29.35,SW,235,14.0,18.7,13,-99.99,,,0.00,171.8,rob ver 1B,2013-04-01 01:15:00,
2013-03-31 18:16:00,79.6,25.1,29.35,WSW,239,14.5,17.6,13,-99.99,,,0.00,165.9,rob ver 1B,2013-04-01 01:16:00,
2013-03-31 18:17:00,79.5,24.8,29.35,WSW,238,13.8,18.3,12,-99.99,,,0.00,159,rob ver 1B,2013-04-01 01:17:00,
2013-03-31 18:18:00,79.5,24.2,29.35,WSW,240,14.8,17.5,13,-99.99,,,0.00,155.9,rob ver 1B,2013-04-01 01:18:00,
2013-03-31 18:19:00,80.9,36.4,29.38,WSW,238,12.7,17.1,20,-99.99,,,0.00,77,rob ver 1A,2013-04-01 01:19:00,
2013-03-31 18:20:00,79.7,24.2,29.35,SW,225,12.7,16.6,13,-99.99,,,0.00,147.4,rob ver 1B,2013-04-01 01:20:00,
2013-03-31 18:21:00,79.8,24.4,29.35,SW,235,11.6,14.0,12,-99.99,,,0.00,142.6,rob ver 1B,2013-04-01 01:21:00,
2013-03-31 18:22:00,79.7,23.6,29.35,SW,235,11.6,13.8,12,-99.99,,,0.00,137.4,rob ver 1B,2013-04-01 01:22:00,
2013-03-31 18:23:00,79.6,22.9,29.35,SW,232,14.0,16.1,12,-99.99,,,0.00,132.4,rob ver 1B,2013-04-01 01:23:00,
2013-03-31 18:24:00,80.9,36.2,29.38,WSW,239,11.5,14.5,20,-99.99,,,0.00,58.98,rob ver 1A,2013-04-01 01:24:00,
2013-03-31 18:25:00,79.4,23.4,29.35,SW,234,13.5,15.8,12,-99.99,,,0.00,122.9,rob ver 1B,2013-04-01 01:25:00,
2013-03-31 18:26:00,79.4,23.2,29.35,SW,228,11.1,14.3,12,-99.99,,,0.00,118.7,rob ver 1B,2013-04-01 01:26:00,
2013-03-31 18:27:00,79.6,22.8,29.35,SW,219,12.8,14.9,12,-99.99,,,0.00,113.8,rob ver 1B,2013-04-01 01:27:00,
2013-03-31 18:28:00,79.5,22.8,29.35,SW,225,12.1,15.3,12,-99.99,,,0.00,109.5,rob ver 1B,2013-04-01 01:28:00,
2013-03-31 18:29:00,80.9,35.5,29.38,WSW,242,14.3,17.8,19,-99.99,,,0.00,73.1,rob ver 1A,2013-04-01 01:29:00,
2013-03-31 18:30:00,79.5,21.8,29.35,SW,233,13.8,18.8,11,-99.99,,,0.00,101.3,rob ver 1B,2013-04-01 01:30:00,
2013-03-31 18:31:00,79.3,20.7,29.35,SW,235,13.7,17.7,11,-99.99,,,0.00,95.7,rob ver 1B,2013-04-01 01:31:00,
2013-03-31 18:32:00,79.2,20.7,29.35,SW,223,13.1,16.7,11,-99.99,,,0.00,91.1,rob ver 1B,2013-04-01 01:32:00,
2013-03-31 18:33:00,79.2,20.8,29.35,SW,220,14.6,16.6,11,-99.99,,,0.00,71.8,rob ver 1B,2013-04-01 01:33:00,
2013-03-31 18:34:00,80.6,35.5,29.38,SW,235,12.9,18.1,19,-99.99,,,0.00,68.33,rob ver 1A,2013-04-01 01:34:00,
2013-03-31 18:35:00,79.1,20.6,29.35,SW,229,13.5,16.3,11,-99.99,,,0.00,66.06,rob ver 1B,2013-04-01 01:35:00,
2013-03-31 18:36:00,79.0,20.9,29.35,SW,233,12.5,16.1,11,-99.99,,,0.00,78.5,rob ver 1B,2013-04-01 01:36:00,
2013-03-31 18:37:00,78.9,21.3,29.35,SW,234,12.4,15.2,11,-99.99,,,0.00,75.7,rob ver 1B,2013-04-01 01:37:00,
2013-03-31 18:38:00,78.8,21.7,29.35,SW,232,13.6,15.8,11,-99.99,,,0.00,72.9,rob ver 1B,2013-04-01 01:38:00,
2013-03-31 18:39:00,80.1,35.1,29.38,WSW,244,14.8,17.7,19,-99.99,,,0.00,48.18,rob ver 1A,2013-04-01 01:39:00,
2013-03-31 18:40:00,78.8,21.2,29.35,SW,233,12.5,14.7,11,-99.99,,,0.00,67.2,rob ver 1B,2013-04-01 01:40:00,
2013-03-31 18:41:00,78.8,20.8,29.35,SW,222,12.2,15.5,11,-99.99,,,0.00,63.6,rob ver 1B,2013-04-01 01:41:00,
2013-03-31 18:42:00,78.8,20.5,29.35,SW,224,13.9,17.2,11,-99.99,,,0.00,60.65,rob ver 1B,2013-04-01 01:42:00,
2013-03-31 18:43:00,78.7,20.7,29.35,SW,222,12.7,16.5,11,-99.99,,,0.00,58.02,rob ver 1B,2013-04-01 01:43:00,
2013-03-31 18:44:00,79.9,35.0,29.38,WSW,251,13.5,17.6,19,-99.99,,,0.00,37.86,rob ver 1A,2013-04-01 01:44:00,
2013-03-31 18:45:00,78.6,21.2,29.35,SW,230,14.3,17.1,11,-99.99,,,0.00,52.12,rob ver 1B,2013-04-01 01:45:00,
2013-03-31 18:46:00,78.6,21.0,29.35,SW,231,12.9,16.3,11,-99.99,,,0.00,49.01,rob ver 1B,2013-04-01 01:46:00,
2013-03-31 18:47:00,78.5,20.7,29.35,SW,236,14.4,17.6,11,-99.99,,,0.00,45.9,rob ver 1B,2013-04-01 01:47:00,
2013-03-31 18:48:00,78.5,20.4,29.35,SW,233,14.1,16.7,11,-99.99,,,0.00,42.95,rob ver 1B,2013-04-01 01:48:00,
2013-03-31 18:49:00,78.4,20.4,29.35,SW,230,12.4,15.6,11,-99.99,,,0.00,39.5,rob ver 1B,2013-04-01 01:49:00,
2013-03-31 18:50:00,79.5,35.0,29.38,WSW,245,14.4,17.9,20,-99.99,,,0.00,18.36,rob ver 1A,2013-04-01 01:50:00,
2013-03-31 18:51:00,78.3,20.6,29.35,SW,229,11.1,13.9,11,-99.99,,,0.00,32.13,rob ver 1B,2013-04-01 01:51:00,
2013-03-31 18:52:00,78.3,20.6,29.35,SW,232,10.0,12.0,11,-99.99,,,0.00,28.19,rob ver 1B,2013-04-01 01:52:00,
2013-03-31 18:53:00,78.2,20.6,29.38,SW,229,11.2,15.0,11,-99.99,,,0.00,24.26,rob ver 1B,2013-04-01 01:53:00,
2013-03-31 18:54:00,78.2,20.4,29.35,SW,227,13.3,16.2,11,-99.99,,,0.00,20.33,rob ver 1B,2013-04-01 01:54:00,
2013-03-31 18:55:00,79.1,35.1,29.38,WSW,244,14.6,17.7,20,-99.99,,,0.00,11.14,rob ver 1A,2013-04-01 01:55:00,
2013-03-31 18:56:00,78.0,20.4,29.35,SW,225,12.7,15.5,11,-99.99,,,0.00,14.1,rob ver 1B,2013-04-01 01:56:00,
2013-03-31 18:57:00,77.9,20.4,29.35,SW,223,12.9,16.5,11,-99.99,,,0.00,12.29,rob ver 1B,2013-04-01 01:57:00,
2013-03-31 18:58:00,77.8,20.4,29.35,SW,230,12.6,15.5,11,-99.99,,,0.00,11.47,rob ver 1B,2013-04-01 01:58:00,
2013-03-31 18:59:00,77.8,20.1,29.35,SW,227,12.7,16.0,11,-99.99,,,0.00,10.49,rob ver 1B,2013-04-01 01:59:00,
2013-03-31 19:00:00,78.9,34.9,29.38,WSW,237,13.8,16.6,20,-99.99,,,0.00,7.21,rob ver 1A,2013-04-01 02:00:00,
2013-03-31 19:01:00,77.7,20.1,29.35,SW,225,12.6,17.0,11,-99.99,,,0.00,8.2,rob ver 1B,2013-04-01 02:01:00,
2013-03-31 19:02:00,77.6,20.3,29.35,SW,225,12.6,15.6,11,-99.99,,,0.00,7.05,rob ver 1B,2013-04-01 02:02:00,
2013-03-31 19:03:00,77.6,20.4,29.35,SW,227,12.1,14.2,11,-99.99,,,0.00,6.229,rob ver 1B,2013-04-01 02:03:00,
2013-03-31 19:04:00,77.5,20.5,29.35,SW,230,11.9,15.3,11,-99.99,,,0.00,5.245,rob ver 1B,2013-04-01 02:04:00,
2013-03-31 19:05:00,78.8,34.7,29.38,SW,236,14.8,17.6,20,-99.99,,,0.00,4.589,rob ver 1A,2013-04-01 02:05:00,
2013-03-31 19:06:00,77.4,20.7,29.35,SW,224,13.7,17.6,11,-99.99,,,0.00,3.606,rob ver 1B,2013-04-01 02:06:00,
2013-03-31 19:07:00,77.4,20.8,29.38,SW,225,13.3,16.2,12,-99.99,,,0.00,2.95,rob ver 1B,2013-04-01 02:07:00,
2013-03-31 19:08:00,77.4,20.8,29.38,SW,223,11.8,14.6,12,-99.99,,,0.00,2.623,rob ver 1B,2013-04-01 02:08:00,
2013-03-31 19:09:00,77.3,20.9,29.38,SW,229,10.8,14.1,12,-99.99,,,0.00,1.967,rob ver 1B,2013-04-01 02:09:00,
2013-03-31 19:10:00,78.5,35.4,29.38,SW,236,14.8,17.6,21,-99.99,,,0.00,1.967,rob ver 1A,2013-04-01 02:10:00,
2013-03-31 19:11:00,77.1,21.1,29.35,SW,233,11.2,13.5,12,-99.99,,,0.00,1.147,rob ver 1B,2013-04-01 02:11:00,
2013-03-31 19:12:00,77.1,21.2,29.38,SW,227,10.2,11.8,12,-99.99,,,0.00,.656,rob ver 1B,2013-04-01 02:12:00,
2013-03-31 19:13:00,77.0,21.2,29.38,SW,230,11.4,14.2,12,-99.99,,,0.00,.492,rob ver 1B,2013-04-01 02:13:00,
2013-03-31 19:14:00,76.9,21.3,29.38,SW,226,9.9,12.3,12,-99.99,,,0.00,.328,rob ver 1B,2013-04-01 02:14:00,
2013-03-31 19:15:00,78.3,36.0,29.38,WSW,240,13.7,16.5,21,-99.99,,,0.00,.328,rob ver 1A,2013-04-01 02:15:00,
2013-03-31 19:16:00,76.8,21.4,29.38,SW,228,10.8,14.0,12,-99.99,,,0.00,.164,rob ver 1B,2013-04-01 02:16:00,
2013-03-31 19:17:00,76.7,21.4,29.38,SW,226,9.1,10.7,12,-99.99,,,0.00,.164,rob ver 1B,2013-04-01 02:17:00,
2013-03-31 19:18:00,76.6,21.4,29.38,SW,224,9.5,11.4,12,-99.99,,,0.00,0,rob ver 1B,2013-04-01 02:18:00,
2013-03-31 19:19:00,76.5,21.5,29.38,SW,224,8.8,11.0,12,-99.99,,,0.00,0,rob ver 1B,2013-04-01 02:19:00,
2013-03-31 19:20:00,78.0,36.6,29.38,WSW,239,12.1,14.3,22,-99.99,,,0.00,0,rob ver 1A,2013-04-01 02:20:00,
2013-03-31 19:21:00,76.4,21.6,29.38,SW,223,9.4,12.2,12,-99.99,,,0.00,0,rob ver 1B,2013-04-01 02:21:00,
2013-03-31 19:22:00,76.4,21.7,29.38,SW,223,9.6,12.5,12,-99.99,,,0.00,0,rob ver 1B,2013-04-01 02:22:00,
2013-03-31 19:23:00,76.4,21.9,29.38,SW,222,10.2,12.3,13,-99.99,,,0.00,0,rob ver 1B,2013-04-01 02:23:00,
2013-03-31 19:24:00,76.3,22.0,29.38,SW,226,9.9,13.2,13,-99.99,,,0.00,0,rob ver 1B,2013-04-01 02:24:00,
2013-03-31 19:25:00,77.8,36.4,29.38,WSW,240,15.3,18.3,22,-99.99,,,0.00,0,rob ver 1A,2013-04-01 02:25:00,
2013-03-31 19:26:00,76.4,22.0,29.38,SW,227,12.4,15.0,13,-99.99,,,0.00,0,rob ver 1B,2013-04-01 02:26:00,
2013-03-31 19:27:00,76.3,22.1,29.38,SW,229,10.4,12.6,13,-99.99,,,0.00,0,rob ver 1B,2013-04-01 02:27:00,
2013-03-31 19:28:00,76.3,22.1,29.38,SW,229,10.2,12.6,13,-99.99,,,0.00,0,rob ver 1B,2013-04-01 02:28:00,
2013-03-31 19:29:00,76.2,22.1,29.38,SW,229,11.3,13.7,13,-99.99,,,0.00,0,rob ver 1B,2013-04-01 02:29:00,
2013-03-31 19:30:00,76.2,22.1,29.38,SW,229,11.0,12.7,13,-99.99,,,0.00,0,rob ver 1B,2013-04-01 02:30:00,
2013-03-31 19:31:00,77.7,36.5,29.38,SW,234,12.6,15.1,22,-99.99,,,0.00,0,rob ver 1A,2013-04-01 02:31:00,
2013-03-31 19:32:00,76.1,22.0,29.38,SW,230,9.6,11.4,13,-99.99,,,0.00,0,rob ver 1B,2013-04-01 02:32:00,
2013-03-31 19:33:00,76.0,22.0,29.38,SW,228,9.7,11.1,13,-99.99,,,0.00,0,rob ver 1B,2013-04-01 02:33:00,
2013-03-31 19:34:00,76.0,22.1,29.38,SW,226,9.4,12.2,13,-99.99,,,0.00,0,rob ver 1B,2013-04-01 02:34:00,
2013-03-31 19:35:00,75.9,22.1,29.38,SW,224,9.5,11.5,13,-99.99,,,0.00,0,rob ver 1B,2013-04-01 02:35:00,
2013-03-31 19:36:00,77.4,36.6,29.38,WSW,240,9.4,11.7,22,-99.99,,,0.00,0,rob ver 1A,2013-04-01 02:36:00,
2013-03-31 19:37:00,75.8,22.2,29.38,SW,225,9.6,11.1,13,-99.99,,,0.00,0,rob ver 1B,2013-04-01 02:37:00,
2013-03-31 19:38:00,75.8,22.3,29.38,SW,226,9.4,11.5,13,-99.99,,,0.00,0,rob ver 1B,2013-04-01 02:38:00,
2013-03-31 19:39:00,75.7,22.4,29.38,SW,226,8.2,9.6,13,-99.99,,,0.00,0,rob ver 1B,2013-04-01 02:39:00,
2013-03-31 19:40:00,75.6,22.4,29.38,SW,224,8.5,10.1,13,-99.99,,,0.00,0,rob ver 1B,2013-04-01 02:40:00,
2013-03-31 19:41:00,77.2,37.3,29.38,West,260,11.2,13.9,23,-99.99,,,0.00,0,rob ver 1A,2013-04-01 02:41:00,
2013-03-31 19:42:00,75.5,22.5,29.38,SW,224,8.7,10.7,13,-99.99,,,0.00,0,rob ver 1B,2013-04-01 02:42:00,
2013-03-31 19:43:00,75.4,22.6,29.38,SW,222,8.4,9.7,13,-99.99,,,0.00,0,rob ver 1B,2013-04-01 02:43:00,
2013-03-31 19:44:00,75.3,22.6,29.38,SW,221,8.1,10.5,13,-99.99,,,0.00,0,rob ver 1B,2013-04-01 02:44:00,
2013-03-31 19:45:00,75.3,22.6,29.38,SW,221,8.6,9.8,13,-99.99,,,0.00,0,rob ver 1B,2013-04-01 02:45:00,
2013-03-31 19:46:00,77.1,37.7,29.38,West,262,13.7,16.5,24,-99.99,,,0.00,0,rob ver 1A,2013-04-01 02:46:00,
2013-03-31 19:47:00,75.2,22.5,29.38,SW,225,7.7,9.5,13,-99.99,,,0.00,0,rob ver 1B,2013-04-01 02:47:00,
2013-03-31 19:48:00,75.1,22.5,29.38,SW,225,7.5,9.4,13,-99.99,,,0.00,0,rob ver 1B,2013-04-01 02:48:00,
2013-03-31 19:49:00,75.1,22.4,29.38,SW,224,8.2,9.8,13,-99.99,,,0.00,0,rob ver 1B,2013-04-01 02:49:00,
2013-03-31 19:50:00,75.1,22.3,29.38,SW,223,7.3,9.0,13,-99.99,,,0.00,0,rob ver 1B,2013-04-01 02:50:00,
2013-03-31 19:51:00,76.8,37.7,29.38,West,266,12.6,15.4,24,-99.99,,,0.00,0,rob ver 1A,2013-04-01 02:51:00,
2013-03-31 19:52:00,75.1,21.8,29.38,SW,223,8.1,11.1,13,-99.99,,,0.00,0,rob ver 1B,2013-04-01 02:52:00,
2013-03-31 19:53:00,75.1,21.5,29.38,SW,221,10.0,11.6,13,-99.99,,,0.00,0,rob ver 1B,2013-04-01 02:53:00,
2013-03-31 19:54:00,75.2,21.8,29.38,SW,220,7.9,9.0,13,-99.99,,,0.00,0,rob ver 1B,2013-04-01 02:54:00,
2013-03-31 19:55:00,75.1,21.8,29.38,SW,222,7.6,9.2,13,-99.99,,,0.00,0,rob ver 1B,2013-04-01 02:55:00,
2013-03-31 19:56:00,76.7,37.9,29.38,WSW,246,13.2,16.0,24,-99.99,,,0.00,0,rob ver 1A,2013-04-01 02:56:00,
2013-03-31 19:57:00,74.9,21.6,29.38,SW,223,7.7,9.3,13,-99.99,,,0.00,0,rob ver 1B,2013-04-01 02:57:00,
2013-03-31 19:58:00,74.8,21.5,29.38,SW,218,6.7,8.2,13,-99.99,,,0.00,0,rob ver 1B,2013-04-01 02:58:00,
2013-03-31 19:59:00,74.8,21.1,29.38,SW,223,8.4,10.7,13,-99.99,,,0.00,0,rob ver 1B,2013-04-01 02:59:00,
2013-03-31 20:00:00,74.8,20.7,29.38,SW,224,7.9,9.3,12,-99.99,,,0.00,0,rob ver 1B,2013-04-01 03:00:00,
2013-03-31 20:01:00,76.5,37.9,29.38,WSW,241,11.9,15.2,24,-99.99,,,0.00,0,rob ver 1A,2013-04-01 03:01:00,
2013-03-31 20:02:00,74.7,20.6,29.38,SW,217,6.8,8.2,13,-99.99,,,0.00,0,rob ver 1B,2013-04-01 03:02:00,
2013-03-31 20:03:00,74.6,20.5,29.38,SW,217,7.2,9.4,12,-99.99,,,0.00,0,rob ver 1B,2013-04-01 03:03:00,
2013-03-31 20:04:00,74.6,20.6,29.38,SW,218,7.3,8.6,12,-99.99,,,0.00,0,rob ver 1B,2013-04-01 03:04:00,
2013-03-31 20:05:00,74.7,20.5,29.38,SW,218,8.5,10.8,12,-99.99,,,0.00,0,rob ver 1B,2013-04-01 03:05:00,
2013-03-31 20:06:00,76.2,38.0,29.38,WSW,255,14.1,18.2,25,-99.99,,,0.00,0,rob ver 1A,2013-04-01 03:06:00,
2013-03-31 20:07:00,74.6,20.5,29.38,SSW,211,6.6,7.9,12,-99.99,,,0.00,0,rob ver 1B,2013-04-01 03:07:00,
2013-03-31 20:08:00,74.4,20.4,29.38,SSW,211,6.3,7.4,13,-99.99,,,0.00,0,rob ver 1B,2013-04-01 03:08:00,
2013-03-31 20:09:00,74.4,20.4,29.38,SSW,212,6.8,9.0,13,-99.99,,,0.00,0,rob ver 1B,2013-04-01 03:09:00,
2013-03-31 20:10:00,74.4,20.4,29.38,SSW,213,6.9,9.3,12,-99.99,,,0.00,0,rob ver 1B,2013-04-01 03:10:00,
2013-03-31 20:11:00,76.1,37.5,29.38,WSW,255,12.5,14.9,24,-99.99,,,0.00,0,rob ver 1A,2013-04-01 03:11:00,
2013-03-31 20:12:00,74.2,20.5,29.38,SSW,206,5.9,7.1,13,-99.99,,,0.00,0,rob ver 1B,2013-04-01 03:12:00,
2013-03-31 20:13:00,74.1,20.5,29.38,SSW,205,5.8,6.6,13,-99.99,,,0.00,0,rob ver 1B,2013-04-01 03:13:00,
2013-03-31 20:14:00,74.0,20.4,29.38,SSW,204,5.4,6.6,13,-99.99,,,0.00,0,rob ver 1B,2013-04-01 03:14:00,
2013-03-31 20:15:00,73.8,20.3,29.38,SSW,200,5.1,7.4,13,-99.99,,,0.00,0,rob ver 1B,2013-04-01 03:15:00,
2013-03-31 20:16:00,73.7,20.2,29.38,SSW,199,5.2,6.2,13,-99.99,,,0.00,0,rob ver 1B,2013-04-01 03:16:00,
2013-03-31 20:17:00,75.9,37.3,29.38,WSW,249,12.5,15.7,24,-99.99,,,0.00,0,rob ver 1A,2013-04-01 03:17:00,
2013-03-31 20:18:00,73.4,20.1,29.38,SSW,200,5.1,6.5,13,-99.99,,,0.00,0,rob ver 1B,2013-04-01 03:18:00,
2013-03-31 20:19:00,73.4,20.2,29.38,SSW,209,5.9,7.6,13,-99.99,,,0.00,0,rob ver 1B,2013-04-01 03:19:00,
2013-03-31 20:20:00,73.5,20.3,29.38,SSW,202,6.4,7.4,13,-99.99,,,0.00,0,rob ver 1B,2013-04-01 03:20:00,
2013-03-31 20:21:00,73.5,20.3,29.38,SSW,204,5.8,6.9,13,-99.99,,,0.00,0,rob ver 1B,2013-04-01 03:21:00,
2013-03-31 20:22:00,75.8,37.1,29.38,WSW,246,15.3,19.7,24,-99.99,,,0.00,0,rob ver 1A,2013-04-01 03:22:00,
2013-03-31 20:23:00,73.4,20.4,29.38,SSW,205,6.5,7.4,13,-99.99,,,0.00,0,rob ver 1B,2013-04-01 03:23:00,
2013-03-31 20:24:00,73.4,20.6,29.38,SSW,207,5.9,6.8,13,-99.99,,,0.00,0,rob ver 1B,2013-04-01 03:24:00,
2013-03-31 20:25:00,73.4,20.6,29.38,SSW,205,5.6,6.5,13,-99.99,,,0.00,0,rob ver 1B,2013-04-01 03:25:00,
2013-03-31 20:26:00,73.3,20.6,29.38,SSW,202,5.3,6.4,13,-99.99,,,0.00,0,rob ver 1B,2013-04-01 03:26:00,
2013-03-31 20:27:00,75.6,37.1,29.38,WSW,241,15.9,19.0,24,-99.99,,,0.00,0,rob ver 1A,2013-04-01 03:27:00,
2013-03-31 20:28:00,73.1,20.8,29.38,SSW,202,5.2,6.0,13,-99.99,,,0.00,0,rob ver 1B,2013-04-01 03:28:00,
2013-03-31 20:29:00,73.1,21.1,29.38,SSW,209,5.6,6.8,14,-99.99,,,0.00,0,rob ver 1B,2013-04-01 03:29:00,
2013-03-31 20:30:00,73.2,21.4,29.38,SSW,208,5.5,6.4,14,-99.99,,,0.00,0,rob ver 1B,2013-04-01 03:30:00,
2013-03-31 20:31:00,73.3,21.9,29.38,SSW,213,5.9,6.9,14,-99.99,,,0.00,0,rob ver 1B,2013-04-01 03:31:00,
2013-03-31 20:32:00,75.3,37.0,29.38,SW,236,12.5,14.7,24,-99.99,,,0.00,0,rob ver 1A,2013-04-01 03:32:00,
2013-03-31 20:33:00,73.4,22.5,29.38,SSW,211,5.8,7.4,14,-99.99,,,0.00,0,rob ver 1B,2013-04-01 03:33:00,
2013-03-31 20:34:00,73.3,22.5,29.38,SW,214,5.4,6.8,14,-99.99,,,0.00,0,rob ver 1B,2013-04-01 03:34:00,
2013-03-31 20:35:00,73.3,23.3,29.38,SW,214,7.0,9.2,15,-99.99,,,0.00,0,rob ver 1B,2013-04-01 03:35:00,
2013-03-31 20:36:00,73.3,23.8,29.38,SW,216,7.1,7.9,15,-99.99,,,0.00,0,rob ver 1B,2013-04-01 03:36:00,
2013-03-31 20:37:00,74.9,37.0,29.38,WSW,237,10.9,14.7,25,-99.99,,,0.00,0,rob ver 1A,2013-04-01 03:37:00,
2013-03-31 20:38:00,73.2,23.9,29.38,SSW,212,6.0,7.7,15,-99.99,,,0.00,0,rob ver 1B,2013-04-01 03:38:00,
2013-03-31 20:39:00,73.1,24.0,29.38,SSW,213,6.0,7.6,15,-99.99,,,0.00,0,rob ver 1B,2013-04-01 03:39:00,
2013-03-31 20:40:00,73.1,24.1,29.38,SW,215,6.4,7.6,15,-99.99,,,0.00,0,rob ver 1B,2013-04-01 03:40:00,
2013-03-31 20:41:00,73.1,24.2,29.38,SW,215,6.6,8.1,16,-99.99,,,0.00,0,rob ver 1B,2013-04-01 03:41:00,
2013-03-31 20:42:00,74.7,37.0,29.38,WSW,241,11.9,15.1,25,-99.99,,,0.00,0,rob ver 1A,2013-04-01 03:42:00,
2013-03-31 20:43:00,73.1,25.0,29.38,SW,217,6.9,7.9,16,-99.99,,,0.00,0,rob ver 1B,2013-04-01 03:43:00,
2013-03-31 20:44:00,73.2,25.7,29.38,SW,218,7.7,10.0,17,-99.99,,,0.00,0,rob ver 1B,2013-04-01 03:44:00,
2013-03-31 20:45:00,73.4,25.9,29.38,SW,222,7.4,9.0,16,-99.99,,,0.00,0,rob ver 1B,2013-04-01 03:45:00,
2013-03-31 20:46:00,73.5,25.6,29.38,SW,222,6.8,8.2,16,-99.99,,,0.00,0,rob ver 1B,2013-04-01 03:46:00,
2013-03-31 20:47:00,74.6,37.0,29.41,WSW,247,11.3,13.4,25,-99.99,,,0.00,0,rob ver 1A,2013-04-01 03:47:00,
2013-03-31 20:48:00,73.3,25.6,29.38,SW,222,5.5,6.1,16,-99.99,,,0.00,0,rob ver 1B,2013-04-01 03:48:00,
2013-03-31 20:49:00,73.2,25.5,29.38,SW,222,4.7,5.6,16,-99.99,,,0.00,0,rob ver 1B,2013-04-01 03:49:00,
2013-03-31 20:50:00,73.0,25.8,29.38,SW,221,5.4,7.6,17,-99.99,,,0.00,0,rob ver 1B,2013-04-01 03:50:00,
2013-03-31 20:51:00,73.0,26.1,29.38,SW,227,6.0,6.9,17,-99.99,,,0.00,0,rob ver 1B,2013-04-01 03:51:00,
2013-03-31 20:52:00,74.4,37.0,29.41,WSW,243,14.0,18.3,25,-99.99,,,0.00,0,rob ver 1A,2013-04-01 03:52:00,
2013-03-31 20:53:00,72.8,26.0,29.38,SW,229,5.3,6.1,17,-99.99,,,0.00,0,rob ver 1B,2013-04-01 03:53:00,
2013-03-31 20:54:00,72.6,26.0,29.38,SW,227,5.4,6.3,17,-99.99,,,0.00,0,rob ver 1B,2013-04-01 03:54:00,
2013-03-31 20:55:00,72.5,26.2,29.38,SW,227,5.7,7.5,17,-99.99,,,0.00,0,rob ver 1B,2013-04-01 03:55:00,
2013-03-31 20:56:00,72.5,26.6,29.38,SW,226,5.9,7.9,18,-99.99,,,0.00,0,rob ver 1B,2013-04-01 03:56:00,
2013-03-31 20:57:00,74.1,37.0,29.41,WSW,255,11.9,15.3,25,-99.99,,,0.00,0,rob ver 1A,2013-04-01 03:57:00,
2013-03-31 20:58:00,72.6,27.0,29.38,SW,227,6.0,7.4,18,-99.99,,,0.00,0,rob ver 1B,2013-04-01 03:58:00,
2013-03-31 20:59:00,72.6,27.4,29.38,SW,223,6.9,8.3,18,-99.99,,,0.00,0,rob ver 1B,2013-04-01 03:59:00,
2013-03-31 21:00:00,74.0,37.1,29.41,WSW,252,10.8,14.7,26,-99.99,,,0.00,0,rob ver 1A,2013-04-01 04:00:00,
2013-03-31 21:01:00,72.7,28.1,29.38,SW,225,8.4,11.3,19,-99.99,,,0.00,0,rob ver 1B,2013-04-01 04:01:00,
2013-03-31 21:02:00,73.8,37.0,29.41,West,259,8.2,10.1,26,-99.99,,,0.00,0,rob ver 1A,2013-04-01 04:02:00,
2013-03-31 21:03:00,72.9,29.7,29.38,SW,225,13.2,17.2,19,-99.99,,,0.00,0,rob ver 1B,2013-04-01 04:03:00,
2013-03-31 21:04:00,73.1,29.9,29.38,SW,235,10.8,12.6,20,-99.99,,,0.00,0,rob ver 1B,2013-04-01 04:04:00,
2013-03-31 21:05:00,73.2,30.5,29.38,SW,231,12.9,16.3,20,-99.99,,,0.00,0,rob ver 1B,2013-04-01 04:05:00,
2013-03-31 21:06:00,73.3,30.8,29.38,SW,236,12.4,16.2,20,-99.99,,,0.00,0,rob ver 1B,2013-04-01 04:06:00,
2013-03-31 21:07:00,73.7,37.1,29.41,West,259,10.1,13.3,26,-99.99,,,0.00,0,rob ver 1A,2013-04-01 04:07:00,
2013-03-31 21:08:00,72.9,31.0,29.38,SW,232,9.8,12.1,21,-99.99,,,0.00,0,rob ver 1B,2013-04-01 04:08:00,
2013-03-31 21:09:00,72.8,31.5,29.38,WSW,237,11.0,12.6,21,-99.99,,,0.00,0,rob ver 1B,2013-04-01 04:09:00,
2013-03-31 21:10:00,72.8,31.5,29.38,WSW,242,9.3,11.9,21,-99.99,,,0.00,0,rob ver 1B,2013-04-01 04:10:00,
2013-03-31 21:11:00,72.5,31.4,29.38,WSW,248,9.3,11.3,21,-99.99,,,0.00,0,rob ver 1B,2013-04-01 04:11:00,
2013-03-31 21:12:00,73.3,37.3,29.41,WSW,257,13.0,15.9,26,-99.99,,,0.00,0,rob ver 1A,2013-04-01 04:12:00,
2013-03-31 21:13:00,72.4,31.4,29.38,WSW,241,8.1,9.9,21,-99.99,,,0.00,0,rob ver 1B,2013-04-01 04:13:00,
2013-03-31 21:14:00,72.2,31.5,29.38,WSW,238,7.6,8.9,22,-99.99,,,0.00,0,rob ver 1B,2013-04-01 04:14:00,
2013-03-31 21:15:00,72.1,32.1,29.38,SW,234,8.7,10.6,23,-99.99,,,0.00,0,rob ver 1B,2013-04-01 04:15:00,
2013-03-31 21:16:00,73.1,37.2,29.41,WSW,257,11.8,15.7,27,-99.99,,,0.00,0,rob ver 1A,2013-04-01 04:16:00,
2013-03-31 21:17:00,72.2,33.6,29.38,SW,235,10.8,12.6,24,-99.99,,,0.00,0,rob ver 1B,2013-04-01 04:17:00,
2013-03-31 21:18:00,72.2,34.3,29.38,SW,235,11.4,14.4,25,-99.99,,,0.00,0,rob ver 1B,2013-04-01 04:18:00,
2013-03-31 21:19:00,72.2,34.7,29.38,SW,234,10.6,12.1,25,-99.99,,,0.00,0,rob ver 1B,2013-04-01 04:19:00,
2013-03-31 21:20:00,72.1,34.9,29.38,SW,231,9.7,11.8,25,-99.99,,,0.00,0,rob ver 1B,2013-04-01 04:20:00,
2013-03-31 21:21:00,72.8,37.3,29.41,WSW,251,11.7,15.5,27,-99.99,,,0.00,0,rob ver 1A,2013-04-01 04:21:00,
2013-03-31 21:22:00,71.9,35.5,29.38,SW,230,10.3,14.6,26,-99.99,,,0.00,0,rob ver 1B,2013-04-01 04:22:00,
2013-03-31 21:23:00,71.9,35.9,29.38,SW,229,11.9,14.0,26,-99.99,,,0.00,0,rob ver 1B,2013-04-01 04:23:00,
2013-03-31 21:24:00,71.8,36.0,29.38,SW,228,10.6,13.2,27,-99.99,,,0.00,0,rob ver 1B,2013-04-01 04:24:00,
2013-03-31 21:25:00,71.7,36.3,29.38,SW,231,10.5,13.2,27,-99.99,,,0.00,0,rob ver 1B,2013-04-01 04:25:00,
2013-03-31 21:26:00,72.6,37.3,29.41,WSW,253,13.1,17.2,27,-99.99,,,0.00,0,rob ver 1A,2013-04-01 04:26:00,
2013-03-31 21:27:00,71.5,36.6,29.38,SW,233,9.9,12.1,28,-99.99,,,0.00,0,rob ver 1B,2013-04-01 04:27:00,
2013-03-31 21:28:00,71.4,36.9,29.38,SW,236,10.1,11.8,28,-99.99,,,0.00,0,rob ver 1B,2013-04-01 04:28:00,
2013-03-31 21:29:00,71.4,36.9,29.38,SW,236,8.5,11.1,28,-99.99,,,0.00,0,rob ver 1B,2013-04-01 04:29:00,
2013-03-31 21:30:00,71.3,37.0,29.38,SW,235,8.1,10.2,28,-99.99,,,0.00,0,rob ver 1B,2013-04-01 04:30:00,
2013-03-31 21:31:00,72.5,37.2,29.41,WSW,257,14.0,16.4,27,-99.99,,,0.00,0,rob ver 1A,2013-04-01 04:31:00,
2013-03-31 21:32:00,71.3,37.2,29.38,WSW,242,9.3,12.4,28,-99.99,,,0.00,0,rob ver 1B,2013-04-01 04:32:00,
2013-03-31 21:33:00,71.2,37.1,29.38,WSW,242,8.7,10.2,28,-99.99,,,0.00,0,rob ver 1B,2013-04-01 04:33:00,
2013-03-31 21:34:00,71.1,37.1,29.38,WSW,247,7.7,9.3,28,-99.99,,,0.00,0,rob ver 1B,2013-04-01 04:34:00,
2013-03-31 21:35:00,71.0,37.0,29.38,WSW,248,7.3,9.0,28,-99.99,,,0.00,0,rob ver 1B,2013-04-01 04:35:00,
2013-03-31 21:36:00,72.4,36.9,29.41,West,265,13.6,16.5,27,-99.99,,,0.00,0,rob ver 1A,2013-04-01 04:36:00,
2013-03-31 21:37:00,70.8,37.0,29.38,WSW,251,7.4,9.5,29,-99.99,,,0.00,0,rob ver 1B,2013-04-01 04:37:00,
2013-03-31 21:38:00,70.8,37.1,29.38,WSW,252,7.5,9.4,29,-99.99,,,0.00,0,rob ver 1B,2013-04-01 04:38:00,
2013-03-31 21:39:00,70.8,37.2,29.38,WSW,251,7.0,8.4,29,-99.99,,,0.00,0,rob ver 1B,2013-04-01 04:39:00,
2013-03-31 21:40:00,70.8,37.3,29.38,WSW,251,6.5,7.8,29,-99.99,,,0.00,0,rob ver 1B,2013-04-01 04:40:00,
2013-03-31 21:41:00,72.2,36.7,29.41,WSW,257,11.7,14.1,27,-99.99,,,0.00,0,rob ver 1A,2013-04-01 04:41:00,
2013-03-31 21:42:00,70.6,37.1,29.38,WSW,244,5.3,6.1,29,-99.99,,,0.00,0,rob ver 1B,2013-04-01 04:42:00,
2013-03-31 21:43:00,70.4,37.2,29.41,WSW,239,5.6,6.8,29,-99.99,,,0.00,0,rob ver 1B,2013-04-01 04:43:00,
2013-03-31 21:44:00,70.4,37.2,29.41,WSW,241,5.2,6.4,29,-99.99,,,0.00,0,rob ver 1B,2013-04-01 04:44:00,
2013-03-31 21:45:00,70.4,37.3,29.38,WSW,239,5.7,7.2,29,-99.99,,,0.00,0,rob ver 1B,2013-04-01 04:45:00,
2013-03-31 21:46:00,71.9,36.7,29.41,West,263,9.4,11.3,27,-99.99,,,0.00,0,rob ver 1A,2013-04-01 04:46:00,
2013-03-31 21:47:00,70.3,37.4,29.41,SW,233,4.9,6.0,30,-99.99,,,0.00,0,rob ver 1B,2013-04-01 04:47:00,
2013-03-31 21:48:00,70.2,37.5,29.41,SW,235,4.9,6.8,30,-99.99,,,0.00,0,rob ver 1B,2013-04-01 04:48:00,
2013-03-31 21:49:00,70.2,37.8,29.41,SW,236,6.0,8.3,30,-99.99,,,0.00,0,rob ver 1B,2013-04-01 04:49:00,
2013-03-31 21:50:00,70.2,37.8,29.41,SW,231,5.8,7.1,30,-99.99,,,0.00,0,rob ver 1B,2013-04-01 04:50:00,
2013-03-31 21:51:00,71.7,36.5,29.41,WSW,256,8.3,11.1,27,-99.99,,,0.00,0,rob ver 1A,2013-04-01 04:51:00,
2013-03-31 21:52:00,70.2,37.8,29.41,SW,234,5.2,6.4,30,-99.99,,,0.00,0,rob ver 1B,2013-04-01 04:52:00,
2013-03-31 21:53:00,70.0,37.8,29.41,SW,236,4.8,5.5,30,-99.99,,,0.00,0,rob ver 1B,2013-04-01 04:53:00,
2013-03-31 21:54:00,69.9,37.7,29.41,SW,230,4.6,5.6,30,-99.99,,,0.00,0,rob ver 1B,2013-04-01 04:54:00,
2013-03-31 21:55:00,69.8,37.7,29.41,SW,232,5.2,7.6,31,-99.99,,,0.00,0,rob ver 1B,2013-04-01 04:55:00,
2013-03-31 21:56:00,71.4,36.3,29.41,West,259,8.6,10.5,27,-99.99,,,0.00,0,rob ver 1A,2013-04-01 04:56:00,
2013-03-31 21:57:00,69.9,38.3,29.41,WSW,239,8.5,10.7,31,-99.99,,,0.00,0,rob ver 1B,2013-04-01 04:57:00,
2013-03-31 21:58:00,69.9,38.5,29.41,SW,232,10.4,15.9,32,-99.99,,,0.00,0,rob ver 1B,2013-04-01 04:58:00,
2013-03-31 21:59:00,70.0,39.1,29.38,WSW,237,15.1,18.8,32,-99.99,,,0.00,0,rob ver 1B,2013-04-01 04:59:00,
2013-03-31 22:00:00,70.1,39.2,29.38,SW,233,16.5,21.8,32,-99.99,,,0.00,0,rob ver 1B,2013-04-01 05:00:00,
2013-03-31 22:01:00,71.2,36.2,29.41,West,261,7.4,10.9,27,-99.99,,,0.00,0,rob ver 1A,2013-04-01 05:01:00,
2013-03-31 22:02:00,70.1,39.2,29.38,SW,234,12.4,16.0,32,-99.99,,,0.00,0,rob ver 1B,2013-04-01 05:02:00,
2013-03-31 22:03:00,70.0,39.2,29.38,SW,233,14.3,17.9,32,-99.99,,,0.00,0,rob ver 1B,2013-04-01 05:03:00,
2013-03-31 22:04:00,70.0,39.2,29.38,SW,231,14.6,16.9,32,-99.99,,,0.00,0,rob ver 1B,2013-04-01 05:04:00,
2013-03-31 22:05:00,69.9,39.2,29.38,SW,233,14.9,18.9,32,-99.99,,,0.00,0,rob ver 1B,2013-04-01 05:05:00,
2013-03-31 22:06:00,69.8,39.1,29.38,SW,234,11.0,13.8,32,-99.99,,,0.00,0,rob ver 1B,2013-04-01 05:06:00,
2013-03-31 22:07:00,70.9,36.2,29.41,WSW,241,6.9,10.6,27,-99.99,,,0.00,0,rob ver 1A,2013-04-01 05:07:00,
2013-03-31 22:08:00,69.7,39.0,29.38,SW,231,10.7,12.9,32,-99.99,,,0.00,0,rob ver 1B,2013-04-01 05:08:00,
2013-03-31 22:09:00,69.6,39.1,29.38,SW,228,12.8,15.5,32,-99.99,,,0.00,0,rob ver 1B,2013-04-01 05:09:00,
2013-03-31 22:10:00,69.7,39.2,29.38,SW,229,13.2,16.8,32,-99.99,,,0.00,0,rob ver 1B,2013-04-01 05:10:00,
2013-03-31 22:11:00,69.6,39.2,29.38,SW,229,14.1,17.3,32,-99.99,,,0.00,0,rob ver 1B,2013-04-01 05:11:00,
2013-03-31 22:12:00,70.9,36.0,29.44,WSW,244,3.7,4.7,27,-99.99,,,0.00,0,rob ver 1A,2013-04-01 05:12:00,
2013-03-31 22:13:00,69.5,39.1,29.38,SW,226,12.0,15.4,32,-99.99,,,0.00,0,rob ver 1B,2013-04-01 05:13:00,
2013-03-31 22:14:00,69.4,39.1,29.38,SW,225,11.9,14.5,32,-99.99,,,0.00,0,rob ver 1B,2013-04-01 05:14:00,
2013-03-31 22:15:00,69.2,39.0,29.38,SW,226,9.9,11.8,33,-99.99,,,0.00,0,rob ver 1B,2013-04-01 05:15:00,
2013-03-31 22:16:00,69.2,39.0,29.38,SW,228,10.7,13.3,33,-99.99,,,0.00,0,rob ver 1B,2013-04-01 05:16:00,
2013-03-31 22:17:00,70.6,36.0,29.44,SW,236,3.8,4.4,28,-99.99,,,0.00,0,rob ver 1A,2013-04-01 05:17:00,
2013-03-31 22:18:00,69.1,39.0,29.38,SW,223,11.0,13.7,33,-99.99,,,0.00,0,rob ver 1B,2013-04-01 05:18:00,
2013-03-31 22:19:00,69.1,39.0,29.38,SW,220,10.3,13.6,33,-99.99,,,0.00,0,rob ver 1B,2013-04-01 05:19:00,
2013-03-31 22:20:00,68.9,39.0,29.38,SW,221,10.4,12.4,33,-99.99,,,0.00,0,rob ver 1B,2013-04-01 05:20:00,
2013-03-31 22:21:00,68.8,38.9,29.38,SW,220,9.5,11.6,33,-99.99,,,0.00,0,rob ver 1B,2013-04-01 05:21:00,
2013-03-31 22:22:00,70.7,35.9,29.44,WSW,239,6.6,9.0,27,-99.99,,,0.00,0,rob ver 1A,2013-04-01 05:22:00,
2013-03-31 22:23:00,68.7,38.9,29.38,SW,222,9.1,11.4,33,-99.99,,,0.00,0,rob ver 1B,2013-04-01 05:23:00,
2013-03-31 22:24:00,68.7,39.0,29.38,SW,224,9.1,10.8,33,-99.99,,,0.00,0,rob ver 1B,2013-04-01 05:24:00,
2013-03-31 22:25:00,68.6,38.9,29.38,SW,220,8.7,10.0,33,-99.99,,,0.00,0,rob ver 1B,2013-04-01 05:25:00,
2013-03-31 22:26:00,68.5,38.9,29.38,SW,223,7.6,8.7,33,-99.99,,,0.00,0,rob ver 1B,2013-04-01 05:26:00,
2013-03-31 22:27:00,70.4,35.8,29.44,WSW,239,2.7,4.3,28,-99.99,,,0.00,0,rob ver 1A,2013-04-01 05:27:00,
2013-03-31 22:28:00,68.3,38.9,29.38,SW,228,7.7,10.0,34,-99.99,,,0.00,0,rob ver 1B,2013-04-01 05:28:00,
2013-03-31 22:29:00,68.4,38.9,29.38,SW,226,7.6,9.1,33,-99.99,,,0.00,0,rob ver 1B,2013-04-01 05:29:00,
2013-03-31 22:30:00,68.3,38.9,29.38,SW,227,7.6,8.7,33,-99.99,,,0.00,0,rob ver 1B,2013-04-01 05:30:00,
2013-03-31 22:31:00,68.2,38.8,29.38,SW,226,7.1,9.1,34,-99.99,,,0.00,0,rob ver 1B,2013-04-01 05:31:00,
2013-03-31 22:32:00,70.2,35.9,29.41,WSW,246,5.2,6.7,28,-99.99,,,0.00,0,rob ver 1A,2013-04-01 05:32:00,
2013-03-31 22:33:00,68.2,38.9,29.38,SW,231,7.1,8.5,34,-99.99,,,0.00,0,rob ver 1B,2013-04-01 05:33:00,
2013-03-31 22:34:00,68.1,38.8,29.38,SW,233,6.9,7.9,34,-99.99,,,0.00,0,rob ver 1B,2013-04-01 05:34:00,
2013-03-31 22:35:00,68.1,38.9,29.38,SW,230,7.1,8.4,34,-99.99,,,0.00,0,rob ver 1B,2013-04-01 05:35:00,
2013-03-31 22:36:00,68.1,38.8,29.38,SW,233,7.0,8.4,34,-99.99,,,0.00,0,rob ver 1B,2013-04-01 05:36:00,
2013-03-31 22:37:00,70.1,35.7,29.41,West,260,5.6,6.9,28,-99.99,,,0.00,0,rob ver 1A,2013-04-01 05:37:00,
2013-03-31 22:38:00,67.9,38.8,29.38,SW,231,6.2,7.4,34,-99.99,,,0.00,0,rob ver 1B,2013-04-01 05:38:00,
2013-03-31 22:39:00,67.9,38.8,29.38,SW,231,6.4,8.1,34,-99.99,,,0.00,0,rob ver 1B,2013-04-01 05:39:00,
2013-03-31 22:40:00,67.9,38.7,29.38,SW,233,6.1,7.3,34,-99.99,,,0.00,0,rob ver 1B,2013-04-01 05:40:00,
2013-03-31 22:41:00,67.8,38.7,29.38,SW,235,5.7,7.8,34,-99.99,,,0.00,0,rob ver 1B,2013-04-01 05:41:00,
2013-03-31 22:42:00,67.8,38.7,29.38,WSW,238,6.1,7.3,34,-99.99,,,0.00,0,rob ver 1B,2013-04-01 05:42:00,
2013-03-31 22:43:00,69.9,35.6,29.41,WSW,251,6.8,8.3,28,-99.99,,,0.00,0,rob ver 1A,2013-04-01 05:43:00,
2013-03-31 22:44:00,67.7,38.7,29.38,WSW,241,6.6,8.8,34,-99.99,,,0.00,0,rob ver 1B,2013-04-01 05:44:00,
2013-03-31 22:45:00,67.7,38.8,29.38,WSW,244,7.9,10.2,34,-99.99,,,0.00,0,rob ver 1B,2013-04-01 05:45:00,
2013-03-31 22:46:00,67.8,38.7,29.38,WSW,245,7.3,9.9,34,-99.99,,,0.00,0,rob ver 1B,2013-04-01 05:46:00,
2013-03-31 22:47:00,67.7,38.7,29.38,WSW,246,7.7,10.1,34,-99.99,,,0.00,0,rob ver 1B,2013-04-01 05:47:00,
2013-03-31 22:48:00,69.9,35.4,29.41,West,260,6.2,7.5,28,-99.99,,,0.00,0,rob ver 1A,2013-04-01 05:48:00,
2013-03-31 22:49:00,67.7,38.7,29.38,WSW,241,7.2,10.0,34,-99.99,,,0.00,0,rob ver 1B,2013-04-01 05:49:00,
2013-03-31 22:50:00,67.7,38.7,29.38,WSW,240,7.1,8.5,34,-99.99,,,0.00,0,rob ver 1B,2013-04-01 05:50:00,
2013-03-31 22:51:00,67.6,38.7,29.38,WSW,245,6.8,8.2,34,-99.99,,,0.00,0,rob ver 1B,2013-04-01 05:51:00,
2013-03-31 22:52:00,67.5,38.7,29.38,WSW,243,7.2,9.2,34,-99.99,,,0.00,0,rob ver 1B,2013-04-01 05:52:00,
2013-03-31 22:53:00,69.8,35.1,29.41,WSW,247,9.8,11.9,27,-99.99,,,0.00,0,rob ver 1A,2013-04-01 05:53:00,
2013-03-31 22:54:00,67.3,38.8,29.38,WSW,253,6.0,6.6,35,-99.99,,,0.00,0,rob ver 1B,2013-04-01 05:54:00,
2013-03-31 22:55:00,67.3,38.8,29.38,WSW,255,6.2,7.2,35,-99.99,,,0.00,0,rob ver 1B,2013-04-01 05:55:00,
2013-03-31 22:56:00,67.2,38.7,29.38,West,259,6.0,7.1,35,-99.99,,,0.00,0,rob ver 1B,2013-04-01 05:56:00,
2013-03-31 22:57:00,67.0,38.7,29.38,West,263,5.3,6.0,35,-99.99,,,0.00,0,rob ver 1B,2013-04-01 05:57:00,
2013-03-31 22:58:00,69.8,34.9,29.41,WSW,251,9.2,12.4,27,-99.99,,,0.00,0,rob ver 1A,2013-04-01 05:58:00,
2013-03-31 22:59:00,66.8,38.7,29.38,West,274,5.4,6.0,35,-99.99,,,0.00,0,rob ver 1B,2013-04-01 05:59:00,
2013-03-31 23:00:00,66.7,38.8,29.38,West,277,5.6,6.1,35,-99.99,,,0.00,0,rob ver 1B,2013-04-01 06:00:00,
2013-03-31 23:01:00,66.6,38.8,29.38,West,274,5.3,6.2,35,-99.99,,,0.00,0,rob ver 1B,2013-04-01 06:01:00,
2013-03-31 23:02:00,66.6,38.8,29.38,West,273,5.6,6.4,35,-99.99,,,0.00,0,rob ver 1B,2013-04-01 06:02:00,
2013-03-31 23:03:00,69.6,34.7,29.41,WSW,246,6.0,7.9,27,-99.99,,,0.00,0,rob ver 1A,2013-04-01 06:03:00,
2013-03-31 23:04:00,66.5,38.8,29.38,West,277,5.4,6.1,36,-99.99,,,0.00,0,rob ver 1B,2013-04-01 06:04:00,
2013-03-31 23:05:00,66.4,38.8,29.38,WNW,282,5.0,5.6,36,-99.99,,,0.00,0,rob ver 1B,2013-04-01 06:05:00,
2013-03-31 23:06:00,66.3,38.8,29.38,WNW,287,5.0,5.4,36,-99.99,,,0.00,0,rob ver 1B,2013-04-01 06:06:00,
2013-03-31 23:07:00,66.3,38.7,29.38,WNW,296,4.5,5.3,36,-99.99,,,0.00,0,rob ver 1B,2013-04-01 06:07:00,
2013-03-31 23:08:00,69.3,34.2,29.44,SW,226,5.2,6.3,27,-99.99,,,0.00,0,rob ver 1A,2013-04-01 06:08:00,
2013-03-31 23:09:00,66.2,38.4,29.38,NW,309,3.9,4.5,35,-99.99,,,0.00,0,rob ver 1B,2013-04-01 06:09:00,
2013-03-31 23:10:00,66.1,38.1,29.38,NW,308,3.7,4.4,35,-99.99,,,0.00,0,rob ver 1B,2013-04-01 06:10:00,
2013-03-31 23:11:00,66.0,38.3,29.38,NW,309,3.8,4.4,36,-99.99,,,0.00,0,rob ver 1B,2013-04-01 06:11:00,
2013-03-31 23:12:00,65.9,38.4,29.38,NW,311,4.0,5.1,36,-99.99,,,0.00,0,rob ver 1B,2013-04-01 06:12:00,
2013-03-31 23:13:00,69.1,33.9,29.44,WSW,249,3.9,4.8,27,-99.99,,,0.00,0,rob ver 1A,2013-04-01 06:13:00,
2013-03-31 23:14:00,65.9,38.7,29.38,NW,310,5.0,6.0,36,-99.99,,,0.00,0,rob ver 1B,2013-04-01 06:14:00,
2013-03-31 23:15:00,66.1,38.9,29.38,NW,304,5.6,7.6,36,-99.99,,,0.00,0,rob ver 1B,2013-04-01 06:15:00,
2013-03-31 23:16:00,66.3,38.8,29.38,WNW,299,5.1,6.2,35,-99.99,,,0.00,0,rob ver 1B,2013-04-01 06:16:00,
2013-03-31 23:17:00,66.5,38.6,29.38,WNW,299,4.5,6.0,35,-99.99,,,0.00,0,rob ver 1B,2013-04-01 06:17:00,
2013-03-31 23:18:00,68.8,33.3,29.41,WSW,256,2.7,3.5,26,-99.99,,,0.00,0,rob ver 1A,2013-04-01 06:18:00,
2013-03-31 23:19:00,66.5,38.6,29.38,WNW,298,5.1,7.1,36,-99.99,,,0.00,0,rob ver 1B,2013-04-01 06:19:00,
2013-03-31 23:20:00,66.5,38.8,29.38,WNW,296,5.6,7.2,35,-99.99,,,0.00,0,rob ver 1B,2013-04-01 06:20:00,
2013-03-31 23:21:00,66.5,38.8,29.38,WNW,294,5.7,7.4,36,-99.99,,,0.00,0,rob ver 1B,2013-04-01 06:21:00,
2013-03-31 23:22:00,66.5,38.9,29.38,WNW,292,6.3,7.3,36,-99.99,,,0.00,0,rob ver 1B,2013-04-01 06:22:00,
2013-03-31 23:23:00,66.4,39.0,29.38,WNW,294,6.2,7.9,36,-99.99,,,0.00,0,rob ver 1B,2013-04-01 06:23:00,
2013-03-31 23:24:00,68.6,33.4,29.41,South,173,1.5,2.6,26,-99.99,,,0.00,0,rob ver 1A,2013-04-01 06:24:00,
2013-03-31 23:25:00,66.4,39.2,29.38,WNW,283,6.7,8.6,36,-99.99,,,0.00,0,rob ver 1B,2013-04-01 06:25:00,
2013-03-31 23:26:00,66.3,39.3,29.38,West,279,6.9,9.6,37,-99.99,,,0.00,0,rob ver 1B,2013-04-01 06:26:00,
2013-03-31 23:27:00,66.3,39.5,29.38,West,272,7.5,9.1,37,-99.99,,,0.00,0,rob ver 1B,2013-04-01 06:27:00,
2013-03-31 23:28:00,66.4,39.7,29.38,West,270,9.2,11.9,37,-99.99,,,0.00,0,rob ver 1B,2013-04-01 06:28:00,
2013-03-31 23:29:00,68.5,33.2,29.41,West,264,2.5,6.7,26,-99.99,,,0.00,0,rob ver 1A,2013-04-01 06:29:00,
2013-03-31 23:30:00,66.5,39.8,29.38,WSW,256,8.7,10.4,37,-99.99,,,0.00,0,rob ver 1B,2013-04-01 06:30:00,
2013-03-31 23:31:00,66.6,39.8,29.38,WSW,256,8.5,10.4,37,-99.99,,,0.00,0,rob ver 1B,2013-04-01 06:31:00,
2013-03-31 23:32:00,66.7,39.8,29.38,WSW,256,8.1,10.3,37,-99.99,,,0.00,0,rob ver 1B,2013-04-01 06:32:00,
2013-03-31 23:33:00,66.7,39.8,29.38,WSW,256,7.8,9.1,37,-99.99,,,0.00,0,rob ver 1B,2013-04-01 06:33:00,
2013-03-31 23:34:00,68.8,33.1,29.41,WSW,251,6.2,8.8,26,-99.99,,,0.00,0,rob ver 1A,2013-04-01 06:34:00,
2013-03-31 23:35:00,66.5,39.7,29.38,WSW,246,5.7,7.4,37,-99.99,,,0.00,0,rob ver 1B,2013-04-01 06:35:00,
2013-03-31 23:36:00,66.3,39.6,29.38,WSW,239,5.3,6.5,37,-99.99,,,0.00,0,rob ver 1B,2013-04-01 06:36:00,
2013-03-31 23:37:00,66.2,39.6,29.38,SW,228,4.5,5.9,37,-99.99,,,0.00,0,rob ver 1B,2013-04-01 06:37:00,
2013-03-31 23:38:00,66.0,39.4,29.38,SW,221,4.5,5.2,37,-99.99,,,0.00,0,rob ver 1B,2013-04-01 06:38:00,
2013-03-31 23:39:00,68.8,33.0,29.44,WSW,251,6.6,8.1,26,-99.99,,,0.00,0,rob ver 1A,2013-04-01 06:39:00,
2013-03-31 23:40:00,65.5,38.9,29.38,SSW,203,3.6,4.3,37,-99.99,,,0.00,0,rob ver 1B,2013-04-01 06:40:00,
2013-03-31 23:41:00,65.3,38.7,29.38,SSW,201,2.7,3.3,37,-99.99,,,0.00,0,rob ver 1B,2013-04-01 06:41:00,
2013-03-31 23:42:00,65.1,38.7,29.38,SSW,206,2.6,2.9,38,-99.99,,,0.00,0,rob ver 1B,2013-04-01 06:42:00,
2013-03-31 23:43:00,65.0,38.7,29.38,SSW,211,2.5,2.8,37,-99.99,,,0.00,0,rob ver 1B,2013-04-01 06:43:00,
2013-03-31 23:44:00,64.9,38.7,29.38,SW,217,2.3,2.7,38,-99.99,,,0.00,0,rob ver 1B,2013-04-01 06:44:00,
2013-03-31 23:45:00,68.8,32.9,29.44,WSW,256,10.6,18.6,26,-99.99,,,0.00,0,rob ver 1A,2013-04-01 06:45:00,
2013-03-31 23:46:00,64.8,39.1,29.38,SW,234,2.8,3.4,38,-99.99,,,0.00,0,rob ver 1B,2013-04-01 06:46:00,
2013-03-31 23:47:00,64.8,39.1,29.38,WSW,241,3.1,3.4,38,-99.99,,,0.00,0,rob ver 1B,2013-04-01 06:47:00,
2013-03-31 23:48:00,64.7,39.1,29.38,WSW,245,2.7,3.2,39,-99.99,,,0.00,0,rob ver 1B,2013-04-01 06:48:00,
2013-03-31 23:49:00,64.7,39.1,29.38,West,260,2.1,2.3,38,-99.99,,,0.00,0,rob ver 1B,2013-04-01 06:49:00,
2013-03-31 23:50:00,68.9,33.2,29.44,WSW,255,12.3,16.9,26,-99.99,,,0.00,0,rob ver 1A,2013-04-01 06:50:00,
2013-03-31 23:51:00,64.6,39.0,29.38,NW,325,2.7,3.1,38,-99.99,,,0.00,0,rob ver 1B,2013-04-01 06:51:00,
2013-03-31 23:52:00,64.5,39.0,29.38,NNW,336,2.9,3.4,38,-99.99,,,0.00,0,rob ver 1B,2013-04-01 06:52:00,
2013-03-31 23:53:00,64.4,38.8,29.38,NNW,339,3.0,3.3,38,-99.99,,,0.00,0,rob ver 1B,2013-04-01 06:53:00,
2013-03-31 23:54:00,64.2,38.8,29.38,NNW,346,3.6,4.0,39,-99.99,,,0.00,0,rob ver 1B,2013-04-01 06:54:00,
2013-03-31 23:55:00,68.2,33.4,29.44,WSW,251,9.1,12.1,27,-99.99,,,0.00,0,rob ver 1A,2013-04-01 06:55:00,
2013-03-31 23:56:00,64.0,39.6,29.41,NNW,328,2.9,3.3,40,-99.99,,,0.00,0,rob ver 1B,2013-04-01 06:56:00,
2013-03-31 23:57:00,64.0,39.4,29.41,NNW,334,2.7,3.0,40,-99.99,,,0.00,0,rob ver 1B,2013-04-01 06:57:00,
2013-03-31 23:58:00,64.1,39.4,29.38,NNW,331,2.6,3.1,40,-99.99,,,0.00,0,rob ver 1B,2013-04-01 06:58:00,
2013-03-31 23:59:00,64.1,39.5,29.38,NW,325,2.6,3.0,40,-99.99,,,0.00,0,rob ver 1B,2013-04-01 06:59:00,